<?xml version="1.0" encoding="UTF-8" standalone="no" ?>
<gpx xmlns="http://www.topografix.com/GPX/1/1" xmlns:xsi="http://www.w3.org/2001/XMLSchema-instance" xsi:schemaLocation="http://www.topografix.com/GPX/1/1 http://www.topografix.com/GPX/1/1/gpx.xsd" version="1.1" creator="VisuGPX - https://www.visugpx.com">
  <metadata>
    <name>Jouques-ND de Consolation</name>
    <desc><![CDATA[Boucle de 13.5 km, dénivelé cumulé de 380 m]]></desc>
  </metadata>
  <trk>
    <name><![CDATA[Jouques_8 mars 2017]]></name>
    <trkseg>
      <trkpt lat="43.63585" lon="5.63956">
        <ele>324</ele>
        <time>2017-03-08T08:50:28Z</time>
      </trkpt>
      <trkpt lat="43.63586" lon="5.63934">
        <ele>336</ele>
        <time>2017-03-08T08:50:32Z</time>
      </trkpt>
      <trkpt lat="43.63579" lon="5.63942">
        <ele>315</ele>
        <time>2017-03-08T08:50:37Z</time>
      </trkpt>
      <trkpt lat="43.6358" lon="5.63954">
        <ele>311</ele>
        <time>2017-03-08T08:51:31Z</time>
      </trkpt>
      <trkpt lat="43.63579" lon="5.63966">
        <ele>308</ele>
        <time>2017-03-08T08:54:42Z</time>
      </trkpt>
      <trkpt lat="43.63582" lon="5.63976">
        <ele>310</ele>
        <time>2017-03-08T08:54:51Z</time>
      </trkpt>
      <trkpt lat="43.6358" lon="5.63988">
        <ele>315</ele>
        <time>2017-03-08T08:55:02Z</time>
      </trkpt>
      <trkpt lat="43.63582" lon="5.64">
        <ele>317</ele>
        <time>2017-03-08T08:55:13Z</time>
      </trkpt>
      <trkpt lat="43.63589" lon="5.64004">
        <ele>319</ele>
        <time>2017-03-08T08:55:23Z</time>
      </trkpt>
      <trkpt lat="43.63598" lon="5.64007">
        <ele>317</ele>
        <time>2017-03-08T08:55:34Z</time>
      </trkpt>
      <trkpt lat="43.63606" lon="5.64008">
        <ele>316</ele>
        <time>2017-03-08T08:55:40Z</time>
      </trkpt>
      <trkpt lat="43.63614" lon="5.64002">
        <ele>312</ele>
        <time>2017-03-08T08:55:52Z</time>
      </trkpt>
      <trkpt lat="43.63621" lon="5.63995">
        <ele>303</ele>
        <time>2017-03-08T08:56:05Z</time>
      </trkpt>
      <trkpt lat="43.6363" lon="5.63994">
        <ele>304</ele>
        <time>2017-03-08T08:56:17Z</time>
      </trkpt>
      <trkpt lat="43.63639" lon="5.63994">
        <ele>301</ele>
        <time>2017-03-08T08:56:27Z</time>
      </trkpt>
      <trkpt lat="43.63648" lon="5.63993">
        <ele>299</ele>
        <time>2017-03-08T08:56:36Z</time>
      </trkpt>
      <trkpt lat="43.63656" lon="5.6399">
        <ele>297</ele>
        <time>2017-03-08T08:56:46Z</time>
      </trkpt>
      <trkpt lat="43.63664" lon="5.63988">
        <ele>297</ele>
        <time>2017-03-08T08:56:55Z</time>
      </trkpt>
      <trkpt lat="43.63671" lon="5.63988">
        <ele>297</ele>
        <time>2017-03-08T08:57:02Z</time>
      </trkpt>
      <trkpt lat="43.6368" lon="5.63988">
        <ele>303</ele>
        <time>2017-03-08T08:57:09Z</time>
      </trkpt>
      <trkpt lat="43.63687" lon="5.63986">
        <ele>305</ele>
        <time>2017-03-08T08:57:16Z</time>
      </trkpt>
      <trkpt lat="43.63696" lon="5.63988">
        <ele>308</ele>
        <time>2017-03-08T08:57:21Z</time>
      </trkpt>
      <trkpt lat="43.63704" lon="5.63992">
        <ele>309</ele>
        <time>2017-03-08T08:57:54Z</time>
      </trkpt>
      <trkpt lat="43.6371" lon="5.63998">
        <ele>312</ele>
        <time>2017-03-08T08:58:02Z</time>
      </trkpt>
      <trkpt lat="43.63718" lon="5.64003">
        <ele>309</ele>
        <time>2017-03-08T08:58:12Z</time>
      </trkpt>
      <trkpt lat="43.63725" lon="5.64011">
        <ele>311</ele>
        <time>2017-03-08T08:58:20Z</time>
      </trkpt>
      <trkpt lat="43.63733" lon="5.64011">
        <ele>314</ele>
        <time>2017-03-08T08:58:34Z</time>
      </trkpt>
      <trkpt lat="43.6374" lon="5.64013">
        <ele>315</ele>
        <time>2017-03-08T08:58:39Z</time>
      </trkpt>
      <trkpt lat="43.63747" lon="5.64011">
        <ele>316</ele>
        <time>2017-03-08T08:58:56Z</time>
      </trkpt>
      <trkpt lat="43.63751" lon="5.63999">
        <ele>316</ele>
        <time>2017-03-08T08:59:02Z</time>
      </trkpt>
      <trkpt lat="43.63749" lon="5.63989">
        <ele>317</ele>
        <time>2017-03-08T08:59:13Z</time>
      </trkpt>
      <trkpt lat="43.63751" lon="5.63976">
        <ele>317</ele>
        <time>2017-03-08T08:59:18Z</time>
      </trkpt>
      <trkpt lat="43.63748" lon="5.63968">
        <ele>318</ele>
        <time>2017-03-08T08:59:22Z</time>
      </trkpt>
      <trkpt lat="43.63744" lon="5.63959">
        <ele>316</ele>
        <time>2017-03-08T08:59:28Z</time>
      </trkpt>
      <trkpt lat="43.63742" lon="5.63947">
        <ele>316</ele>
        <time>2017-03-08T08:59:36Z</time>
      </trkpt>
      <trkpt lat="43.63746" lon="5.63937">
        <ele>316</ele>
        <time>2017-03-08T08:59:42Z</time>
      </trkpt>
      <trkpt lat="43.63746" lon="5.63925">
        <ele>313</ele>
        <time>2017-03-08T08:59:51Z</time>
      </trkpt>
      <trkpt lat="43.63747" lon="5.63914">
        <ele>312</ele>
        <time>2017-03-08T08:59:58Z</time>
      </trkpt>
      <trkpt lat="43.63739" lon="5.63907">
        <ele>312</ele>
        <time>2017-03-08T09:00:04Z</time>
      </trkpt>
      <trkpt lat="43.63739" lon="5.63897">
        <ele>315</ele>
        <time>2017-03-08T09:00:09Z</time>
      </trkpt>
      <trkpt lat="43.6374" lon="5.63886">
        <ele>316</ele>
        <time>2017-03-08T09:00:15Z</time>
      </trkpt>
      <trkpt lat="43.63737" lon="5.63875">
        <ele>319</ele>
        <time>2017-03-08T09:00:22Z</time>
      </trkpt>
      <trkpt lat="43.63737" lon="5.63864">
        <ele>321</ele>
        <time>2017-03-08T09:00:30Z</time>
      </trkpt>
      <trkpt lat="43.63742" lon="5.63854">
        <ele>318</ele>
        <time>2017-03-08T09:00:34Z</time>
      </trkpt>
      <trkpt lat="43.63746" lon="5.63844">
        <ele>318</ele>
        <time>2017-03-08T09:00:40Z</time>
      </trkpt>
      <trkpt lat="43.63718" lon="5.63849">
        <ele>315</ele>
        <time>2017-03-08T09:00:44Z</time>
      </trkpt>
      <trkpt lat="43.6372" lon="5.63838">
        <ele>322</ele>
        <time>2017-03-08T09:00:50Z</time>
      </trkpt>
      <trkpt lat="43.63723" lon="5.63827">
        <ele>317</ele>
        <time>2017-03-08T09:00:58Z</time>
      </trkpt>
      <trkpt lat="43.63718" lon="5.63818">
        <ele>316</ele>
        <time>2017-03-08T09:01:05Z</time>
      </trkpt>
      <trkpt lat="43.63719" lon="5.63808">
        <ele>316</ele>
        <time>2017-03-08T09:01:11Z</time>
      </trkpt>
      <trkpt lat="43.63718" lon="5.63797">
        <ele>320</ele>
        <time>2017-03-08T09:01:18Z</time>
      </trkpt>
      <trkpt lat="43.63712" lon="5.63789">
        <ele>321</ele>
        <time>2017-03-08T09:01:24Z</time>
      </trkpt>
      <trkpt lat="43.63707" lon="5.63781">
        <ele>323</ele>
        <time>2017-03-08T09:01:30Z</time>
      </trkpt>
      <trkpt lat="43.63706" lon="5.6377">
        <ele>323</ele>
        <time>2017-03-08T09:01:36Z</time>
      </trkpt>
      <trkpt lat="43.63702" lon="5.6376">
        <ele>324</ele>
        <time>2017-03-08T09:01:45Z</time>
      </trkpt>
      <trkpt lat="43.63702" lon="5.6375">
        <ele>323</ele>
        <time>2017-03-08T09:01:51Z</time>
      </trkpt>
      <trkpt lat="43.63698" lon="5.63743">
        <ele>325</ele>
        <time>2017-03-08T09:01:57Z</time>
      </trkpt>
      <trkpt lat="43.63692" lon="5.63734">
        <ele>328</ele>
        <time>2017-03-08T09:02:04Z</time>
      </trkpt>
      <trkpt lat="43.63688" lon="5.63723">
        <ele>329</ele>
        <time>2017-03-08T09:02:12Z</time>
      </trkpt>
      <trkpt lat="43.6369" lon="5.63714">
        <ele>327</ele>
        <time>2017-03-08T09:02:17Z</time>
      </trkpt>
      <trkpt lat="43.63681" lon="5.63713">
        <ele>328</ele>
        <time>2017-03-08T09:02:22Z</time>
      </trkpt>
      <trkpt lat="43.63687" lon="5.63703">
        <ele>329</ele>
        <time>2017-03-08T09:02:26Z</time>
      </trkpt>
      <trkpt lat="43.6369" lon="5.63692">
        <ele>326</ele>
        <time>2017-03-08T09:02:34Z</time>
      </trkpt>
      <trkpt lat="43.63687" lon="5.63683">
        <ele>326</ele>
        <time>2017-03-08T09:02:41Z</time>
      </trkpt>
      <trkpt lat="43.63681" lon="5.63673">
        <ele>327</ele>
        <time>2017-03-08T09:02:46Z</time>
      </trkpt>
      <trkpt lat="43.63675" lon="5.63667">
        <ele>325</ele>
        <time>2017-03-08T09:02:54Z</time>
      </trkpt>
      <trkpt lat="43.63689" lon="5.63652">
        <ele>323</ele>
        <time>2017-03-08T09:02:59Z</time>
      </trkpt>
      <trkpt lat="43.63682" lon="5.63648">
        <ele>322</ele>
        <time>2017-03-08T09:03:05Z</time>
      </trkpt>
      <trkpt lat="43.63676" lon="5.63641">
        <ele>325</ele>
        <time>2017-03-08T09:03:11Z</time>
      </trkpt>
      <trkpt lat="43.63673" lon="5.63631">
        <ele>328</ele>
        <time>2017-03-08T09:03:18Z</time>
      </trkpt>
      <trkpt lat="43.63675" lon="5.63619">
        <ele>326</ele>
        <time>2017-03-08T09:03:27Z</time>
      </trkpt>
      <trkpt lat="43.63683" lon="5.63614">
        <ele>328</ele>
        <time>2017-03-08T09:03:34Z</time>
      </trkpt>
      <trkpt lat="43.63691" lon="5.63611">
        <ele>329</ele>
        <time>2017-03-08T09:03:39Z</time>
      </trkpt>
      <trkpt lat="43.63697" lon="5.63605">
        <ele>330</ele>
        <time>2017-03-08T09:03:43Z</time>
      </trkpt>
      <trkpt lat="43.63694" lon="5.63597">
        <ele>328</ele>
        <time>2017-03-08T09:03:48Z</time>
      </trkpt>
      <trkpt lat="43.63693" lon="5.63587">
        <ele>324</ele>
        <time>2017-03-08T09:03:53Z</time>
      </trkpt>
      <trkpt lat="43.63693" lon="5.63575">
        <ele>324</ele>
        <time>2017-03-08T09:04:00Z</time>
      </trkpt>
      <trkpt lat="43.63698" lon="5.63565">
        <ele>323</ele>
        <time>2017-03-08T09:04:07Z</time>
      </trkpt>
      <trkpt lat="43.63697" lon="5.63553">
        <ele>319</ele>
        <time>2017-03-08T09:04:21Z</time>
      </trkpt>
      <trkpt lat="43.63699" lon="5.63542">
        <ele>317</ele>
        <time>2017-03-08T09:04:29Z</time>
      </trkpt>
      <trkpt lat="43.63705" lon="5.63534">
        <ele>315</ele>
        <time>2017-03-08T09:04:48Z</time>
      </trkpt>
      <trkpt lat="43.63712" lon="5.6353">
        <ele>316</ele>
        <time>2017-03-08T09:04:54Z</time>
      </trkpt>
      <trkpt lat="43.63718" lon="5.63522">
        <ele>319</ele>
        <time>2017-03-08T09:05:03Z</time>
      </trkpt>
      <trkpt lat="43.63736" lon="5.63521">
        <ele>322</ele>
        <time>2017-03-08T09:05:08Z</time>
      </trkpt>
      <trkpt lat="43.63741" lon="5.63512">
        <ele>325</ele>
        <time>2017-03-08T09:05:20Z</time>
      </trkpt>
      <trkpt lat="43.63749" lon="5.63507">
        <ele>329</ele>
        <time>2017-03-08T09:05:28Z</time>
      </trkpt>
      <trkpt lat="43.63758" lon="5.63506">
        <ele>320</ele>
        <time>2017-03-08T09:05:36Z</time>
      </trkpt>
      <trkpt lat="43.63766" lon="5.63503">
        <ele>320</ele>
        <time>2017-03-08T09:05:45Z</time>
      </trkpt>
      <trkpt lat="43.63774" lon="5.63504">
        <ele>319</ele>
        <time>2017-03-08T09:05:52Z</time>
      </trkpt>
      <trkpt lat="43.63782" lon="5.63501">
        <ele>321</ele>
        <time>2017-03-08T09:06:00Z</time>
      </trkpt>
      <trkpt lat="43.6379" lon="5.63503">
        <ele>320</ele>
        <time>2017-03-08T09:06:09Z</time>
      </trkpt>
      <trkpt lat="43.63799" lon="5.63503">
        <ele>319</ele>
        <time>2017-03-08T09:06:20Z</time>
      </trkpt>
      <trkpt lat="43.63807" lon="5.63503">
        <ele>318</ele>
        <time>2017-03-08T09:06:29Z</time>
      </trkpt>
      <trkpt lat="43.63816" lon="5.63503">
        <ele>319</ele>
        <time>2017-03-08T09:06:34Z</time>
      </trkpt>
      <trkpt lat="43.63824" lon="5.63502">
        <ele>319</ele>
        <time>2017-03-08T09:06:41Z</time>
      </trkpt>
      <trkpt lat="43.63833" lon="5.635">
        <ele>323</ele>
        <time>2017-03-08T09:06:49Z</time>
      </trkpt>
      <trkpt lat="43.63841" lon="5.63498">
        <ele>320</ele>
        <time>2017-03-08T09:06:58Z</time>
      </trkpt>
      <trkpt lat="43.63849" lon="5.63497">
        <ele>318</ele>
        <time>2017-03-08T09:07:05Z</time>
      </trkpt>
      <trkpt lat="43.63858" lon="5.63496">
        <ele>317</ele>
        <time>2017-03-08T09:07:17Z</time>
      </trkpt>
      <trkpt lat="43.63865" lon="5.63492">
        <ele>318</ele>
        <time>2017-03-08T09:07:54Z</time>
      </trkpt>
      <trkpt lat="43.63874" lon="5.63493">
        <ele>322</ele>
        <time>2017-03-08T09:08:54Z</time>
      </trkpt>
      <trkpt lat="43.63882" lon="5.63488">
        <ele>324</ele>
        <time>2017-03-08T09:09:09Z</time>
      </trkpt>
      <trkpt lat="43.63889" lon="5.6348">
        <ele>322</ele>
        <time>2017-03-08T09:09:18Z</time>
      </trkpt>
      <trkpt lat="43.63894" lon="5.63471">
        <ele>320</ele>
        <time>2017-03-08T09:09:27Z</time>
      </trkpt>
      <trkpt lat="43.63899" lon="5.63461">
        <ele>320</ele>
        <time>2017-03-08T09:09:36Z</time>
      </trkpt>
      <trkpt lat="43.63901" lon="5.63449">
        <ele>321</ele>
        <time>2017-03-08T09:09:44Z</time>
      </trkpt>
      <trkpt lat="43.63903" lon="5.63438">
        <ele>321</ele>
        <time>2017-03-08T09:09:56Z</time>
      </trkpt>
      <trkpt lat="43.63911" lon="5.63432">
        <ele>323</ele>
        <time>2017-03-08T09:10:13Z</time>
      </trkpt>
      <trkpt lat="43.63918" lon="5.6343">
        <ele>323</ele>
        <time>2017-03-08T09:10:25Z</time>
      </trkpt>
      <trkpt lat="43.63926" lon="5.6343">
        <ele>323</ele>
        <time>2017-03-08T09:10:34Z</time>
      </trkpt>
      <trkpt lat="43.63934" lon="5.63427">
        <ele>327</ele>
        <time>2017-03-08T09:10:43Z</time>
      </trkpt>
      <trkpt lat="43.63943" lon="5.63427">
        <ele>325</ele>
        <time>2017-03-08T09:10:53Z</time>
      </trkpt>
      <trkpt lat="43.63952" lon="5.63425">
        <ele>328</ele>
        <time>2017-03-08T09:11:02Z</time>
      </trkpt>
      <trkpt lat="43.63961" lon="5.63424">
        <ele>329</ele>
        <time>2017-03-08T09:11:17Z</time>
      </trkpt>
      <trkpt lat="43.63968" lon="5.63418">
        <ele>334</ele>
        <time>2017-03-08T09:11:30Z</time>
      </trkpt>
      <trkpt lat="43.63976" lon="5.63413">
        <ele>340</ele>
        <time>2017-03-08T09:11:49Z</time>
      </trkpt>
      <trkpt lat="43.63984" lon="5.63417">
        <ele>336</ele>
        <time>2017-03-08T09:11:55Z</time>
      </trkpt>
      <trkpt lat="43.63992" lon="5.63417">
        <ele>338</ele>
        <time>2017-03-08T09:12:09Z</time>
      </trkpt>
      <trkpt lat="43.64" lon="5.63422">
        <ele>338</ele>
        <time>2017-03-08T09:12:21Z</time>
      </trkpt>
      <trkpt lat="43.64007" lon="5.63429">
        <ele>342</ele>
        <time>2017-03-08T09:12:39Z</time>
      </trkpt>
      <trkpt lat="43.64015" lon="5.63435">
        <ele>347</ele>
        <time>2017-03-08T09:12:55Z</time>
      </trkpt>
      <trkpt lat="43.64022" lon="5.63441">
        <ele>348</ele>
        <time>2017-03-08T09:13:08Z</time>
      </trkpt>
      <trkpt lat="43.64028" lon="5.6345">
        <ele>351</ele>
        <time>2017-03-08T09:13:21Z</time>
      </trkpt>
      <trkpt lat="43.64034" lon="5.63458">
        <ele>356</ele>
        <time>2017-03-08T09:13:38Z</time>
      </trkpt>
      <trkpt lat="43.6404" lon="5.63465">
        <ele>358</ele>
        <time>2017-03-08T09:13:52Z</time>
      </trkpt>
      <trkpt lat="43.64046" lon="5.63473">
        <ele>357</ele>
        <time>2017-03-08T09:14:01Z</time>
      </trkpt>
      <trkpt lat="43.6405" lon="5.63483">
        <ele>359</ele>
        <time>2017-03-08T09:14:14Z</time>
      </trkpt>
      <trkpt lat="43.64056" lon="5.6349">
        <ele>362</ele>
        <time>2017-03-08T09:14:24Z</time>
      </trkpt>
      <trkpt lat="43.64063" lon="5.63498">
        <ele>370</ele>
        <time>2017-03-08T09:14:40Z</time>
      </trkpt>
      <trkpt lat="43.6407" lon="5.63504">
        <ele>368</ele>
        <time>2017-03-08T09:14:54Z</time>
      </trkpt>
      <trkpt lat="43.64073" lon="5.63515">
        <ele>370</ele>
        <time>2017-03-08T09:16:32Z</time>
      </trkpt>
      <trkpt lat="43.64081" lon="5.63521">
        <ele>366</ele>
        <time>2017-03-08T09:16:50Z</time>
      </trkpt>
      <trkpt lat="43.64084" lon="5.63532">
        <ele>368</ele>
        <time>2017-03-08T09:17:10Z</time>
      </trkpt>
      <trkpt lat="43.6409" lon="5.63541">
        <ele>369</ele>
        <time>2017-03-08T09:17:21Z</time>
      </trkpt>
      <trkpt lat="43.64097" lon="5.63548">
        <ele>370</ele>
        <time>2017-03-08T09:17:30Z</time>
      </trkpt>
      <trkpt lat="43.64101" lon="5.63557">
        <ele>372</ele>
        <time>2017-03-08T09:17:51Z</time>
      </trkpt>
      <trkpt lat="43.6411" lon="5.63558">
        <ele>374</ele>
        <time>2017-03-08T09:18:02Z</time>
      </trkpt>
      <trkpt lat="43.64118" lon="5.63556">
        <ele>381</ele>
        <time>2017-03-08T09:18:22Z</time>
      </trkpt>
      <trkpt lat="43.64126" lon="5.63554">
        <ele>382</ele>
        <time>2017-03-08T09:18:41Z</time>
      </trkpt>
      <trkpt lat="43.64131" lon="5.63545">
        <ele>382</ele>
        <time>2017-03-08T09:18:56Z</time>
      </trkpt>
      <trkpt lat="43.64135" lon="5.63535">
        <ele>382</ele>
        <time>2017-03-08T09:19:16Z</time>
      </trkpt>
      <trkpt lat="43.64138" lon="5.63524">
        <ele>384</ele>
        <time>2017-03-08T09:19:29Z</time>
      </trkpt>
      <trkpt lat="43.64139" lon="5.63512">
        <ele>383</ele>
        <time>2017-03-08T09:19:44Z</time>
      </trkpt>
      <trkpt lat="43.64143" lon="5.63502">
        <ele>384</ele>
        <time>2017-03-08T09:19:56Z</time>
      </trkpt>
      <trkpt lat="43.64147" lon="5.63491">
        <ele>381</ele>
        <time>2017-03-08T09:20:08Z</time>
      </trkpt>
      <trkpt lat="43.6415" lon="5.6348">
        <ele>379</ele>
        <time>2017-03-08T09:20:27Z</time>
      </trkpt>
      <trkpt lat="43.64154" lon="5.63469">
        <ele>381</ele>
        <time>2017-03-08T09:20:45Z</time>
      </trkpt>
      <trkpt lat="43.64159" lon="5.6346">
        <ele>382</ele>
        <time>2017-03-08T09:22:09Z</time>
      </trkpt>
      <trkpt lat="43.64164" lon="5.63449">
        <ele>385</ele>
        <time>2017-03-08T09:22:26Z</time>
      </trkpt>
      <trkpt lat="43.64168" lon="5.63438">
        <ele>378</ele>
        <time>2017-03-08T09:22:37Z</time>
      </trkpt>
      <trkpt lat="43.6417" lon="5.63427">
        <ele>384</ele>
        <time>2017-03-08T09:22:51Z</time>
      </trkpt>
      <trkpt lat="43.64176" lon="5.63418">
        <ele>388</ele>
        <time>2017-03-08T09:23:06Z</time>
      </trkpt>
      <trkpt lat="43.64183" lon="5.63411">
        <ele>389</ele>
        <time>2017-03-08T09:23:19Z</time>
      </trkpt>
      <trkpt lat="43.64188" lon="5.63401">
        <ele>390</ele>
        <time>2017-03-08T09:23:55Z</time>
      </trkpt>
      <trkpt lat="43.64197" lon="5.63403">
        <ele>387</ele>
        <time>2017-03-08T09:27:03Z</time>
      </trkpt>
      <trkpt lat="43.6419" lon="5.63396">
        <ele>389</ele>
        <time>2017-03-08T09:27:57Z</time>
      </trkpt>
      <trkpt lat="43.64182" lon="5.63391">
        <ele>387</ele>
        <time>2017-03-08T09:28:12Z</time>
      </trkpt>
      <trkpt lat="43.64176" lon="5.63384">
        <ele>384</ele>
        <time>2017-03-08T09:28:17Z</time>
      </trkpt>
      <trkpt lat="43.64175" lon="5.63372">
        <ele>385</ele>
        <time>2017-03-08T09:28:23Z</time>
      </trkpt>
      <trkpt lat="43.64172" lon="5.63362">
        <ele>384</ele>
        <time>2017-03-08T09:28:29Z</time>
      </trkpt>
      <trkpt lat="43.64168" lon="5.63355">
        <ele>386</ele>
        <time>2017-03-08T09:28:33Z</time>
      </trkpt>
      <trkpt lat="43.64165" lon="5.63344">
        <ele>386</ele>
        <time>2017-03-08T09:28:39Z</time>
      </trkpt>
      <trkpt lat="43.64161" lon="5.63334">
        <ele>386</ele>
        <time>2017-03-08T09:28:45Z</time>
      </trkpt>
      <trkpt lat="43.64156" lon="5.63326">
        <ele>386</ele>
        <time>2017-03-08T09:28:52Z</time>
      </trkpt>
      <trkpt lat="43.64151" lon="5.63316">
        <ele>386</ele>
        <time>2017-03-08T09:28:59Z</time>
      </trkpt>
      <trkpt lat="43.64146" lon="5.63306">
        <ele>386</ele>
        <time>2017-03-08T09:29:07Z</time>
      </trkpt>
      <trkpt lat="43.64138" lon="5.633">
        <ele>384</ele>
        <time>2017-03-08T09:29:15Z</time>
      </trkpt>
      <trkpt lat="43.64131" lon="5.63294">
        <ele>383</ele>
        <time>2017-03-08T09:29:23Z</time>
      </trkpt>
      <trkpt lat="43.64125" lon="5.63286">
        <ele>381</ele>
        <time>2017-03-08T09:29:30Z</time>
      </trkpt>
      <trkpt lat="43.64121" lon="5.63277">
        <ele>380</ele>
        <time>2017-03-08T09:29:37Z</time>
      </trkpt>
      <trkpt lat="43.64117" lon="5.63267">
        <ele>382</ele>
        <time>2017-03-08T09:29:44Z</time>
      </trkpt>
      <trkpt lat="43.64114" lon="5.63255">
        <ele>382</ele>
        <time>2017-03-08T09:29:52Z</time>
      </trkpt>
      <trkpt lat="43.64114" lon="5.63244">
        <ele>380</ele>
        <time>2017-03-08T09:30:01Z</time>
      </trkpt>
      <trkpt lat="43.64111" lon="5.63233">
        <ele>379</ele>
        <time>2017-03-08T09:30:10Z</time>
      </trkpt>
      <trkpt lat="43.64106" lon="5.63224">
        <ele>378</ele>
        <time>2017-03-08T09:30:18Z</time>
      </trkpt>
      <trkpt lat="43.64101" lon="5.63216">
        <ele>378</ele>
        <time>2017-03-08T09:30:26Z</time>
      </trkpt>
      <trkpt lat="43.64095" lon="5.63206">
        <ele>377</ele>
        <time>2017-03-08T09:30:40Z</time>
      </trkpt>
      <trkpt lat="43.64089" lon="5.63197">
        <ele>377</ele>
        <time>2017-03-08T09:30:49Z</time>
      </trkpt>
      <trkpt lat="43.64083" lon="5.6319">
        <ele>377</ele>
        <time>2017-03-08T09:30:57Z</time>
      </trkpt>
      <trkpt lat="43.64077" lon="5.63183">
        <ele>377</ele>
        <time>2017-03-08T09:31:05Z</time>
      </trkpt>
      <trkpt lat="43.6407" lon="5.63175">
        <ele>377</ele>
        <time>2017-03-08T09:31:14Z</time>
      </trkpt>
      <trkpt lat="43.64063" lon="5.63168">
        <ele>375</ele>
        <time>2017-03-08T09:31:22Z</time>
      </trkpt>
      <trkpt lat="43.64057" lon="5.6316">
        <ele>374</ele>
        <time>2017-03-08T09:31:30Z</time>
      </trkpt>
      <trkpt lat="43.64053" lon="5.63151">
        <ele>374</ele>
        <time>2017-03-08T09:31:38Z</time>
      </trkpt>
      <trkpt lat="43.6405" lon="5.63139">
        <ele>374</ele>
        <time>2017-03-08T09:31:47Z</time>
      </trkpt>
      <trkpt lat="43.64048" lon="5.63128">
        <ele>375</ele>
        <time>2017-03-08T09:31:54Z</time>
      </trkpt>
      <trkpt lat="43.64046" lon="5.63117">
        <ele>375</ele>
        <time>2017-03-08T09:32:02Z</time>
      </trkpt>
      <trkpt lat="43.64044" lon="5.63105">
        <ele>373</ele>
        <time>2017-03-08T09:32:11Z</time>
      </trkpt>
      <trkpt lat="43.6404" lon="5.63094">
        <ele>372</ele>
        <time>2017-03-08T09:32:18Z</time>
      </trkpt>
      <trkpt lat="43.64034" lon="5.63084">
        <ele>373</ele>
        <time>2017-03-08T09:32:28Z</time>
      </trkpt>
      <trkpt lat="43.64027" lon="5.63078">
        <ele>373</ele>
        <time>2017-03-08T09:32:37Z</time>
      </trkpt>
      <trkpt lat="43.64019" lon="5.63077">
        <ele>374</ele>
        <time>2017-03-08T09:32:45Z</time>
      </trkpt>
      <trkpt lat="43.64011" lon="5.63077">
        <ele>369</ele>
        <time>2017-03-08T09:32:56Z</time>
      </trkpt>
      <trkpt lat="43.64002" lon="5.63076">
        <ele>366</ele>
        <time>2017-03-08T09:33:05Z</time>
      </trkpt>
      <trkpt lat="43.63994" lon="5.63073">
        <ele>362</ele>
        <time>2017-03-08T09:33:15Z</time>
      </trkpt>
      <trkpt lat="43.63985" lon="5.63072">
        <ele>358</ele>
        <time>2017-03-08T09:33:26Z</time>
      </trkpt>
      <trkpt lat="43.63976" lon="5.6307">
        <ele>356</ele>
        <time>2017-03-08T09:33:35Z</time>
      </trkpt>
      <trkpt lat="43.63968" lon="5.63067">
        <ele>354</ele>
        <time>2017-03-08T09:33:44Z</time>
      </trkpt>
      <trkpt lat="43.63961" lon="5.63062">
        <ele>353</ele>
        <time>2017-03-08T09:33:52Z</time>
      </trkpt>
      <trkpt lat="43.63953" lon="5.63057">
        <ele>352</ele>
        <time>2017-03-08T09:34:00Z</time>
      </trkpt>
      <trkpt lat="43.63944" lon="5.63055">
        <ele>350</ele>
        <time>2017-03-08T09:34:09Z</time>
      </trkpt>
      <trkpt lat="43.63936" lon="5.63057">
        <ele>348</ele>
        <time>2017-03-08T09:34:17Z</time>
      </trkpt>
      <trkpt lat="43.63928" lon="5.63058">
        <ele>346</ele>
        <time>2017-03-08T09:34:25Z</time>
      </trkpt>
      <trkpt lat="43.6392" lon="5.6306">
        <ele>346</ele>
        <time>2017-03-08T09:34:32Z</time>
      </trkpt>
      <trkpt lat="43.63912" lon="5.63061">
        <ele>346</ele>
        <time>2017-03-08T09:34:40Z</time>
      </trkpt>
      <trkpt lat="43.63903" lon="5.63064">
        <ele>344</ele>
        <time>2017-03-08T09:34:48Z</time>
      </trkpt>
      <trkpt lat="43.63895" lon="5.63066">
        <ele>344</ele>
        <time>2017-03-08T09:34:57Z</time>
      </trkpt>
      <trkpt lat="43.63886" lon="5.63067">
        <ele>345</ele>
        <time>2017-03-08T09:35:05Z</time>
      </trkpt>
      <trkpt lat="43.63878" lon="5.63066">
        <ele>344</ele>
        <time>2017-03-08T09:35:13Z</time>
      </trkpt>
      <trkpt lat="43.63869" lon="5.63067">
        <ele>343</ele>
        <time>2017-03-08T09:35:20Z</time>
      </trkpt>
      <trkpt lat="43.63861" lon="5.63069">
        <ele>342</ele>
        <time>2017-03-08T09:35:27Z</time>
      </trkpt>
      <trkpt lat="43.63852" lon="5.63069">
        <ele>341</ele>
        <time>2017-03-08T09:35:36Z</time>
      </trkpt>
      <trkpt lat="43.63844" lon="5.6307">
        <ele>339</ele>
        <time>2017-03-08T09:35:44Z</time>
      </trkpt>
      <trkpt lat="43.63836" lon="5.6307">
        <ele>337</ele>
        <time>2017-03-08T09:35:52Z</time>
      </trkpt>
      <trkpt lat="43.63829" lon="5.63068">
        <ele>336</ele>
        <time>2017-03-08T09:35:59Z</time>
      </trkpt>
      <trkpt lat="43.63821" lon="5.63067">
        <ele>336</ele>
        <time>2017-03-08T09:36:06Z</time>
      </trkpt>
      <trkpt lat="43.63813" lon="5.63065">
        <ele>335</ele>
        <time>2017-03-08T09:36:13Z</time>
      </trkpt>
      <trkpt lat="43.63805" lon="5.63063">
        <ele>331</ele>
        <time>2017-03-08T09:36:22Z</time>
      </trkpt>
      <trkpt lat="43.63796" lon="5.63064">
        <ele>327</ele>
        <time>2017-03-08T09:36:33Z</time>
      </trkpt>
      <trkpt lat="43.63788" lon="5.63063">
        <ele>325</ele>
        <time>2017-03-08T09:36:42Z</time>
      </trkpt>
      <trkpt lat="43.63779" lon="5.63062">
        <ele>322</ele>
        <time>2017-03-08T09:36:52Z</time>
      </trkpt>
      <trkpt lat="43.63771" lon="5.63058">
        <ele>321</ele>
        <time>2017-03-08T09:37:00Z</time>
      </trkpt>
      <trkpt lat="43.63762" lon="5.63054">
        <ele>321</ele>
        <time>2017-03-08T09:37:07Z</time>
      </trkpt>
      <trkpt lat="43.63754" lon="5.63049">
        <ele>321</ele>
        <time>2017-03-08T09:37:16Z</time>
      </trkpt>
      <trkpt lat="43.63746" lon="5.63046">
        <ele>317</ele>
        <time>2017-03-08T09:37:25Z</time>
      </trkpt>
      <trkpt lat="43.63738" lon="5.63042">
        <ele>315</ele>
        <time>2017-03-08T09:37:34Z</time>
      </trkpt>
      <trkpt lat="43.6373" lon="5.6304">
        <ele>313</ele>
        <time>2017-03-08T09:37:43Z</time>
      </trkpt>
      <trkpt lat="43.63722" lon="5.63039">
        <ele>312</ele>
        <time>2017-03-08T09:37:51Z</time>
      </trkpt>
      <trkpt lat="43.63714" lon="5.63037">
        <ele>313</ele>
        <time>2017-03-08T09:38:15Z</time>
      </trkpt>
      <trkpt lat="43.63705" lon="5.63035">
        <ele>312</ele>
        <time>2017-03-08T09:38:24Z</time>
      </trkpt>
      <trkpt lat="43.63696" lon="5.63032">
        <ele>309</ele>
        <time>2017-03-08T09:38:35Z</time>
      </trkpt>
      <trkpt lat="43.63689" lon="5.63036">
        <ele>308</ele>
        <time>2017-03-08T09:38:43Z</time>
      </trkpt>
      <trkpt lat="43.6368" lon="5.63036">
        <ele>306</ele>
        <time>2017-03-08T09:38:51Z</time>
      </trkpt>
      <trkpt lat="43.63672" lon="5.63036">
        <ele>310</ele>
        <time>2017-03-08T09:38:59Z</time>
      </trkpt>
      <trkpt lat="43.63664" lon="5.63033">
        <ele>311</ele>
        <time>2017-03-08T09:39:05Z</time>
      </trkpt>
      <trkpt lat="43.63656" lon="5.63029">
        <ele>311</ele>
        <time>2017-03-08T09:39:12Z</time>
      </trkpt>
      <trkpt lat="43.63648" lon="5.63026">
        <ele>309</ele>
        <time>2017-03-08T09:39:19Z</time>
      </trkpt>
      <trkpt lat="43.6364" lon="5.63023">
        <ele>307</ele>
        <time>2017-03-08T09:39:26Z</time>
      </trkpt>
      <trkpt lat="43.63632" lon="5.63022">
        <ele>309</ele>
        <time>2017-03-08T09:39:31Z</time>
      </trkpt>
      <trkpt lat="43.63628" lon="5.63012">
        <ele>312</ele>
        <time>2017-03-08T09:39:40Z</time>
      </trkpt>
      <trkpt lat="43.63632" lon="5.63002">
        <ele>311</ele>
        <time>2017-03-08T09:39:47Z</time>
      </trkpt>
      <trkpt lat="43.63637" lon="5.62994">
        <ele>311</ele>
        <time>2017-03-08T09:39:54Z</time>
      </trkpt>
      <trkpt lat="43.63644" lon="5.62986">
        <ele>310</ele>
        <time>2017-03-08T09:40:02Z</time>
      </trkpt>
      <trkpt lat="43.6365" lon="5.62979">
        <ele>308</ele>
        <time>2017-03-08T09:40:09Z</time>
      </trkpt>
      <trkpt lat="43.63657" lon="5.62972">
        <ele>308</ele>
        <time>2017-03-08T09:40:16Z</time>
      </trkpt>
      <trkpt lat="43.63661" lon="5.62963">
        <ele>309</ele>
        <time>2017-03-08T09:40:21Z</time>
      </trkpt>
      <trkpt lat="43.63669" lon="5.62956">
        <ele>308</ele>
        <time>2017-03-08T09:40:29Z</time>
      </trkpt>
      <trkpt lat="43.63676" lon="5.62949">
        <ele>307</ele>
        <time>2017-03-08T09:40:37Z</time>
      </trkpt>
      <trkpt lat="43.63682" lon="5.62941">
        <ele>307</ele>
        <time>2017-03-08T09:40:44Z</time>
      </trkpt>
      <trkpt lat="43.63686" lon="5.62933">
        <ele>306</ele>
        <time>2017-03-08T09:40:50Z</time>
      </trkpt>
      <trkpt lat="43.63693" lon="5.62924">
        <ele>305</ele>
        <time>2017-03-08T09:40:58Z</time>
      </trkpt>
      <trkpt lat="43.637" lon="5.62916">
        <ele>304</ele>
        <time>2017-03-08T09:41:06Z</time>
      </trkpt>
      <trkpt lat="43.63705" lon="5.62908">
        <ele>305</ele>
        <time>2017-03-08T09:41:12Z</time>
      </trkpt>
      <trkpt lat="43.63711" lon="5.629">
        <ele>306</ele>
        <time>2017-03-08T09:41:19Z</time>
      </trkpt>
      <trkpt lat="43.63717" lon="5.62892">
        <ele>308</ele>
        <time>2017-03-08T09:41:26Z</time>
      </trkpt>
      <trkpt lat="43.63723" lon="5.62884">
        <ele>307</ele>
        <time>2017-03-08T09:41:33Z</time>
      </trkpt>
      <trkpt lat="43.63729" lon="5.62876">
        <ele>307</ele>
        <time>2017-03-08T09:41:41Z</time>
      </trkpt>
      <trkpt lat="43.63735" lon="5.62867">
        <ele>307</ele>
        <time>2017-03-08T09:41:49Z</time>
      </trkpt>
      <trkpt lat="43.63741" lon="5.62859">
        <ele>307</ele>
        <time>2017-03-08T09:41:56Z</time>
      </trkpt>
      <trkpt lat="43.63746" lon="5.62851">
        <ele>307</ele>
        <time>2017-03-08T09:42:02Z</time>
      </trkpt>
      <trkpt lat="43.63749" lon="5.62841">
        <ele>311</ele>
        <time>2017-03-08T09:42:07Z</time>
      </trkpt>
      <trkpt lat="43.63756" lon="5.62835">
        <ele>307</ele>
        <time>2017-03-08T09:42:18Z</time>
      </trkpt>
      <trkpt lat="43.6376" lon="5.62824">
        <ele>307</ele>
        <time>2017-03-08T09:42:25Z</time>
      </trkpt>
      <trkpt lat="43.63765" lon="5.62814">
        <ele>306</ele>
        <time>2017-03-08T09:42:33Z</time>
      </trkpt>
      <trkpt lat="43.63769" lon="5.62803">
        <ele>304</ele>
        <time>2017-03-08T09:42:40Z</time>
      </trkpt>
      <trkpt lat="43.63773" lon="5.62792">
        <ele>305</ele>
        <time>2017-03-08T09:42:48Z</time>
      </trkpt>
      <trkpt lat="43.63775" lon="5.62781">
        <ele>305</ele>
        <time>2017-03-08T09:42:55Z</time>
      </trkpt>
      <trkpt lat="43.63777" lon="5.6277">
        <ele>307</ele>
        <time>2017-03-08T09:43:02Z</time>
      </trkpt>
      <trkpt lat="43.63781" lon="5.6276">
        <ele>306</ele>
        <time>2017-03-08T09:43:09Z</time>
      </trkpt>
      <trkpt lat="43.63783" lon="5.62748">
        <ele>306</ele>
        <time>2017-03-08T09:43:17Z</time>
      </trkpt>
      <trkpt lat="43.63785" lon="5.62737">
        <ele>303</ele>
        <time>2017-03-08T09:43:24Z</time>
      </trkpt>
      <trkpt lat="43.63787" lon="5.62727">
        <ele>299</ele>
        <time>2017-03-08T09:43:33Z</time>
      </trkpt>
      <trkpt lat="43.63788" lon="5.62716">
        <ele>298</ele>
        <time>2017-03-08T09:43:39Z</time>
      </trkpt>
      <trkpt lat="43.63789" lon="5.62705">
        <ele>299</ele>
        <time>2017-03-08T09:43:46Z</time>
      </trkpt>
      <trkpt lat="43.63789" lon="5.62694">
        <ele>300</ele>
        <time>2017-03-08T09:43:53Z</time>
      </trkpt>
      <trkpt lat="43.63789" lon="5.62682">
        <ele>302</ele>
        <time>2017-03-08T09:44:00Z</time>
      </trkpt>
      <trkpt lat="43.63787" lon="5.62671">
        <ele>303</ele>
        <time>2017-03-08T09:44:18Z</time>
      </trkpt>
      <trkpt lat="43.63785" lon="5.62659">
        <ele>301</ele>
        <time>2017-03-08T09:44:27Z</time>
      </trkpt>
      <trkpt lat="43.63782" lon="5.62648">
        <ele>301</ele>
        <time>2017-03-08T09:44:34Z</time>
      </trkpt>
      <trkpt lat="43.63779" lon="5.62637">
        <ele>301</ele>
        <time>2017-03-08T09:44:41Z</time>
      </trkpt>
      <trkpt lat="43.63777" lon="5.62627">
        <ele>298</ele>
        <time>2017-03-08T09:44:50Z</time>
      </trkpt>
      <trkpt lat="43.63775" lon="5.62616">
        <ele>300</ele>
        <time>2017-03-08T09:44:56Z</time>
      </trkpt>
      <trkpt lat="43.63774" lon="5.62603">
        <ele>300</ele>
        <time>2017-03-08T09:45:03Z</time>
      </trkpt>
      <trkpt lat="43.63777" lon="5.62592">
        <ele>300</ele>
        <time>2017-03-08T09:45:12Z</time>
      </trkpt>
      <trkpt lat="43.63782" lon="5.62582">
        <ele>298</ele>
        <time>2017-03-08T09:45:20Z</time>
      </trkpt>
      <trkpt lat="43.63786" lon="5.62575">
        <ele>297</ele>
        <time>2017-03-08T09:45:27Z</time>
      </trkpt>
      <trkpt lat="43.63792" lon="5.62566">
        <ele>297</ele>
        <time>2017-03-08T09:45:33Z</time>
      </trkpt>
      <trkpt lat="43.63799" lon="5.6256">
        <ele>297</ele>
        <time>2017-03-08T09:45:40Z</time>
      </trkpt>
      <trkpt lat="43.63805" lon="5.62552">
        <ele>297</ele>
        <time>2017-03-08T09:45:47Z</time>
      </trkpt>
      <trkpt lat="43.63811" lon="5.62545">
        <ele>297</ele>
        <time>2017-03-08T09:45:54Z</time>
      </trkpt>
      <trkpt lat="43.63816" lon="5.62537">
        <ele>297</ele>
        <time>2017-03-08T09:46:00Z</time>
      </trkpt>
      <trkpt lat="43.63822" lon="5.62528">
        <ele>298</ele>
        <time>2017-03-08T09:46:06Z</time>
      </trkpt>
      <trkpt lat="43.63827" lon="5.62518">
        <ele>300</ele>
        <time>2017-03-08T09:46:30Z</time>
      </trkpt>
      <trkpt lat="43.63834" lon="5.62511">
        <ele>300</ele>
        <time>2017-03-08T09:46:37Z</time>
      </trkpt>
      <trkpt lat="43.63841" lon="5.62503">
        <ele>300</ele>
        <time>2017-03-08T09:46:45Z</time>
      </trkpt>
      <trkpt lat="43.63847" lon="5.62495">
        <ele>300</ele>
        <time>2017-03-08T09:46:52Z</time>
      </trkpt>
      <trkpt lat="43.63852" lon="5.62486">
        <ele>301</ele>
        <time>2017-03-08T09:46:58Z</time>
      </trkpt>
      <trkpt lat="43.63858" lon="5.62478">
        <ele>302</ele>
        <time>2017-03-08T09:47:04Z</time>
      </trkpt>
      <trkpt lat="43.63865" lon="5.6247">
        <ele>301</ele>
        <time>2017-03-08T09:47:13Z</time>
      </trkpt>
      <trkpt lat="43.63871" lon="5.62462">
        <ele>301</ele>
        <time>2017-03-08T09:47:21Z</time>
      </trkpt>
      <trkpt lat="43.63877" lon="5.62456">
        <ele>299</ele>
        <time>2017-03-08T09:47:28Z</time>
      </trkpt>
      <trkpt lat="43.63882" lon="5.62447">
        <ele>300</ele>
        <time>2017-03-08T09:47:37Z</time>
      </trkpt>
      <trkpt lat="43.63887" lon="5.62437">
        <ele>300</ele>
        <time>2017-03-08T09:47:46Z</time>
      </trkpt>
      <trkpt lat="43.63893" lon="5.62428">
        <ele>299</ele>
        <time>2017-03-08T09:47:55Z</time>
      </trkpt>
      <trkpt lat="43.63899" lon="5.6242">
        <ele>299</ele>
        <time>2017-03-08T09:48:03Z</time>
      </trkpt>
      <trkpt lat="43.63905" lon="5.62413">
        <ele>298</ele>
        <time>2017-03-08T09:48:11Z</time>
      </trkpt>
      <trkpt lat="43.63912" lon="5.62405">
        <ele>297</ele>
        <time>2017-03-08T09:48:20Z</time>
      </trkpt>
      <trkpt lat="43.63918" lon="5.62396">
        <ele>297</ele>
        <time>2017-03-08T09:48:27Z</time>
      </trkpt>
      <trkpt lat="43.63925" lon="5.62391">
        <ele>298</ele>
        <time>2017-03-08T09:48:34Z</time>
      </trkpt>
      <trkpt lat="43.63932" lon="5.62385">
        <ele>297</ele>
        <time>2017-03-08T09:48:43Z</time>
      </trkpt>
      <trkpt lat="43.63939" lon="5.62378">
        <ele>296</ele>
        <time>2017-03-08T09:48:50Z</time>
      </trkpt>
      <trkpt lat="43.63945" lon="5.6237">
        <ele>295</ele>
        <time>2017-03-08T09:48:58Z</time>
      </trkpt>
      <trkpt lat="43.63951" lon="5.62365">
        <ele>295</ele>
        <time>2017-03-08T09:49:03Z</time>
      </trkpt>
      <trkpt lat="43.63959" lon="5.62359">
        <ele>297</ele>
        <time>2017-03-08T09:49:09Z</time>
      </trkpt>
      <trkpt lat="43.63965" lon="5.62353">
        <ele>298</ele>
        <time>2017-03-08T09:49:17Z</time>
      </trkpt>
      <trkpt lat="43.63972" lon="5.62348">
        <ele>298</ele>
        <time>2017-03-08T09:49:22Z</time>
      </trkpt>
      <trkpt lat="43.63978" lon="5.62339">
        <ele>298</ele>
        <time>2017-03-08T09:49:33Z</time>
      </trkpt>
      <trkpt lat="43.63985" lon="5.62333">
        <ele>296</ele>
        <time>2017-03-08T09:49:42Z</time>
      </trkpt>
      <trkpt lat="43.63992" lon="5.62326">
        <ele>295</ele>
        <time>2017-03-08T09:49:50Z</time>
      </trkpt>
      <trkpt lat="43.63998" lon="5.62319">
        <ele>297</ele>
        <time>2017-03-08T09:49:57Z</time>
      </trkpt>
      <trkpt lat="43.64005" lon="5.62312">
        <ele>297</ele>
        <time>2017-03-08T09:50:05Z</time>
      </trkpt>
      <trkpt lat="43.64013" lon="5.62307">
        <ele>294</ele>
        <time>2017-03-08T09:50:15Z</time>
      </trkpt>
      <trkpt lat="43.64019" lon="5.62301">
        <ele>293</ele>
        <time>2017-03-08T09:50:22Z</time>
      </trkpt>
      <trkpt lat="43.64024" lon="5.62293">
        <ele>294</ele>
        <time>2017-03-08T09:50:28Z</time>
      </trkpt>
      <trkpt lat="43.64029" lon="5.62284">
        <ele>295</ele>
        <time>2017-03-08T09:50:34Z</time>
      </trkpt>
      <trkpt lat="43.64034" lon="5.62275">
        <ele>297</ele>
        <time>2017-03-08T09:50:42Z</time>
      </trkpt>
      <trkpt lat="43.64037" lon="5.62263">
        <ele>299</ele>
        <time>2017-03-08T09:50:48Z</time>
      </trkpt>
      <trkpt lat="43.6404" lon="5.62253">
        <ele>300</ele>
        <time>2017-03-08T09:50:54Z</time>
      </trkpt>
      <trkpt lat="43.64044" lon="5.62243">
        <ele>300</ele>
        <time>2017-03-08T09:51:00Z</time>
      </trkpt>
      <trkpt lat="43.6405" lon="5.62235">
        <ele>294</ele>
        <time>2017-03-08T09:51:12Z</time>
      </trkpt>
      <trkpt lat="43.64056" lon="5.62227">
        <ele>292</ele>
        <time>2017-03-08T09:51:20Z</time>
      </trkpt>
      <trkpt lat="43.64059" lon="5.62217">
        <ele>291</ele>
        <time>2017-03-08T09:51:29Z</time>
      </trkpt>
      <trkpt lat="43.64062" lon="5.62206">
        <ele>289</ele>
        <time>2017-03-08T09:51:37Z</time>
      </trkpt>
      <trkpt lat="43.64068" lon="5.62197">
        <ele>284</ele>
        <time>2017-03-08T09:51:47Z</time>
      </trkpt>
      <trkpt lat="43.64071" lon="5.62186">
        <ele>287</ele>
        <time>2017-03-08T09:51:53Z</time>
      </trkpt>
      <trkpt lat="43.64073" lon="5.62175">
        <ele>290</ele>
        <time>2017-03-08T09:52:01Z</time>
      </trkpt>
      <trkpt lat="43.64077" lon="5.62166">
        <ele>284</ele>
        <time>2017-03-08T09:52:10Z</time>
      </trkpt>
      <trkpt lat="43.64076" lon="5.62154">
        <ele>286</ele>
        <time>2017-03-08T09:52:16Z</time>
      </trkpt>
      <trkpt lat="43.64075" lon="5.62142">
        <ele>287</ele>
        <time>2017-03-08T09:52:21Z</time>
      </trkpt>
      <trkpt lat="43.64074" lon="5.6213">
        <ele>287</ele>
        <time>2017-03-08T09:52:29Z</time>
      </trkpt>
      <trkpt lat="43.64073" lon="5.62119">
        <ele>288</ele>
        <time>2017-03-08T09:52:34Z</time>
      </trkpt>
      <trkpt lat="43.64069" lon="5.62108">
        <ele>290</ele>
        <time>2017-03-08T09:52:39Z</time>
      </trkpt>
      <trkpt lat="43.64067" lon="5.62097">
        <ele>291</ele>
        <time>2017-03-08T09:52:46Z</time>
      </trkpt>
      <trkpt lat="43.64064" lon="5.62086">
        <ele>292</ele>
        <time>2017-03-08T09:52:52Z</time>
      </trkpt>
      <trkpt lat="43.64061" lon="5.62076">
        <ele>292</ele>
        <time>2017-03-08T09:52:58Z</time>
      </trkpt>
      <trkpt lat="43.64059" lon="5.62065">
        <ele>292</ele>
        <time>2017-03-08T09:53:05Z</time>
      </trkpt>
      <trkpt lat="43.64056" lon="5.62055">
        <ele>293</ele>
        <time>2017-03-08T09:53:11Z</time>
      </trkpt>
      <trkpt lat="43.64054" lon="5.62043">
        <ele>292</ele>
        <time>2017-03-08T09:53:19Z</time>
      </trkpt>
      <trkpt lat="43.64052" lon="5.62031">
        <ele>290</ele>
        <time>2017-03-08T09:53:28Z</time>
      </trkpt>
      <trkpt lat="43.6405" lon="5.62019">
        <ele>289</ele>
        <time>2017-03-08T09:53:36Z</time>
      </trkpt>
      <trkpt lat="43.64049" lon="5.62008">
        <ele>288</ele>
        <time>2017-03-08T09:53:43Z</time>
      </trkpt>
      <trkpt lat="43.6405" lon="5.61997">
        <ele>288</ele>
        <time>2017-03-08T09:53:51Z</time>
      </trkpt>
      <trkpt lat="43.64052" lon="5.61985">
        <ele>286</ele>
        <time>2017-03-08T09:54:00Z</time>
      </trkpt>
      <trkpt lat="43.64055" lon="5.61973">
        <ele>283</ele>
        <time>2017-03-08T09:54:09Z</time>
      </trkpt>
      <trkpt lat="43.64058" lon="5.61962">
        <ele>280</ele>
        <time>2017-03-08T09:54:17Z</time>
      </trkpt>
      <trkpt lat="43.6406" lon="5.61951">
        <ele>279</ele>
        <time>2017-03-08T09:54:25Z</time>
      </trkpt>
      <trkpt lat="43.6406" lon="5.6194">
        <ele>284</ele>
        <time>2017-03-08T09:54:33Z</time>
      </trkpt>
      <trkpt lat="43.64058" lon="5.61927">
        <ele>286</ele>
        <time>2017-03-08T09:54:38Z</time>
      </trkpt>
      <trkpt lat="43.64056" lon="5.61916">
        <ele>289</ele>
        <time>2017-03-08T09:54:44Z</time>
      </trkpt>
      <trkpt lat="43.64059" lon="5.61905">
        <ele>289</ele>
        <time>2017-03-08T09:54:50Z</time>
      </trkpt>
      <trkpt lat="43.64063" lon="5.61895">
        <ele>291</ele>
        <time>2017-03-08T09:54:57Z</time>
      </trkpt>
      <trkpt lat="43.64068" lon="5.61887">
        <ele>291</ele>
        <time>2017-03-08T09:55:04Z</time>
      </trkpt>
      <trkpt lat="43.64075" lon="5.61878">
        <ele>291</ele>
        <time>2017-03-08T09:55:11Z</time>
      </trkpt>
      <trkpt lat="43.64082" lon="5.61872">
        <ele>292</ele>
        <time>2017-03-08T09:55:21Z</time>
      </trkpt>
      <trkpt lat="43.64089" lon="5.61866">
        <ele>292</ele>
        <time>2017-03-08T09:55:30Z</time>
      </trkpt>
      <trkpt lat="43.64098" lon="5.61864">
        <ele>290</ele>
        <time>2017-03-08T09:55:41Z</time>
      </trkpt>
      <trkpt lat="43.64106" lon="5.61864">
        <ele>290</ele>
        <time>2017-03-08T09:55:49Z</time>
      </trkpt>
      <trkpt lat="43.64113" lon="5.61863">
        <ele>290</ele>
        <time>2017-03-08T09:55:55Z</time>
      </trkpt>
      <trkpt lat="43.64121" lon="5.61864">
        <ele>290</ele>
        <time>2017-03-08T09:56:03Z</time>
      </trkpt>
      <trkpt lat="43.64128" lon="5.61863">
        <ele>289</ele>
        <time>2017-03-08T09:56:09Z</time>
      </trkpt>
      <trkpt lat="43.64137" lon="5.61862">
        <ele>290</ele>
        <time>2017-03-08T09:56:14Z</time>
      </trkpt>
      <trkpt lat="43.64145" lon="5.6186">
        <ele>290</ele>
        <time>2017-03-08T09:56:26Z</time>
      </trkpt>
      <trkpt lat="43.64154" lon="5.6186">
        <ele>294</ele>
        <time>2017-03-08T09:56:44Z</time>
      </trkpt>
      <trkpt lat="43.64162" lon="5.61862">
        <ele>291</ele>
        <time>2017-03-08T09:56:56Z</time>
      </trkpt>
      <trkpt lat="43.6417" lon="5.61862">
        <ele>290</ele>
        <time>2017-03-08T09:57:03Z</time>
      </trkpt>
      <trkpt lat="43.64179" lon="5.61861">
        <ele>292</ele>
        <time>2017-03-08T09:57:10Z</time>
      </trkpt>
      <trkpt lat="43.64187" lon="5.61862">
        <ele>290</ele>
        <time>2017-03-08T09:57:18Z</time>
      </trkpt>
      <trkpt lat="43.64196" lon="5.61863">
        <ele>289</ele>
        <time>2017-03-08T09:57:28Z</time>
      </trkpt>
      <trkpt lat="43.64205" lon="5.61864">
        <ele>292</ele>
        <time>2017-03-08T09:57:35Z</time>
      </trkpt>
      <trkpt lat="43.64213" lon="5.61865">
        <ele>292</ele>
        <time>2017-03-08T09:57:45Z</time>
      </trkpt>
      <trkpt lat="43.64221" lon="5.61866">
        <ele>292</ele>
        <time>2017-03-08T09:57:52Z</time>
      </trkpt>
      <trkpt lat="43.64229" lon="5.61866">
        <ele>294</ele>
        <time>2017-03-08T09:57:59Z</time>
      </trkpt>
      <trkpt lat="43.64238" lon="5.61867">
        <ele>295</ele>
        <time>2017-03-08T09:58:07Z</time>
      </trkpt>
      <trkpt lat="43.64246" lon="5.61867">
        <ele>295</ele>
        <time>2017-03-08T09:58:15Z</time>
      </trkpt>
      <trkpt lat="43.64254" lon="5.61868">
        <ele>292</ele>
        <time>2017-03-08T09:58:24Z</time>
      </trkpt>
      <trkpt lat="43.64262" lon="5.6187">
        <ele>292</ele>
        <time>2017-03-08T09:58:31Z</time>
      </trkpt>
      <trkpt lat="43.64271" lon="5.61873">
        <ele>292</ele>
        <time>2017-03-08T09:58:40Z</time>
      </trkpt>
      <trkpt lat="43.64279" lon="5.61874">
        <ele>292</ele>
        <time>2017-03-08T09:58:46Z</time>
      </trkpt>
      <trkpt lat="43.64287" lon="5.61877">
        <ele>292</ele>
        <time>2017-03-08T09:58:55Z</time>
      </trkpt>
      <trkpt lat="43.64296" lon="5.61877">
        <ele>294</ele>
        <time>2017-03-08T09:59:02Z</time>
      </trkpt>
      <trkpt lat="43.64305" lon="5.61874">
        <ele>292</ele>
        <time>2017-03-08T09:59:11Z</time>
      </trkpt>
      <trkpt lat="43.64312" lon="5.61872">
        <ele>292</ele>
        <time>2017-03-08T09:59:19Z</time>
      </trkpt>
      <trkpt lat="43.64321" lon="5.61868">
        <ele>294</ele>
        <time>2017-03-08T09:59:26Z</time>
      </trkpt>
      <trkpt lat="43.64328" lon="5.61864">
        <ele>296</ele>
        <time>2017-03-08T09:59:33Z</time>
      </trkpt>
      <trkpt lat="43.64336" lon="5.61859">
        <ele>296</ele>
        <time>2017-03-08T09:59:41Z</time>
      </trkpt>
      <trkpt lat="43.64343" lon="5.61852">
        <ele>296</ele>
        <time>2017-03-08T09:59:48Z</time>
      </trkpt>
      <trkpt lat="43.64351" lon="5.61849">
        <ele>297</ele>
        <time>2017-03-08T09:59:55Z</time>
      </trkpt>
      <trkpt lat="43.64359" lon="5.61844">
        <ele>297</ele>
        <time>2017-03-08T10:00:04Z</time>
      </trkpt>
      <trkpt lat="43.64367" lon="5.61841">
        <ele>298</ele>
        <time>2017-03-08T10:00:11Z</time>
      </trkpt>
      <trkpt lat="43.64375" lon="5.61836">
        <ele>298</ele>
        <time>2017-03-08T10:00:20Z</time>
      </trkpt>
      <trkpt lat="43.64384" lon="5.61834">
        <ele>298</ele>
        <time>2017-03-08T10:00:27Z</time>
      </trkpt>
      <trkpt lat="43.64391" lon="5.6183">
        <ele>298</ele>
        <time>2017-03-08T10:00:35Z</time>
      </trkpt>
      <trkpt lat="43.64399" lon="5.61827">
        <ele>298</ele>
        <time>2017-03-08T10:00:42Z</time>
      </trkpt>
      <trkpt lat="43.64407" lon="5.61824">
        <ele>298</ele>
        <time>2017-03-08T10:00:49Z</time>
      </trkpt>
      <trkpt lat="43.64416" lon="5.6182">
        <ele>297</ele>
        <time>2017-03-08T10:00:57Z</time>
      </trkpt>
      <trkpt lat="43.64423" lon="5.61815">
        <ele>294</ele>
        <time>2017-03-08T10:01:07Z</time>
      </trkpt>
      <trkpt lat="43.6443" lon="5.61811">
        <ele>294</ele>
        <time>2017-03-08T10:01:14Z</time>
      </trkpt>
      <trkpt lat="43.64437" lon="5.61803">
        <ele>296</ele>
        <time>2017-03-08T10:01:21Z</time>
      </trkpt>
      <trkpt lat="43.64444" lon="5.61797">
        <ele>295</ele>
        <time>2017-03-08T10:01:29Z</time>
      </trkpt>
      <trkpt lat="43.64451" lon="5.6179">
        <ele>295</ele>
        <time>2017-03-08T10:01:38Z</time>
      </trkpt>
      <trkpt lat="43.64459" lon="5.61783">
        <ele>295</ele>
        <time>2017-03-08T10:01:46Z</time>
      </trkpt>
      <trkpt lat="43.64465" lon="5.61777">
        <ele>295</ele>
        <time>2017-03-08T10:01:53Z</time>
      </trkpt>
      <trkpt lat="43.64473" lon="5.6177">
        <ele>295</ele>
        <time>2017-03-08T10:02:00Z</time>
      </trkpt>
      <trkpt lat="43.6448" lon="5.61765">
        <ele>294</ele>
        <time>2017-03-08T10:02:08Z</time>
      </trkpt>
      <trkpt lat="43.64488" lon="5.61761">
        <ele>295</ele>
        <time>2017-03-08T10:02:17Z</time>
      </trkpt>
      <trkpt lat="43.64496" lon="5.61756">
        <ele>291</ele>
        <time>2017-03-08T10:02:28Z</time>
      </trkpt>
      <trkpt lat="43.64504" lon="5.61752">
        <ele>287</ele>
        <time>2017-03-08T10:02:36Z</time>
      </trkpt>
      <trkpt lat="43.64512" lon="5.61747">
        <ele>285</ele>
        <time>2017-03-08T10:02:45Z</time>
      </trkpt>
      <trkpt lat="43.64519" lon="5.61744">
        <ele>283</ele>
        <time>2017-03-08T10:02:52Z</time>
      </trkpt>
      <trkpt lat="43.64527" lon="5.61741">
        <ele>285</ele>
        <time>2017-03-08T10:02:57Z</time>
      </trkpt>
      <trkpt lat="43.64535" lon="5.61737">
        <ele>288</ele>
        <time>2017-03-08T10:03:02Z</time>
      </trkpt>
      <trkpt lat="43.64543" lon="5.61734">
        <ele>291</ele>
        <time>2017-03-08T10:03:07Z</time>
      </trkpt>
      <trkpt lat="43.6455" lon="5.6173">
        <ele>292</ele>
        <time>2017-03-08T10:03:14Z</time>
      </trkpt>
      <trkpt lat="43.64557" lon="5.61726">
        <ele>293</ele>
        <time>2017-03-08T10:03:20Z</time>
      </trkpt>
      <trkpt lat="43.64566" lon="5.61725">
        <ele>294</ele>
        <time>2017-03-08T10:03:28Z</time>
      </trkpt>
      <trkpt lat="43.64571" lon="5.61735">
        <ele>291</ele>
        <time>2017-03-08T10:03:36Z</time>
      </trkpt>
      <trkpt lat="43.64572" lon="5.61746">
        <ele>288</ele>
        <time>2017-03-08T10:03:45Z</time>
      </trkpt>
      <trkpt lat="43.64571" lon="5.61758">
        <ele>287</ele>
        <time>2017-03-08T10:03:55Z</time>
      </trkpt>
      <trkpt lat="43.64568" lon="5.61769">
        <ele>288</ele>
        <time>2017-03-08T10:04:04Z</time>
      </trkpt>
      <trkpt lat="43.64566" lon="5.61781">
        <ele>292</ele>
        <time>2017-03-08T10:04:12Z</time>
      </trkpt>
      <trkpt lat="43.64563" lon="5.61792">
        <ele>293</ele>
        <time>2017-03-08T10:04:22Z</time>
      </trkpt>
      <trkpt lat="43.64562" lon="5.61804">
        <ele>291</ele>
        <time>2017-03-08T10:04:31Z</time>
      </trkpt>
      <trkpt lat="43.64561" lon="5.61815">
        <ele>291</ele>
        <time>2017-03-08T10:04:42Z</time>
      </trkpt>
      <trkpt lat="43.64559" lon="5.61827">
        <ele>292</ele>
        <time>2017-03-08T10:04:50Z</time>
      </trkpt>
      <trkpt lat="43.64559" lon="5.61838">
        <ele>290</ele>
        <time>2017-03-08T10:04:59Z</time>
      </trkpt>
      <trkpt lat="43.64559" lon="5.6185">
        <ele>290</ele>
        <time>2017-03-08T10:05:10Z</time>
      </trkpt>
      <trkpt lat="43.6456" lon="5.61861">
        <ele>290</ele>
        <time>2017-03-08T10:05:17Z</time>
      </trkpt>
      <trkpt lat="43.6456" lon="5.61872">
        <ele>296</ele>
        <time>2017-03-08T10:05:23Z</time>
      </trkpt>
      <trkpt lat="43.64563" lon="5.61883">
        <ele>296</ele>
        <time>2017-03-08T10:05:30Z</time>
      </trkpt>
      <trkpt lat="43.64567" lon="5.61894">
        <ele>297</ele>
        <time>2017-03-08T10:05:38Z</time>
      </trkpt>
      <trkpt lat="43.64569" lon="5.61906">
        <ele>298</ele>
        <time>2017-03-08T10:05:48Z</time>
      </trkpt>
      <trkpt lat="43.6457" lon="5.61917">
        <ele>299</ele>
        <time>2017-03-08T10:05:59Z</time>
      </trkpt>
      <trkpt lat="43.64571" lon="5.61928">
        <ele>298</ele>
        <time>2017-03-08T10:06:07Z</time>
      </trkpt>
      <trkpt lat="43.64572" lon="5.61938">
        <ele>303</ele>
        <time>2017-03-08T10:06:14Z</time>
      </trkpt>
      <trkpt lat="43.64575" lon="5.6195">
        <ele>304</ele>
        <time>2017-03-08T10:06:22Z</time>
      </trkpt>
      <trkpt lat="43.64577" lon="5.61961">
        <ele>305</ele>
        <time>2017-03-08T10:06:30Z</time>
      </trkpt>
      <trkpt lat="43.64579" lon="5.61973">
        <ele>305</ele>
        <time>2017-03-08T10:06:39Z</time>
      </trkpt>
      <trkpt lat="43.64579" lon="5.61985">
        <ele>304</ele>
        <time>2017-03-08T10:06:47Z</time>
      </trkpt>
      <trkpt lat="43.6458" lon="5.61996">
        <ele>302</ele>
        <time>2017-03-08T10:06:54Z</time>
      </trkpt>
      <trkpt lat="43.6458" lon="5.62007">
        <ele>303</ele>
        <time>2017-03-08T10:07:03Z</time>
      </trkpt>
      <trkpt lat="43.6458" lon="5.62017">
        <ele>304</ele>
        <time>2017-03-08T10:07:16Z</time>
      </trkpt>
      <trkpt lat="43.64578" lon="5.62029">
        <ele>303</ele>
        <time>2017-03-08T10:07:25Z</time>
      </trkpt>
      <trkpt lat="43.64575" lon="5.6204">
        <ele>300</ele>
        <time>2017-03-08T10:07:33Z</time>
      </trkpt>
      <trkpt lat="43.64569" lon="5.62048">
        <ele>299</ele>
        <time>2017-03-08T10:07:42Z</time>
      </trkpt>
      <trkpt lat="43.64563" lon="5.62057">
        <ele>299</ele>
        <time>2017-03-08T10:07:51Z</time>
      </trkpt>
      <trkpt lat="43.64556" lon="5.62063">
        <ele>299</ele>
        <time>2017-03-08T10:07:59Z</time>
      </trkpt>
      <trkpt lat="43.64549" lon="5.62071">
        <ele>300</ele>
        <time>2017-03-08T10:08:07Z</time>
      </trkpt>
      <trkpt lat="43.64542" lon="5.62078">
        <ele>299</ele>
        <time>2017-03-08T10:08:14Z</time>
      </trkpt>
      <trkpt lat="43.64536" lon="5.62085">
        <ele>299</ele>
        <time>2017-03-08T10:08:21Z</time>
      </trkpt>
      <trkpt lat="43.64531" lon="5.62093">
        <ele>300</ele>
        <time>2017-03-08T10:08:28Z</time>
      </trkpt>
      <trkpt lat="43.64525" lon="5.62101">
        <ele>300</ele>
        <time>2017-03-08T10:08:35Z</time>
      </trkpt>
      <trkpt lat="43.64519" lon="5.62108">
        <ele>300</ele>
        <time>2017-03-08T10:08:42Z</time>
      </trkpt>
      <trkpt lat="43.64513" lon="5.62118">
        <ele>301</ele>
        <time>2017-03-08T10:08:50Z</time>
      </trkpt>
      <trkpt lat="43.64507" lon="5.62127">
        <ele>302</ele>
        <time>2017-03-08T10:08:58Z</time>
      </trkpt>
      <trkpt lat="43.64502" lon="5.62136">
        <ele>302</ele>
        <time>2017-03-08T10:09:06Z</time>
      </trkpt>
      <trkpt lat="43.64499" lon="5.62147">
        <ele>305</ele>
        <time>2017-03-08T10:09:13Z</time>
      </trkpt>
      <trkpt lat="43.64496" lon="5.62158">
        <ele>305</ele>
        <time>2017-03-08T10:09:20Z</time>
      </trkpt>
      <trkpt lat="43.64494" lon="5.62169">
        <ele>306</ele>
        <time>2017-03-08T10:09:28Z</time>
      </trkpt>
      <trkpt lat="43.64494" lon="5.62181">
        <ele>305</ele>
        <time>2017-03-08T10:09:36Z</time>
      </trkpt>
      <trkpt lat="43.64493" lon="5.62193">
        <ele>305</ele>
        <time>2017-03-08T10:09:43Z</time>
      </trkpt>
      <trkpt lat="43.64493" lon="5.62205">
        <ele>305</ele>
        <time>2017-03-08T10:09:51Z</time>
      </trkpt>
      <trkpt lat="43.64493" lon="5.62215">
        <ele>305</ele>
        <time>2017-03-08T10:09:58Z</time>
      </trkpt>
      <trkpt lat="43.64499" lon="5.62224">
        <ele>308</ele>
        <time>2017-03-08T10:10:16Z</time>
      </trkpt>
      <trkpt lat="43.64506" lon="5.6223">
        <ele>307</ele>
        <time>2017-03-08T10:10:24Z</time>
      </trkpt>
      <trkpt lat="43.64515" lon="5.62235">
        <ele>307</ele>
        <time>2017-03-08T10:10:32Z</time>
      </trkpt>
      <trkpt lat="43.64522" lon="5.62237">
        <ele>307</ele>
        <time>2017-03-08T10:10:38Z</time>
      </trkpt>
      <trkpt lat="43.6453" lon="5.62241">
        <ele>307</ele>
        <time>2017-03-08T10:10:46Z</time>
      </trkpt>
      <trkpt lat="43.64538" lon="5.62245">
        <ele>306</ele>
        <time>2017-03-08T10:10:54Z</time>
      </trkpt>
      <trkpt lat="43.64546" lon="5.62249">
        <ele>305</ele>
        <time>2017-03-08T10:11:03Z</time>
      </trkpt>
      <trkpt lat="43.64553" lon="5.62255">
        <ele>305</ele>
        <time>2017-03-08T10:11:40Z</time>
      </trkpt>
      <trkpt lat="43.64561" lon="5.62258">
        <ele>304</ele>
        <time>2017-03-08T10:11:47Z</time>
      </trkpt>
      <trkpt lat="43.6457" lon="5.62262">
        <ele>305</ele>
        <time>2017-03-08T10:11:54Z</time>
      </trkpt>
      <trkpt lat="43.64577" lon="5.62265">
        <ele>306</ele>
        <time>2017-03-08T10:12:02Z</time>
      </trkpt>
      <trkpt lat="43.64585" lon="5.62271">
        <ele>306</ele>
        <time>2017-03-08T10:12:10Z</time>
      </trkpt>
      <trkpt lat="43.64592" lon="5.62275">
        <ele>306</ele>
        <time>2017-03-08T10:12:17Z</time>
      </trkpt>
      <trkpt lat="43.646" lon="5.62281">
        <ele>304</ele>
        <time>2017-03-08T10:12:25Z</time>
      </trkpt>
      <trkpt lat="43.64608" lon="5.62282">
        <ele>306</ele>
        <time>2017-03-08T10:12:31Z</time>
      </trkpt>
      <trkpt lat="43.64616" lon="5.62285">
        <ele>306</ele>
        <time>2017-03-08T10:12:39Z</time>
      </trkpt>
      <trkpt lat="43.64624" lon="5.62286">
        <ele>305</ele>
        <time>2017-03-08T10:12:46Z</time>
      </trkpt>
      <trkpt lat="43.64633" lon="5.62287">
        <ele>304</ele>
        <time>2017-03-08T10:12:54Z</time>
      </trkpt>
      <trkpt lat="43.64641" lon="5.62288">
        <ele>302</ele>
        <time>2017-03-08T10:13:02Z</time>
      </trkpt>
      <trkpt lat="43.6465" lon="5.62288">
        <ele>302</ele>
        <time>2017-03-08T10:13:09Z</time>
      </trkpt>
      <trkpt lat="43.64659" lon="5.62289">
        <ele>301</ele>
        <time>2017-03-08T10:13:19Z</time>
      </trkpt>
      <trkpt lat="43.64667" lon="5.62292">
        <ele>302</ele>
        <time>2017-03-08T10:13:26Z</time>
      </trkpt>
      <trkpt lat="43.64675" lon="5.62294">
        <ele>303</ele>
        <time>2017-03-08T10:13:32Z</time>
      </trkpt>
      <trkpt lat="43.64683" lon="5.623">
        <ele>304</ele>
        <time>2017-03-08T10:13:40Z</time>
      </trkpt>
      <trkpt lat="43.64691" lon="5.62304">
        <ele>306</ele>
        <time>2017-03-08T10:13:47Z</time>
      </trkpt>
      <trkpt lat="43.64699" lon="5.62307">
        <ele>307</ele>
        <time>2017-03-08T10:13:54Z</time>
      </trkpt>
      <trkpt lat="43.64707" lon="5.62312">
        <ele>308</ele>
        <time>2017-03-08T10:14:01Z</time>
      </trkpt>
      <trkpt lat="43.64715" lon="5.62317">
        <ele>311</ele>
        <time>2017-03-08T10:14:09Z</time>
      </trkpt>
      <trkpt lat="43.64722" lon="5.62323">
        <ele>312</ele>
        <time>2017-03-08T10:14:16Z</time>
      </trkpt>
      <trkpt lat="43.64729" lon="5.6233">
        <ele>313</ele>
        <time>2017-03-08T10:14:24Z</time>
      </trkpt>
      <trkpt lat="43.64734" lon="5.62338">
        <ele>314</ele>
        <time>2017-03-08T10:14:31Z</time>
      </trkpt>
      <trkpt lat="43.6474" lon="5.62346">
        <ele>311</ele>
        <time>2017-03-08T10:14:41Z</time>
      </trkpt>
      <trkpt lat="43.64742" lon="5.62355">
        <ele>312</ele>
        <time>2017-03-08T10:14:49Z</time>
      </trkpt>
      <trkpt lat="43.64751" lon="5.62357">
        <ele>314</ele>
        <time>2017-03-08T10:14:55Z</time>
      </trkpt>
      <trkpt lat="43.64761" lon="5.62356">
        <ele>314</ele>
        <time>2017-03-08T10:15:00Z</time>
      </trkpt>
      <trkpt lat="43.64769" lon="5.62359">
        <ele>315</ele>
        <time>2017-03-08T10:15:07Z</time>
      </trkpt>
      <trkpt lat="43.64777" lon="5.62364">
        <ele>315</ele>
        <time>2017-03-08T10:15:17Z</time>
      </trkpt>
      <trkpt lat="43.64784" lon="5.62371">
        <ele>316</ele>
        <time>2017-03-08T10:15:28Z</time>
      </trkpt>
      <trkpt lat="43.64792" lon="5.62378">
        <ele>320</ele>
        <time>2017-03-08T10:15:39Z</time>
      </trkpt>
      <trkpt lat="43.64796" lon="5.62388">
        <ele>317</ele>
        <time>2017-03-08T10:15:49Z</time>
      </trkpt>
      <trkpt lat="43.648" lon="5.62397">
        <ele>315</ele>
        <time>2017-03-08T10:15:56Z</time>
      </trkpt>
      <trkpt lat="43.64805" lon="5.62407">
        <ele>319</ele>
        <time>2017-03-08T10:16:03Z</time>
      </trkpt>
      <trkpt lat="43.64809" lon="5.62414">
        <ele>319</ele>
        <time>2017-03-08T10:16:09Z</time>
      </trkpt>
      <trkpt lat="43.64811" lon="5.62426">
        <ele>315</ele>
        <time>2017-03-08T10:16:18Z</time>
      </trkpt>
      <trkpt lat="43.64815" lon="5.62437">
        <ele>318</ele>
        <time>2017-03-08T10:16:25Z</time>
      </trkpt>
      <trkpt lat="43.64818" lon="5.62448">
        <ele>318</ele>
        <time>2017-03-08T10:16:33Z</time>
      </trkpt>
      <trkpt lat="43.64821" lon="5.62459">
        <ele>319</ele>
        <time>2017-03-08T10:16:40Z</time>
      </trkpt>
      <trkpt lat="43.64824" lon="5.6247">
        <ele>319</ele>
        <time>2017-03-08T10:16:48Z</time>
      </trkpt>
      <trkpt lat="43.64829" lon="5.62479">
        <ele>316</ele>
        <time>2017-03-08T10:16:56Z</time>
      </trkpt>
      <trkpt lat="43.64831" lon="5.62489">
        <ele>317</ele>
        <time>2017-03-08T10:17:03Z</time>
      </trkpt>
      <trkpt lat="43.64837" lon="5.62498">
        <ele>319</ele>
        <time>2017-03-08T10:17:10Z</time>
      </trkpt>
      <trkpt lat="43.64839" lon="5.6251">
        <ele>320</ele>
        <time>2017-03-08T10:17:18Z</time>
      </trkpt>
      <trkpt lat="43.64841" lon="5.62522">
        <ele>322</ele>
        <time>2017-03-08T10:17:27Z</time>
      </trkpt>
      <trkpt lat="43.64845" lon="5.62533">
        <ele>322</ele>
        <time>2017-03-08T10:17:36Z</time>
      </trkpt>
      <trkpt lat="43.64848" lon="5.62544">
        <ele>324</ele>
        <time>2017-03-08T10:17:45Z</time>
      </trkpt>
      <trkpt lat="43.64847" lon="5.62556">
        <ele>322</ele>
        <time>2017-03-08T10:17:55Z</time>
      </trkpt>
      <trkpt lat="43.64851" lon="5.62566">
        <ele>321</ele>
        <time>2017-03-08T10:18:05Z</time>
      </trkpt>
      <trkpt lat="43.64854" lon="5.62576">
        <ele>319</ele>
        <time>2017-03-08T10:18:12Z</time>
      </trkpt>
      <trkpt lat="43.64856" lon="5.62587">
        <ele>317</ele>
        <time>2017-03-08T10:18:20Z</time>
      </trkpt>
      <trkpt lat="43.64858" lon="5.62598">
        <ele>318</ele>
        <time>2017-03-08T10:18:28Z</time>
      </trkpt>
      <trkpt lat="43.64861" lon="5.62609">
        <ele>316</ele>
        <time>2017-03-08T10:18:36Z</time>
      </trkpt>
      <trkpt lat="43.64862" lon="5.62619">
        <ele>315</ele>
        <time>2017-03-08T10:18:42Z</time>
      </trkpt>
      <trkpt lat="43.64866" lon="5.6263">
        <ele>316</ele>
        <time>2017-03-08T10:18:48Z</time>
      </trkpt>
      <trkpt lat="43.64869" lon="5.62641">
        <ele>315</ele>
        <time>2017-03-08T10:18:56Z</time>
      </trkpt>
      <trkpt lat="43.64871" lon="5.62651">
        <ele>318</ele>
        <time>2017-03-08T10:19:03Z</time>
      </trkpt>
      <trkpt lat="43.64869" lon="5.62663">
        <ele>318</ele>
        <time>2017-03-08T10:19:11Z</time>
      </trkpt>
      <trkpt lat="43.64868" lon="5.62675">
        <ele>316</ele>
        <time>2017-03-08T10:19:20Z</time>
      </trkpt>
      <trkpt lat="43.64866" lon="5.62686">
        <ele>316</ele>
        <time>2017-03-08T10:19:27Z</time>
      </trkpt>
      <trkpt lat="43.64865" lon="5.62697">
        <ele>319</ele>
        <time>2017-03-08T10:19:35Z</time>
      </trkpt>
      <trkpt lat="43.64865" lon="5.62709">
        <ele>320</ele>
        <time>2017-03-08T10:19:43Z</time>
      </trkpt>
      <trkpt lat="43.6487" lon="5.62717">
        <ele>322</ele>
        <time>2017-03-08T10:19:52Z</time>
      </trkpt>
      <trkpt lat="43.64879" lon="5.6272">
        <ele>321</ele>
        <time>2017-03-08T10:19:59Z</time>
      </trkpt>
      <trkpt lat="43.64886" lon="5.62726">
        <ele>320</ele>
        <time>2017-03-08T10:20:06Z</time>
      </trkpt>
      <trkpt lat="43.6489" lon="5.62735">
        <ele>322</ele>
        <time>2017-03-08T10:20:12Z</time>
      </trkpt>
      <trkpt lat="43.6489" lon="5.62746">
        <ele>322</ele>
        <time>2017-03-08T10:20:19Z</time>
      </trkpt>
      <trkpt lat="43.64887" lon="5.62757">
        <ele>325</ele>
        <time>2017-03-08T10:20:27Z</time>
      </trkpt>
      <trkpt lat="43.64886" lon="5.62768">
        <ele>324</ele>
        <time>2017-03-08T10:20:35Z</time>
      </trkpt>
      <trkpt lat="43.64885" lon="5.62781">
        <ele>327</ele>
        <time>2017-03-08T10:20:44Z</time>
      </trkpt>
      <trkpt lat="43.64885" lon="5.62792">
        <ele>326</ele>
        <time>2017-03-08T10:20:53Z</time>
      </trkpt>
      <trkpt lat="43.64883" lon="5.62804">
        <ele>335</ele>
        <time>2017-03-08T10:22:20Z</time>
      </trkpt>
      <trkpt lat="43.64884" lon="5.62815">
        <ele>339</ele>
        <time>2017-03-08T10:27:10Z</time>
      </trkpt>
      <trkpt lat="43.64883" lon="5.62828">
        <ele>342</ele>
        <time>2017-03-08T10:27:20Z</time>
      </trkpt>
      <trkpt lat="43.64876" lon="5.62832">
        <ele>345</ele>
        <time>2017-03-08T10:27:30Z</time>
      </trkpt>
      <trkpt lat="43.64876" lon="5.62844">
        <ele>342</ele>
        <time>2017-03-08T10:27:38Z</time>
      </trkpt>
      <trkpt lat="43.64872" lon="5.62855">
        <ele>344</ele>
        <time>2017-03-08T10:27:46Z</time>
      </trkpt>
      <trkpt lat="43.64871" lon="5.62866">
        <ele>344</ele>
        <time>2017-03-08T10:27:57Z</time>
      </trkpt>
      <trkpt lat="43.64872" lon="5.62878">
        <ele>343</ele>
        <time>2017-03-08T10:28:09Z</time>
      </trkpt>
      <trkpt lat="43.64875" lon="5.62887">
        <ele>347</ele>
        <time>2017-03-08T10:28:18Z</time>
      </trkpt>
      <trkpt lat="43.64875" lon="5.62899">
        <ele>343</ele>
        <time>2017-03-08T10:28:26Z</time>
      </trkpt>
      <trkpt lat="43.64877" lon="5.62911">
        <ele>342</ele>
        <time>2017-03-08T10:28:34Z</time>
      </trkpt>
      <trkpt lat="43.64877" lon="5.62923">
        <ele>339</ele>
        <time>2017-03-08T10:28:39Z</time>
      </trkpt>
      <trkpt lat="43.64879" lon="5.62935">
        <ele>341</ele>
        <time>2017-03-08T10:28:45Z</time>
      </trkpt>
      <trkpt lat="43.64881" lon="5.6295">
        <ele>340</ele>
        <time>2017-03-08T10:28:49Z</time>
      </trkpt>
      <trkpt lat="43.64883" lon="5.62962">
        <ele>349</ele>
        <time>2017-03-08T10:29:03Z</time>
      </trkpt>
      <trkpt lat="43.64876" lon="5.6297">
        <ele>345</ele>
        <time>2017-03-08T10:29:11Z</time>
      </trkpt>
      <trkpt lat="43.64874" lon="5.62982">
        <ele>345</ele>
        <time>2017-03-08T10:29:20Z</time>
      </trkpt>
      <trkpt lat="43.64872" lon="5.62993">
        <ele>344</ele>
        <time>2017-03-08T10:29:28Z</time>
      </trkpt>
      <trkpt lat="43.6487" lon="5.63005">
        <ele>346</ele>
        <time>2017-03-08T10:29:36Z</time>
      </trkpt>
      <trkpt lat="43.64869" lon="5.63015">
        <ele>346</ele>
        <time>2017-03-08T10:29:44Z</time>
      </trkpt>
      <trkpt lat="43.6487" lon="5.63027">
        <ele>348</ele>
        <time>2017-03-08T10:29:50Z</time>
      </trkpt>
      <trkpt lat="43.64868" lon="5.63037">
        <ele>352</ele>
        <time>2017-03-08T10:30:01Z</time>
      </trkpt>
      <trkpt lat="43.64871" lon="5.63048">
        <ele>350</ele>
        <time>2017-03-08T10:30:09Z</time>
      </trkpt>
      <trkpt lat="43.64869" lon="5.63059">
        <ele>351</ele>
        <time>2017-03-08T10:30:17Z</time>
      </trkpt>
      <trkpt lat="43.64874" lon="5.6307">
        <ele>346</ele>
        <time>2017-03-08T10:30:26Z</time>
      </trkpt>
      <trkpt lat="43.64878" lon="5.6308">
        <ele>352</ele>
        <time>2017-03-08T10:30:35Z</time>
      </trkpt>
      <trkpt lat="43.64881" lon="5.6309">
        <ele>356</ele>
        <time>2017-03-08T10:30:42Z</time>
      </trkpt>
      <trkpt lat="43.64889" lon="5.63095">
        <ele>358</ele>
        <time>2017-03-08T10:30:47Z</time>
      </trkpt>
      <trkpt lat="43.64893" lon="5.63106">
        <ele>363</ele>
        <time>2017-03-08T10:30:56Z</time>
      </trkpt>
      <trkpt lat="43.64898" lon="5.63114">
        <ele>361</ele>
        <time>2017-03-08T10:31:03Z</time>
      </trkpt>
      <trkpt lat="43.64901" lon="5.63124">
        <ele>367</ele>
        <time>2017-03-08T10:31:13Z</time>
      </trkpt>
      <trkpt lat="43.64905" lon="5.63132">
        <ele>361</ele>
        <time>2017-03-08T10:31:21Z</time>
      </trkpt>
      <trkpt lat="43.64907" lon="5.63143">
        <ele>361</ele>
        <time>2017-03-08T10:31:28Z</time>
      </trkpt>
      <trkpt lat="43.64915" lon="5.63153">
        <ele>360</ele>
        <time>2017-03-08T10:31:33Z</time>
      </trkpt>
      <trkpt lat="43.64919" lon="5.63163">
        <ele>360</ele>
        <time>2017-03-08T10:31:44Z</time>
      </trkpt>
      <trkpt lat="43.64921" lon="5.63171">
        <ele>362</ele>
        <time>2017-03-08T10:31:48Z</time>
      </trkpt>
      <trkpt lat="43.64927" lon="5.6318">
        <ele>359</ele>
        <time>2017-03-08T10:31:58Z</time>
      </trkpt>
      <trkpt lat="43.64932" lon="5.63187">
        <ele>358</ele>
        <time>2017-03-08T10:32:04Z</time>
      </trkpt>
      <trkpt lat="43.64936" lon="5.63196">
        <ele>356</ele>
        <time>2017-03-08T10:32:11Z</time>
      </trkpt>
      <trkpt lat="43.64943" lon="5.63205">
        <ele>360</ele>
        <time>2017-03-08T10:32:17Z</time>
      </trkpt>
      <trkpt lat="43.64948" lon="5.63214">
        <ele>361</ele>
        <time>2017-03-08T10:32:25Z</time>
      </trkpt>
      <trkpt lat="43.64956" lon="5.63217">
        <ele>356</ele>
        <time>2017-03-08T10:32:33Z</time>
      </trkpt>
      <trkpt lat="43.64961" lon="5.63225">
        <ele>359</ele>
        <time>2017-03-08T10:32:38Z</time>
      </trkpt>
      <trkpt lat="43.64965" lon="5.63235">
        <ele>363</ele>
        <time>2017-03-08T10:32:49Z</time>
      </trkpt>
      <trkpt lat="43.64972" lon="5.63243">
        <ele>367</ele>
        <time>2017-03-08T10:32:55Z</time>
      </trkpt>
      <trkpt lat="43.64978" lon="5.63252">
        <ele>363</ele>
        <time>2017-03-08T10:33:03Z</time>
      </trkpt>
      <trkpt lat="43.64985" lon="5.63259">
        <ele>363</ele>
        <time>2017-03-08T10:33:08Z</time>
      </trkpt>
      <trkpt lat="43.64987" lon="5.6327">
        <ele>358</ele>
        <time>2017-03-08T10:33:18Z</time>
      </trkpt>
      <trkpt lat="43.64994" lon="5.6328">
        <ele>358</ele>
        <time>2017-03-08T10:33:23Z</time>
      </trkpt>
      <trkpt lat="43.64997" lon="5.63292">
        <ele>358</ele>
        <time>2017-03-08T10:33:31Z</time>
      </trkpt>
      <trkpt lat="43.64998" lon="5.63301">
        <ele>361</ele>
        <time>2017-03-08T10:33:37Z</time>
      </trkpt>
      <trkpt lat="43.65002" lon="5.63311">
        <ele>360</ele>
        <time>2017-03-08T10:33:44Z</time>
      </trkpt>
      <trkpt lat="43.65006" lon="5.63322">
        <ele>358</ele>
        <time>2017-03-08T10:33:55Z</time>
      </trkpt>
      <trkpt lat="43.65007" lon="5.63334">
        <ele>359</ele>
        <time>2017-03-08T10:34:03Z</time>
      </trkpt>
      <trkpt lat="43.65011" lon="5.63344">
        <ele>359</ele>
        <time>2017-03-08T10:34:08Z</time>
      </trkpt>
      <trkpt lat="43.65011" lon="5.63355">
        <ele>359</ele>
        <time>2017-03-08T10:34:16Z</time>
      </trkpt>
      <trkpt lat="43.65014" lon="5.63367">
        <ele>361</ele>
        <time>2017-03-08T10:34:28Z</time>
      </trkpt>
      <trkpt lat="43.65017" lon="5.63378">
        <ele>360</ele>
        <time>2017-03-08T10:34:37Z</time>
      </trkpt>
      <trkpt lat="43.6502" lon="5.63389">
        <ele>362</ele>
        <time>2017-03-08T10:34:48Z</time>
      </trkpt>
      <trkpt lat="43.65024" lon="5.634">
        <ele>362</ele>
        <time>2017-03-08T10:34:58Z</time>
      </trkpt>
      <trkpt lat="43.6503" lon="5.63409">
        <ele>357</ele>
        <time>2017-03-08T10:35:11Z</time>
      </trkpt>
      <trkpt lat="43.65037" lon="5.63415">
        <ele>357</ele>
        <time>2017-03-08T10:35:16Z</time>
      </trkpt>
      <trkpt lat="43.65043" lon="5.63424">
        <ele>354</ele>
        <time>2017-03-08T10:35:24Z</time>
      </trkpt>
      <trkpt lat="43.65045" lon="5.63435">
        <ele>362</ele>
        <time>2017-03-08T10:37:39Z</time>
      </trkpt>
      <trkpt lat="43.65053" lon="5.63438">
        <ele>357</ele>
        <time>2017-03-08T10:38:25Z</time>
      </trkpt>
      <trkpt lat="43.65059" lon="5.63445">
        <ele>354</ele>
        <time>2017-03-08T10:38:33Z</time>
      </trkpt>
      <trkpt lat="43.65068" lon="5.63443">
        <ele>351</ele>
        <time>2017-03-08T10:38:37Z</time>
      </trkpt>
      <trkpt lat="43.65075" lon="5.63446">
        <ele>358</ele>
        <time>2017-03-08T10:38:43Z</time>
      </trkpt>
      <trkpt lat="43.65081" lon="5.63455">
        <ele>362</ele>
        <time>2017-03-08T10:38:47Z</time>
      </trkpt>
      <trkpt lat="43.65087" lon="5.63462">
        <ele>362</ele>
        <time>2017-03-08T10:38:53Z</time>
      </trkpt>
      <trkpt lat="43.65094" lon="5.6347">
        <ele>364</ele>
        <time>2017-03-08T10:39:02Z</time>
      </trkpt>
      <trkpt lat="43.65099" lon="5.63474">
        <ele>360</ele>
        <time>2017-03-08T10:39:14Z</time>
      </trkpt>
      <trkpt lat="43.65107" lon="5.63478">
        <ele>362</ele>
        <time>2017-03-08T10:39:18Z</time>
      </trkpt>
      <trkpt lat="43.65115" lon="5.63484">
        <ele>363</ele>
        <time>2017-03-08T10:39:23Z</time>
      </trkpt>
      <trkpt lat="43.65119" lon="5.63491">
        <ele>364</ele>
        <time>2017-03-08T10:39:31Z</time>
      </trkpt>
      <trkpt lat="43.65123" lon="5.63497">
        <ele>366</ele>
        <time>2017-03-08T10:39:37Z</time>
      </trkpt>
      <trkpt lat="43.65132" lon="5.63505">
        <ele>366</ele>
        <time>2017-03-08T10:39:41Z</time>
      </trkpt>
      <trkpt lat="43.65132" lon="5.63516">
        <ele>363</ele>
        <time>2017-03-08T10:39:52Z</time>
      </trkpt>
      <trkpt lat="43.65138" lon="5.6352">
        <ele>361</ele>
        <time>2017-03-08T10:39:59Z</time>
      </trkpt>
      <trkpt lat="43.65145" lon="5.63525">
        <ele>364</ele>
        <time>2017-03-08T10:40:04Z</time>
      </trkpt>
      <trkpt lat="43.65153" lon="5.63526">
        <ele>363</ele>
        <time>2017-03-08T10:40:09Z</time>
      </trkpt>
      <trkpt lat="43.6516" lon="5.63533">
        <ele>360</ele>
        <time>2017-03-08T10:40:22Z</time>
      </trkpt>
      <trkpt lat="43.65166" lon="5.63537">
        <ele>361</ele>
        <time>2017-03-08T10:40:28Z</time>
      </trkpt>
      <trkpt lat="43.65173" lon="5.63545">
        <ele>367</ele>
        <time>2017-03-08T10:40:37Z</time>
      </trkpt>
      <trkpt lat="43.6518" lon="5.6355">
        <ele>367</ele>
        <time>2017-03-08T10:40:51Z</time>
      </trkpt>
      <trkpt lat="43.6519" lon="5.63554">
        <ele>364</ele>
        <time>2017-03-08T10:40:56Z</time>
      </trkpt>
      <trkpt lat="43.65196" lon="5.63559">
        <ele>366</ele>
        <time>2017-03-08T10:41:01Z</time>
      </trkpt>
      <trkpt lat="43.65205" lon="5.63564">
        <ele>367</ele>
        <time>2017-03-08T10:41:06Z</time>
      </trkpt>
      <trkpt lat="43.65213" lon="5.63567">
        <ele>369</ele>
        <time>2017-03-08T10:41:23Z</time>
      </trkpt>
      <trkpt lat="43.6522" lon="5.63571">
        <ele>369</ele>
        <time>2017-03-08T10:41:36Z</time>
      </trkpt>
      <trkpt lat="43.65229" lon="5.63573">
        <ele>371</ele>
        <time>2017-03-08T10:41:42Z</time>
      </trkpt>
      <trkpt lat="43.65237" lon="5.63573">
        <ele>369</ele>
        <time>2017-03-08T10:41:53Z</time>
      </trkpt>
      <trkpt lat="43.65245" lon="5.63571">
        <ele>371</ele>
        <time>2017-03-08T10:42:10Z</time>
      </trkpt>
      <trkpt lat="43.65253" lon="5.63573">
        <ele>370</ele>
        <time>2017-03-08T10:42:17Z</time>
      </trkpt>
      <trkpt lat="43.65261" lon="5.6357">
        <ele>365</ele>
        <time>2017-03-08T10:42:27Z</time>
      </trkpt>
      <trkpt lat="43.6527" lon="5.6357">
        <ele>363</ele>
        <time>2017-03-08T10:42:48Z</time>
      </trkpt>
      <trkpt lat="43.65279" lon="5.6357">
        <ele>362</ele>
        <time>2017-03-08T10:42:59Z</time>
      </trkpt>
      <trkpt lat="43.65287" lon="5.63569">
        <ele>365</ele>
        <time>2017-03-08T10:43:04Z</time>
      </trkpt>
      <trkpt lat="43.65295" lon="5.63566">
        <ele>361</ele>
        <time>2017-03-08T10:43:25Z</time>
      </trkpt>
      <trkpt lat="43.65303" lon="5.63567">
        <ele>359</ele>
        <time>2017-03-08T10:43:30Z</time>
      </trkpt>
      <trkpt lat="43.65309" lon="5.63575">
        <ele>363</ele>
        <time>2017-03-08T10:43:42Z</time>
      </trkpt>
      <trkpt lat="43.65318" lon="5.63578">
        <ele>359</ele>
        <time>2017-03-08T10:43:56Z</time>
      </trkpt>
      <trkpt lat="43.65326" lon="5.63582">
        <ele>356</ele>
        <time>2017-03-08T10:44:05Z</time>
      </trkpt>
      <trkpt lat="43.65335" lon="5.63582">
        <ele>356</ele>
        <time>2017-03-08T10:44:16Z</time>
      </trkpt>
      <trkpt lat="43.65342" lon="5.63581">
        <ele>362</ele>
        <time>2017-03-08T10:44:34Z</time>
      </trkpt>
      <trkpt lat="43.6535" lon="5.63576">
        <ele>360</ele>
        <time>2017-03-08T10:44:39Z</time>
      </trkpt>
      <trkpt lat="43.65358" lon="5.63573">
        <ele>361</ele>
        <time>2017-03-08T10:44:55Z</time>
      </trkpt>
      <trkpt lat="43.65364" lon="5.63568">
        <ele>357</ele>
        <time>2017-03-08T10:45:03Z</time>
      </trkpt>
      <trkpt lat="43.65371" lon="5.63562">
        <ele>355</ele>
        <time>2017-03-08T10:45:10Z</time>
      </trkpt>
      <trkpt lat="43.65377" lon="5.63554">
        <ele>354</ele>
        <time>2017-03-08T10:45:23Z</time>
      </trkpt>
      <trkpt lat="43.65385" lon="5.63548">
        <ele>350</ele>
        <time>2017-03-08T10:46:10Z</time>
      </trkpt>
      <trkpt lat="43.65387" lon="5.63537">
        <ele>348</ele>
        <time>2017-03-08T10:46:17Z</time>
      </trkpt>
      <trkpt lat="43.65394" lon="5.63528">
        <ele>350</ele>
        <time>2017-03-08T10:46:28Z</time>
      </trkpt>
      <trkpt lat="43.65401" lon="5.63529">
        <ele>349</ele>
        <time>2017-03-08T10:46:36Z</time>
      </trkpt>
      <trkpt lat="43.6541" lon="5.63532">
        <ele>354</ele>
        <time>2017-03-08T10:46:41Z</time>
      </trkpt>
      <trkpt lat="43.65418" lon="5.63536">
        <ele>353</ele>
        <time>2017-03-08T10:46:50Z</time>
      </trkpt>
      <trkpt lat="43.65425" lon="5.63529">
        <ele>348</ele>
        <time>2017-03-08T10:47:10Z</time>
      </trkpt>
      <trkpt lat="43.65431" lon="5.63522">
        <ele>350</ele>
        <time>2017-03-08T10:47:22Z</time>
      </trkpt>
      <trkpt lat="43.65439" lon="5.63517">
        <ele>350</ele>
        <time>2017-03-08T10:47:37Z</time>
      </trkpt>
      <trkpt lat="43.65444" lon="5.63509">
        <ele>344</ele>
        <time>2017-03-08T10:47:53Z</time>
      </trkpt>
      <trkpt lat="43.65452" lon="5.63504">
        <ele>342</ele>
        <time>2017-03-08T10:48:03Z</time>
      </trkpt>
      <trkpt lat="43.65459" lon="5.635">
        <ele>344</ele>
        <time>2017-03-08T10:48:11Z</time>
      </trkpt>
      <trkpt lat="43.65468" lon="5.63499">
        <ele>343</ele>
        <time>2017-03-08T10:48:34Z</time>
      </trkpt>
      <trkpt lat="43.65473" lon="5.63491">
        <ele>339</ele>
        <time>2017-03-08T10:48:45Z</time>
      </trkpt>
      <trkpt lat="43.6548" lon="5.63486">
        <ele>336</ele>
        <time>2017-03-08T10:49:01Z</time>
      </trkpt>
      <trkpt lat="43.65488" lon="5.6348">
        <ele>341</ele>
        <time>2017-03-08T10:49:11Z</time>
      </trkpt>
      <trkpt lat="43.65494" lon="5.63474">
        <ele>340</ele>
        <time>2017-03-08T10:49:32Z</time>
      </trkpt>
      <trkpt lat="43.65501" lon="5.63467">
        <ele>337</ele>
        <time>2017-03-08T10:49:37Z</time>
      </trkpt>
      <trkpt lat="43.6551" lon="5.63464">
        <ele>338</ele>
        <time>2017-03-08T10:49:44Z</time>
      </trkpt>
      <trkpt lat="43.65518" lon="5.63466">
        <ele>342</ele>
        <time>2017-03-08T10:50:00Z</time>
      </trkpt>
      <trkpt lat="43.65525" lon="5.63461">
        <ele>344</ele>
        <time>2017-03-08T10:50:07Z</time>
      </trkpt>
      <trkpt lat="43.65532" lon="5.63452">
        <ele>345</ele>
        <time>2017-03-08T10:50:12Z</time>
      </trkpt>
      <trkpt lat="43.6554" lon="5.63458">
        <ele>338</ele>
        <time>2017-03-08T10:50:44Z</time>
      </trkpt>
      <trkpt lat="43.65547" lon="5.63465">
        <ele>333</ele>
        <time>2017-03-08T10:51:11Z</time>
      </trkpt>
      <trkpt lat="43.65555" lon="5.63466">
        <ele>333</ele>
        <time>2017-03-08T10:51:24Z</time>
      </trkpt>
      <trkpt lat="43.65562" lon="5.63472">
        <ele>334</ele>
        <time>2017-03-08T10:51:31Z</time>
      </trkpt>
      <trkpt lat="43.6557" lon="5.63471">
        <ele>325</ele>
        <time>2017-03-08T10:51:42Z</time>
      </trkpt>
      <trkpt lat="43.65579" lon="5.6347">
        <ele>327</ele>
        <time>2017-03-08T10:51:54Z</time>
      </trkpt>
      <trkpt lat="43.65587" lon="5.63474">
        <ele>327</ele>
        <time>2017-03-08T10:52:02Z</time>
      </trkpt>
      <trkpt lat="43.65594" lon="5.63476">
        <ele>325</ele>
        <time>2017-03-08T10:52:10Z</time>
      </trkpt>
      <trkpt lat="43.65602" lon="5.63474">
        <ele>328</ele>
        <time>2017-03-08T10:52:20Z</time>
      </trkpt>
      <trkpt lat="43.65609" lon="5.63479">
        <ele>328</ele>
        <time>2017-03-08T10:52:29Z</time>
      </trkpt>
      <trkpt lat="43.65618" lon="5.63483">
        <ele>327</ele>
        <time>2017-03-08T10:52:44Z</time>
      </trkpt>
      <trkpt lat="43.65626" lon="5.63483">
        <ele>329</ele>
        <time>2017-03-08T10:52:52Z</time>
      </trkpt>
      <trkpt lat="43.65634" lon="5.63481">
        <ele>332</ele>
        <time>2017-03-08T10:52:58Z</time>
      </trkpt>
      <trkpt lat="43.65642" lon="5.63482">
        <ele>329</ele>
        <time>2017-03-08T10:53:31Z</time>
      </trkpt>
      <trkpt lat="43.6565" lon="5.63482">
        <ele>329</ele>
        <time>2017-03-08T10:53:39Z</time>
      </trkpt>
      <trkpt lat="43.65657" lon="5.63484">
        <ele>327</ele>
        <time>2017-03-08T10:53:51Z</time>
      </trkpt>
      <trkpt lat="43.65665" lon="5.6349">
        <ele>327</ele>
        <time>2017-03-08T10:53:57Z</time>
      </trkpt>
      <trkpt lat="43.65673" lon="5.63486">
        <ele>325</ele>
        <time>2017-03-08T10:54:02Z</time>
      </trkpt>
      <trkpt lat="43.65666" lon="5.63484">
        <ele>317</ele>
        <time>2017-03-08T10:57:33Z</time>
      </trkpt>
      <trkpt lat="43.65659" lon="5.6349">
        <ele>314</ele>
        <time>2017-03-08T10:58:54Z</time>
      </trkpt>
      <trkpt lat="43.65651" lon="5.63495">
        <ele>304</ele>
        <time>2017-03-08T10:58:58Z</time>
      </trkpt>
      <trkpt lat="43.65638" lon="5.63502">
        <ele>302</ele>
        <time>2017-03-08T10:59:02Z</time>
      </trkpt>
      <trkpt lat="43.65629" lon="5.6351">
        <ele>302</ele>
        <time>2017-03-08T10:59:06Z</time>
      </trkpt>
      <trkpt lat="43.65621" lon="5.63515">
        <ele>301</ele>
        <time>2017-03-08T10:59:17Z</time>
      </trkpt>
      <trkpt lat="43.65614" lon="5.63518">
        <ele>301</ele>
        <time>2017-03-08T10:59:26Z</time>
      </trkpt>
      <trkpt lat="43.65611" lon="5.63529">
        <ele>305</ele>
        <time>2017-03-08T10:59:36Z</time>
      </trkpt>
      <trkpt lat="43.65601" lon="5.63529">
        <ele>305</ele>
        <time>2017-03-08T10:59:40Z</time>
      </trkpt>
      <trkpt lat="43.65594" lon="5.63525">
        <ele>305</ele>
        <time>2017-03-08T10:59:46Z</time>
      </trkpt>
      <trkpt lat="43.65586" lon="5.63523">
        <ele>304</ele>
        <time>2017-03-08T10:59:56Z</time>
      </trkpt>
      <trkpt lat="43.65577" lon="5.63522">
        <ele>305</ele>
        <time>2017-03-08T11:00:02Z</time>
      </trkpt>
      <trkpt lat="43.6557" lon="5.63522">
        <ele>309</ele>
        <time>2017-03-08T11:00:10Z</time>
      </trkpt>
      <trkpt lat="43.65563" lon="5.63525">
        <ele>311</ele>
        <time>2017-03-08T11:00:14Z</time>
      </trkpt>
      <trkpt lat="43.65559" lon="5.63534">
        <ele>313</ele>
        <time>2017-03-08T11:00:20Z</time>
      </trkpt>
      <trkpt lat="43.65551" lon="5.63532">
        <ele>315</ele>
        <time>2017-03-08T11:00:32Z</time>
      </trkpt>
      <trkpt lat="43.65543" lon="5.63528">
        <ele>315</ele>
        <time>2017-03-08T11:00:38Z</time>
      </trkpt>
      <trkpt lat="43.65536" lon="5.63525">
        <ele>313</ele>
        <time>2017-03-08T11:00:49Z</time>
      </trkpt>
      <trkpt lat="43.65528" lon="5.63525">
        <ele>315</ele>
        <time>2017-03-08T11:00:54Z</time>
      </trkpt>
      <trkpt lat="43.6552" lon="5.63529">
        <ele>316</ele>
        <time>2017-03-08T11:01:02Z</time>
      </trkpt>
      <trkpt lat="43.65513" lon="5.63534">
        <ele>311</ele>
        <time>2017-03-08T11:01:12Z</time>
      </trkpt>
      <trkpt lat="43.65506" lon="5.63539">
        <ele>314</ele>
        <time>2017-03-08T11:01:18Z</time>
      </trkpt>
      <trkpt lat="43.65499" lon="5.63547">
        <ele>314</ele>
        <time>2017-03-08T11:01:28Z</time>
      </trkpt>
      <trkpt lat="43.65496" lon="5.63556">
        <ele>316</ele>
        <time>2017-03-08T11:01:37Z</time>
      </trkpt>
      <trkpt lat="43.65489" lon="5.63557">
        <ele>320</ele>
        <time>2017-03-08T11:01:44Z</time>
      </trkpt>
      <trkpt lat="43.65484" lon="5.63566">
        <ele>323</ele>
        <time>2017-03-08T11:01:57Z</time>
      </trkpt>
      <trkpt lat="43.65483" lon="5.63577">
        <ele>316</ele>
        <time>2017-03-08T11:02:07Z</time>
      </trkpt>
      <trkpt lat="43.65491" lon="5.6357">
        <ele>310</ele>
        <time>2017-03-08T11:03:55Z</time>
      </trkpt>
      <trkpt lat="43.65491" lon="5.63559">
        <ele>311</ele>
        <time>2017-03-08T11:04:03Z</time>
      </trkpt>
      <trkpt lat="43.65499" lon="5.63554">
        <ele>317</ele>
        <time>2017-03-08T11:04:10Z</time>
      </trkpt>
      <trkpt lat="43.65507" lon="5.63557">
        <ele>318</ele>
        <time>2017-03-08T11:04:18Z</time>
      </trkpt>
      <trkpt lat="43.65514" lon="5.63563">
        <ele>316</ele>
        <time>2017-03-08T11:04:43Z</time>
      </trkpt>
      <trkpt lat="43.65514" lon="5.63575">
        <ele>318</ele>
        <time>2017-03-08T11:05:01Z</time>
      </trkpt>
      <trkpt lat="43.65507" lon="5.6358">
        <ele>320</ele>
        <time>2017-03-08T11:05:16Z</time>
      </trkpt>
      <trkpt lat="43.65504" lon="5.63592">
        <ele>324</ele>
        <time>2017-03-08T11:05:35Z</time>
      </trkpt>
      <trkpt lat="43.65512" lon="5.63594">
        <ele>329</ele>
        <time>2017-03-08T11:06:53Z</time>
      </trkpt>
      <trkpt lat="43.65519" lon="5.63596">
        <ele>332</ele>
        <time>2017-03-08T11:07:06Z</time>
      </trkpt>
      <trkpt lat="43.65528" lon="5.63594">
        <ele>336</ele>
        <time>2017-03-08T11:07:33Z</time>
      </trkpt>
      <trkpt lat="43.6553" lon="5.63605">
        <ele>333</ele>
        <time>2017-03-08T11:07:47Z</time>
      </trkpt>
      <trkpt lat="43.65528" lon="5.63615">
        <ele>339</ele>
        <time>2017-03-08T11:08:04Z</time>
      </trkpt>
      <trkpt lat="43.65525" lon="5.63626">
        <ele>346</ele>
        <time>2017-03-08T11:08:18Z</time>
      </trkpt>
      <trkpt lat="43.65518" lon="5.63629">
        <ele>347</ele>
        <time>2017-03-08T11:08:30Z</time>
      </trkpt>
      <trkpt lat="43.6551" lon="5.63633">
        <ele>351</ele>
        <time>2017-03-08T11:08:36Z</time>
      </trkpt>
      <trkpt lat="43.65514" lon="5.63638">
        <ele>346</ele>
        <time>2017-03-08T11:08:54Z</time>
      </trkpt>
      <trkpt lat="43.65522" lon="5.63641">
        <ele>344</ele>
        <time>2017-03-08T11:09:02Z</time>
      </trkpt>
      <trkpt lat="43.65529" lon="5.63637">
        <ele>347</ele>
        <time>2017-03-08T11:09:30Z</time>
      </trkpt>
      <trkpt lat="43.65537" lon="5.63635">
        <ele>348</ele>
        <time>2017-03-08T11:09:40Z</time>
      </trkpt>
      <trkpt lat="43.65542" lon="5.63628">
        <ele>349</ele>
        <time>2017-03-08T11:09:54Z</time>
      </trkpt>
      <trkpt lat="43.6555" lon="5.63626">
        <ele>350</ele>
        <time>2017-03-08T11:10:03Z</time>
      </trkpt>
      <trkpt lat="43.65551" lon="5.63616">
        <ele>354</ele>
        <time>2017-03-08T11:10:10Z</time>
      </trkpt>
      <trkpt lat="43.6556" lon="5.63618">
        <ele>358</ele>
        <time>2017-03-08T11:10:32Z</time>
      </trkpt>
      <trkpt lat="43.65563" lon="5.63627">
        <ele>358</ele>
        <time>2017-03-08T11:10:56Z</time>
      </trkpt>
      <trkpt lat="43.65566" lon="5.63616">
        <ele>359</ele>
        <time>2017-03-08T11:11:30Z</time>
      </trkpt>
      <trkpt lat="43.65572" lon="5.63622">
        <ele>360</ele>
        <time>2017-03-08T11:14:41Z</time>
      </trkpt>
      <trkpt lat="43.65574" lon="5.63633">
        <ele>361</ele>
        <time>2017-03-08T11:14:57Z</time>
      </trkpt>
      <trkpt lat="43.65579" lon="5.63626">
        <ele>365</ele>
        <time>2017-03-08T11:15:14Z</time>
      </trkpt>
      <trkpt lat="43.65586" lon="5.63628">
        <ele>367</ele>
        <time>2017-03-08T11:16:03Z</time>
      </trkpt>
      <trkpt lat="43.65591" lon="5.63637">
        <ele>367</ele>
        <time>2017-03-08T11:16:30Z</time>
      </trkpt>
      <trkpt lat="43.65598" lon="5.63642">
        <ele>370</ele>
        <time>2017-03-08T11:16:45Z</time>
      </trkpt>
      <trkpt lat="43.65605" lon="5.63649">
        <ele>372</ele>
        <time>2017-03-08T11:16:55Z</time>
      </trkpt>
      <trkpt lat="43.6561" lon="5.63658">
        <ele>372</ele>
        <time>2017-03-08T11:17:09Z</time>
      </trkpt>
      <trkpt lat="43.65617" lon="5.63664">
        <ele>371</ele>
        <time>2017-03-08T11:17:16Z</time>
      </trkpt>
      <trkpt lat="43.6562" lon="5.63676">
        <ele>368</ele>
        <time>2017-03-08T11:17:39Z</time>
      </trkpt>
      <trkpt lat="43.65621" lon="5.63687">
        <ele>376</ele>
        <time>2017-03-08T11:17:58Z</time>
      </trkpt>
      <trkpt lat="43.65624" lon="5.63698">
        <ele>375</ele>
        <time>2017-03-08T11:18:11Z</time>
      </trkpt>
      <trkpt lat="43.65624" lon="5.63709">
        <ele>372</ele>
        <time>2017-03-08T11:18:25Z</time>
      </trkpt>
      <trkpt lat="43.65627" lon="5.63721">
        <ele>380</ele>
        <time>2017-03-08T11:18:58Z</time>
      </trkpt>
      <trkpt lat="43.65634" lon="5.63727">
        <ele>382</ele>
        <time>2017-03-08T11:19:24Z</time>
      </trkpt>
      <trkpt lat="43.65641" lon="5.63732">
        <ele>385</ele>
        <time>2017-03-08T11:20:28Z</time>
      </trkpt>
      <trkpt lat="43.65647" lon="5.63741">
        <ele>386</ele>
        <time>2017-03-08T11:20:52Z</time>
      </trkpt>
      <trkpt lat="43.65656" lon="5.63745">
        <ele>391</ele>
        <time>2017-03-08T11:20:56Z</time>
      </trkpt>
      <trkpt lat="43.65659" lon="5.63734">
        <ele>387</ele>
        <time>2017-03-08T11:21:25Z</time>
      </trkpt>
      <trkpt lat="43.65653" lon="5.63726">
        <ele>392</ele>
        <time>2017-03-08T11:21:40Z</time>
      </trkpt>
      <trkpt lat="43.65645" lon="5.63727">
        <ele>389</ele>
        <time>2017-03-08T11:21:58Z</time>
      </trkpt>
      <trkpt lat="43.65638" lon="5.63733">
        <ele>387</ele>
        <time>2017-03-08T11:22:03Z</time>
      </trkpt>
      <trkpt lat="43.65638" lon="5.6372">
        <ele>380</ele>
        <time>2017-03-08T11:47:07Z</time>
      </trkpt>
      <trkpt lat="43.65641" lon="5.6371">
        <ele>380</ele>
        <time>2017-03-08T11:48:41Z</time>
      </trkpt>
      <trkpt lat="43.65639" lon="5.63721">
        <ele>378</ele>
        <time>2017-03-08T11:49:46Z</time>
      </trkpt>
      <trkpt lat="43.65637" lon="5.63731">
        <ele>376</ele>
        <time>2017-03-08T11:49:56Z</time>
      </trkpt>
      <trkpt lat="43.65641" lon="5.6372">
        <ele>374</ele>
        <time>2017-03-08T11:51:05Z</time>
      </trkpt>
      <trkpt lat="43.65636" lon="5.6373">
        <ele>370</ele>
        <time>2017-03-08T11:52:14Z</time>
      </trkpt>
      <trkpt lat="43.65642" lon="5.63721">
        <ele>384</ele>
        <time>2017-03-08T11:53:04Z</time>
      </trkpt>
      <trkpt lat="43.65641" lon="5.6371">
        <ele>382</ele>
        <time>2017-03-08T11:53:36Z</time>
      </trkpt>
      <trkpt lat="43.65638" lon="5.63721">
        <ele>380</ele>
        <time>2017-03-08T12:04:09Z</time>
      </trkpt>
      <trkpt lat="43.65636" lon="5.63733">
        <ele>378</ele>
        <time>2017-03-08T12:08:09Z</time>
      </trkpt>
      <trkpt lat="43.6563" lon="5.63739">
        <ele>384</ele>
        <time>2017-03-08T12:19:47Z</time>
      </trkpt>
      <trkpt lat="43.65624" lon="5.63745">
        <ele>387</ele>
        <time>2017-03-08T12:19:54Z</time>
      </trkpt>
      <trkpt lat="43.65624" lon="5.63756">
        <ele>384</ele>
        <time>2017-03-08T12:20:07Z</time>
      </trkpt>
      <trkpt lat="43.6562" lon="5.63765">
        <ele>386</ele>
        <time>2017-03-08T12:20:23Z</time>
      </trkpt>
      <trkpt lat="43.65614" lon="5.63774">
        <ele>388</ele>
        <time>2017-03-08T12:20:35Z</time>
      </trkpt>
      <trkpt lat="43.65611" lon="5.63785">
        <ele>386</ele>
        <time>2017-03-08T12:20:46Z</time>
      </trkpt>
      <trkpt lat="43.65606" lon="5.63795">
        <ele>388</ele>
        <time>2017-03-08T12:20:56Z</time>
      </trkpt>
      <trkpt lat="43.65607" lon="5.63808">
        <ele>390</ele>
        <time>2017-03-08T12:21:06Z</time>
      </trkpt>
      <trkpt lat="43.65611" lon="5.63819">
        <ele>388</ele>
        <time>2017-03-08T12:21:52Z</time>
      </trkpt>
      <trkpt lat="43.65617" lon="5.63828">
        <ele>389</ele>
        <time>2017-03-08T12:21:59Z</time>
      </trkpt>
      <trkpt lat="43.6562" lon="5.63839">
        <ele>386</ele>
        <time>2017-03-08T12:22:07Z</time>
      </trkpt>
      <trkpt lat="43.65624" lon="5.63848">
        <ele>388</ele>
        <time>2017-03-08T12:22:16Z</time>
      </trkpt>
      <trkpt lat="43.65628" lon="5.63858">
        <ele>388</ele>
        <time>2017-03-08T12:22:23Z</time>
      </trkpt>
      <trkpt lat="43.65631" lon="5.63868">
        <ele>387</ele>
        <time>2017-03-08T12:22:31Z</time>
      </trkpt>
      <trkpt lat="43.65635" lon="5.63879">
        <ele>389</ele>
        <time>2017-03-08T12:22:40Z</time>
      </trkpt>
      <trkpt lat="43.65637" lon="5.6389">
        <ele>385</ele>
        <time>2017-03-08T12:22:47Z</time>
      </trkpt>
      <trkpt lat="43.6564" lon="5.63901">
        <ele>385</ele>
        <time>2017-03-08T12:22:56Z</time>
      </trkpt>
      <trkpt lat="43.65642" lon="5.63911">
        <ele>385</ele>
        <time>2017-03-08T12:23:04Z</time>
      </trkpt>
      <trkpt lat="43.65643" lon="5.63924">
        <ele>385</ele>
        <time>2017-03-08T12:23:12Z</time>
      </trkpt>
      <trkpt lat="43.6564" lon="5.63934">
        <ele>385</ele>
        <time>2017-03-08T12:23:22Z</time>
      </trkpt>
      <trkpt lat="43.65636" lon="5.63944">
        <ele>385</ele>
        <time>2017-03-08T12:23:30Z</time>
      </trkpt>
      <trkpt lat="43.6563" lon="5.63952">
        <ele>383</ele>
        <time>2017-03-08T12:23:40Z</time>
      </trkpt>
      <trkpt lat="43.65623" lon="5.63958">
        <ele>379</ele>
        <time>2017-03-08T12:23:51Z</time>
      </trkpt>
      <trkpt lat="43.65618" lon="5.63967">
        <ele>381</ele>
        <time>2017-03-08T12:23:58Z</time>
      </trkpt>
      <trkpt lat="43.6561" lon="5.63973">
        <ele>380</ele>
        <time>2017-03-08T12:24:04Z</time>
      </trkpt>
      <trkpt lat="43.65602" lon="5.63976">
        <ele>378</ele>
        <time>2017-03-08T12:24:14Z</time>
      </trkpt>
      <trkpt lat="43.65595" lon="5.63983">
        <ele>382</ele>
        <time>2017-03-08T12:24:20Z</time>
      </trkpt>
      <trkpt lat="43.65587" lon="5.63986">
        <ele>385</ele>
        <time>2017-03-08T12:24:28Z</time>
      </trkpt>
      <trkpt lat="43.65579" lon="5.63987">
        <ele>381</ele>
        <time>2017-03-08T12:24:37Z</time>
      </trkpt>
      <trkpt lat="43.65571" lon="5.63991">
        <ele>381</ele>
        <time>2017-03-08T12:24:45Z</time>
      </trkpt>
      <trkpt lat="43.65566" lon="5.64002">
        <ele>379</ele>
        <time>2017-03-08T12:24:56Z</time>
      </trkpt>
      <trkpt lat="43.65575" lon="5.64006">
        <ele>378</ele>
        <time>2017-03-08T12:25:07Z</time>
      </trkpt>
      <trkpt lat="43.65581" lon="5.64013">
        <ele>377</ele>
        <time>2017-03-08T12:25:17Z</time>
      </trkpt>
      <trkpt lat="43.65588" lon="5.64015">
        <ele>378</ele>
        <time>2017-03-08T12:25:29Z</time>
      </trkpt>
      <trkpt lat="43.65595" lon="5.64021">
        <ele>376</ele>
        <time>2017-03-08T12:25:40Z</time>
      </trkpt>
      <trkpt lat="43.65599" lon="5.64029">
        <ele>373</ele>
        <time>2017-03-08T12:25:48Z</time>
      </trkpt>
      <trkpt lat="43.65595" lon="5.64039">
        <ele>372</ele>
        <time>2017-03-08T12:25:58Z</time>
      </trkpt>
      <trkpt lat="43.65589" lon="5.64046">
        <ele>369</ele>
        <time>2017-03-08T12:26:11Z</time>
      </trkpt>
      <trkpt lat="43.65583" lon="5.64053">
        <ele>367</ele>
        <time>2017-03-08T12:26:18Z</time>
      </trkpt>
      <trkpt lat="43.65579" lon="5.64062">
        <ele>366</ele>
        <time>2017-03-08T12:26:23Z</time>
      </trkpt>
      <trkpt lat="43.65575" lon="5.64072">
        <ele>366</ele>
        <time>2017-03-08T12:26:31Z</time>
      </trkpt>
      <trkpt lat="43.6557" lon="5.64082">
        <ele>363</ele>
        <time>2017-03-08T12:26:41Z</time>
      </trkpt>
      <trkpt lat="43.65564" lon="5.64091">
        <ele>364</ele>
        <time>2017-03-08T12:26:50Z</time>
      </trkpt>
      <trkpt lat="43.6556" lon="5.64101">
        <ele>365</ele>
        <time>2017-03-08T12:27:01Z</time>
      </trkpt>
      <trkpt lat="43.65553" lon="5.64109">
        <ele>364</ele>
        <time>2017-03-08T12:27:09Z</time>
      </trkpt>
      <trkpt lat="43.65548" lon="5.64118">
        <ele>361</ele>
        <time>2017-03-08T12:27:19Z</time>
      </trkpt>
      <trkpt lat="43.65543" lon="5.64127">
        <ele>359</ele>
        <time>2017-03-08T12:27:27Z</time>
      </trkpt>
      <trkpt lat="43.65538" lon="5.64137">
        <ele>362</ele>
        <time>2017-03-08T12:27:35Z</time>
      </trkpt>
      <trkpt lat="43.65533" lon="5.64147">
        <ele>363</ele>
        <time>2017-03-08T12:27:44Z</time>
      </trkpt>
      <trkpt lat="43.65526" lon="5.64154">
        <ele>364</ele>
        <time>2017-03-08T12:27:53Z</time>
      </trkpt>
      <trkpt lat="43.65521" lon="5.64162">
        <ele>366</ele>
        <time>2017-03-08T12:27:59Z</time>
      </trkpt>
      <trkpt lat="43.65513" lon="5.64167">
        <ele>366</ele>
        <time>2017-03-08T12:28:10Z</time>
      </trkpt>
      <trkpt lat="43.65506" lon="5.64173">
        <ele>364</ele>
        <time>2017-03-08T12:28:18Z</time>
      </trkpt>
      <trkpt lat="43.655" lon="5.64181">
        <ele>366</ele>
        <time>2017-03-08T12:28:25Z</time>
      </trkpt>
      <trkpt lat="43.65494" lon="5.64189">
        <ele>368</ele>
        <time>2017-03-08T12:28:34Z</time>
      </trkpt>
      <trkpt lat="43.65488" lon="5.64196">
        <ele>369</ele>
        <time>2017-03-08T12:28:42Z</time>
      </trkpt>
      <trkpt lat="43.65482" lon="5.64202">
        <ele>369</ele>
        <time>2017-03-08T12:28:50Z</time>
      </trkpt>
      <trkpt lat="43.65475" lon="5.64208">
        <ele>368</ele>
        <time>2017-03-08T12:28:58Z</time>
      </trkpt>
      <trkpt lat="43.6547" lon="5.64217">
        <ele>369</ele>
        <time>2017-03-08T12:29:08Z</time>
      </trkpt>
      <trkpt lat="43.65469" lon="5.64228">
        <ele>370</ele>
        <time>2017-03-08T12:29:16Z</time>
      </trkpt>
      <trkpt lat="43.65472" lon="5.6424">
        <ele>375</ele>
        <time>2017-03-08T12:29:27Z</time>
      </trkpt>
      <trkpt lat="43.65477" lon="5.64247">
        <ele>376</ele>
        <time>2017-03-08T12:29:38Z</time>
      </trkpt>
      <trkpt lat="43.65484" lon="5.6425">
        <ele>377</ele>
        <time>2017-03-08T12:29:43Z</time>
      </trkpt>
      <trkpt lat="43.65492" lon="5.64254">
        <ele>376</ele>
        <time>2017-03-08T12:29:51Z</time>
      </trkpt>
      <trkpt lat="43.655" lon="5.64258">
        <ele>376</ele>
        <time>2017-03-08T12:30:02Z</time>
      </trkpt>
      <trkpt lat="43.65507" lon="5.64263">
        <ele>375</ele>
        <time>2017-03-08T12:30:08Z</time>
      </trkpt>
      <trkpt lat="43.65514" lon="5.64268">
        <ele>372</ele>
        <time>2017-03-08T12:30:15Z</time>
      </trkpt>
      <trkpt lat="43.65522" lon="5.64271">
        <ele>371</ele>
        <time>2017-03-08T12:30:21Z</time>
      </trkpt>
      <trkpt lat="43.65528" lon="5.6428">
        <ele>369</ele>
        <time>2017-03-08T12:30:29Z</time>
      </trkpt>
      <trkpt lat="43.65535" lon="5.64284">
        <ele>374</ele>
        <time>2017-03-08T12:30:37Z</time>
      </trkpt>
      <trkpt lat="43.65544" lon="5.64287">
        <ele>373</ele>
        <time>2017-03-08T12:30:44Z</time>
      </trkpt>
      <trkpt lat="43.65551" lon="5.64292">
        <ele>379</ele>
        <time>2017-03-08T12:30:52Z</time>
      </trkpt>
      <trkpt lat="43.65559" lon="5.6429">
        <ele>382</ele>
        <time>2017-03-08T12:31:06Z</time>
      </trkpt>
      <trkpt lat="43.65567" lon="5.64287">
        <ele>382</ele>
        <time>2017-03-08T12:31:14Z</time>
      </trkpt>
      <trkpt lat="43.65574" lon="5.64283">
        <ele>379</ele>
        <time>2017-03-08T12:31:22Z</time>
      </trkpt>
      <trkpt lat="43.65581" lon="5.6429">
        <ele>378</ele>
        <time>2017-03-08T12:31:27Z</time>
      </trkpt>
      <trkpt lat="43.6559" lon="5.64292">
        <ele>378</ele>
        <time>2017-03-08T12:31:34Z</time>
      </trkpt>
      <trkpt lat="43.65597" lon="5.64298">
        <ele>377</ele>
        <time>2017-03-08T12:31:41Z</time>
      </trkpt>
      <trkpt lat="43.65602" lon="5.64307">
        <ele>375</ele>
        <time>2017-03-08T12:31:48Z</time>
      </trkpt>
      <trkpt lat="43.65603" lon="5.64318">
        <ele>374</ele>
        <time>2017-03-08T12:31:56Z</time>
      </trkpt>
      <trkpt lat="43.65605" lon="5.64329">
        <ele>376</ele>
        <time>2017-03-08T12:32:02Z</time>
      </trkpt>
      <trkpt lat="43.65605" lon="5.6434">
        <ele>375</ele>
        <time>2017-03-08T12:32:11Z</time>
      </trkpt>
      <trkpt lat="43.65608" lon="5.64352">
        <ele>379</ele>
        <time>2017-03-08T12:32:17Z</time>
      </trkpt>
      <trkpt lat="43.65604" lon="5.64363">
        <ele>380</ele>
        <time>2017-03-08T12:32:24Z</time>
      </trkpt>
      <trkpt lat="43.65605" lon="5.64374">
        <ele>382</ele>
        <time>2017-03-08T12:32:34Z</time>
      </trkpt>
      <trkpt lat="43.65607" lon="5.64386">
        <ele>382</ele>
        <time>2017-03-08T12:32:42Z</time>
      </trkpt>
      <trkpt lat="43.65607" lon="5.64397">
        <ele>382</ele>
        <time>2017-03-08T12:32:50Z</time>
      </trkpt>
      <trkpt lat="43.65605" lon="5.64408">
        <ele>383</ele>
        <time>2017-03-08T12:33:00Z</time>
      </trkpt>
      <trkpt lat="43.65605" lon="5.6442">
        <ele>383</ele>
        <time>2017-03-08T12:33:08Z</time>
      </trkpt>
      <trkpt lat="43.65607" lon="5.64431">
        <ele>382</ele>
        <time>2017-03-08T12:33:15Z</time>
      </trkpt>
      <trkpt lat="43.65606" lon="5.64441">
        <ele>381</ele>
        <time>2017-03-08T12:33:22Z</time>
      </trkpt>
      <trkpt lat="43.65609" lon="5.64451">
        <ele>383</ele>
        <time>2017-03-08T12:33:26Z</time>
      </trkpt>
      <trkpt lat="43.65613" lon="5.64461">
        <ele>385</ele>
        <time>2017-03-08T12:33:34Z</time>
      </trkpt>
      <trkpt lat="43.65617" lon="5.64468">
        <ele>385</ele>
        <time>2017-03-08T12:33:38Z</time>
      </trkpt>
      <trkpt lat="43.65622" lon="5.64478">
        <ele>381</ele>
        <time>2017-03-08T12:33:43Z</time>
      </trkpt>
      <trkpt lat="43.65624" lon="5.64487">
        <ele>383</ele>
        <time>2017-03-08T12:33:52Z</time>
      </trkpt>
      <trkpt lat="43.65626" lon="5.64499">
        <ele>378</ele>
        <time>2017-03-08T12:34:03Z</time>
      </trkpt>
      <trkpt lat="43.65628" lon="5.6451">
        <ele>380</ele>
        <time>2017-03-08T12:34:10Z</time>
      </trkpt>
      <trkpt lat="43.65624" lon="5.64521">
        <ele>382</ele>
        <time>2017-03-08T12:34:16Z</time>
      </trkpt>
      <trkpt lat="43.65619" lon="5.64529">
        <ele>381</ele>
        <time>2017-03-08T12:34:20Z</time>
      </trkpt>
      <trkpt lat="43.65622" lon="5.6454">
        <ele>381</ele>
        <time>2017-03-08T12:34:26Z</time>
      </trkpt>
      <trkpt lat="43.65621" lon="5.64551">
        <ele>381</ele>
        <time>2017-03-08T12:34:32Z</time>
      </trkpt>
      <trkpt lat="43.65621" lon="5.64563">
        <ele>380</ele>
        <time>2017-03-08T12:34:37Z</time>
      </trkpt>
      <trkpt lat="43.65617" lon="5.64574">
        <ele>380</ele>
        <time>2017-03-08T12:34:48Z</time>
      </trkpt>
      <trkpt lat="43.65613" lon="5.64584">
        <ele>379</ele>
        <time>2017-03-08T12:34:55Z</time>
      </trkpt>
      <trkpt lat="43.65609" lon="5.64595">
        <ele>379</ele>
        <time>2017-03-08T12:35:01Z</time>
      </trkpt>
      <trkpt lat="43.65607" lon="5.64606">
        <ele>381</ele>
        <time>2017-03-08T12:35:09Z</time>
      </trkpt>
      <trkpt lat="43.65601" lon="5.64614">
        <ele>381</ele>
        <time>2017-03-08T12:35:17Z</time>
      </trkpt>
      <trkpt lat="43.656" lon="5.64626">
        <ele>384</ele>
        <time>2017-03-08T12:35:23Z</time>
      </trkpt>
      <trkpt lat="43.65599" lon="5.64637">
        <ele>384</ele>
        <time>2017-03-08T12:35:31Z</time>
      </trkpt>
      <trkpt lat="43.65599" lon="5.64647">
        <ele>385</ele>
        <time>2017-03-08T12:35:40Z</time>
      </trkpt>
      <trkpt lat="43.65591" lon="5.64659">
        <ele>388</ele>
        <time>2017-03-08T12:35:45Z</time>
      </trkpt>
      <trkpt lat="43.65594" lon="5.6467">
        <ele>389</ele>
        <time>2017-03-08T12:35:53Z</time>
      </trkpt>
      <trkpt lat="43.65596" lon="5.64681">
        <ele>384</ele>
        <time>2017-03-08T12:36:02Z</time>
      </trkpt>
      <trkpt lat="43.65596" lon="5.64693">
        <ele>384</ele>
        <time>2017-03-08T12:36:08Z</time>
      </trkpt>
      <trkpt lat="43.65592" lon="5.64702">
        <ele>385</ele>
        <time>2017-03-08T12:36:15Z</time>
      </trkpt>
      <trkpt lat="43.65588" lon="5.64712">
        <ele>384</ele>
        <time>2017-03-08T12:36:23Z</time>
      </trkpt>
      <trkpt lat="43.65589" lon="5.64721">
        <ele>383</ele>
        <time>2017-03-08T12:36:29Z</time>
      </trkpt>
      <trkpt lat="43.65588" lon="5.64732">
        <ele>383</ele>
        <time>2017-03-08T12:36:35Z</time>
      </trkpt>
      <trkpt lat="43.65583" lon="5.64742">
        <ele>381</ele>
        <time>2017-03-08T12:36:43Z</time>
      </trkpt>
      <trkpt lat="43.65579" lon="5.64752">
        <ele>382</ele>
        <time>2017-03-08T12:36:52Z</time>
      </trkpt>
      <trkpt lat="43.65575" lon="5.64763">
        <ele>381</ele>
        <time>2017-03-08T12:36:59Z</time>
      </trkpt>
      <trkpt lat="43.65572" lon="5.64773">
        <ele>382</ele>
        <time>2017-03-08T12:37:10Z</time>
      </trkpt>
      <trkpt lat="43.6557" lon="5.64785">
        <ele>381</ele>
        <time>2017-03-08T12:37:16Z</time>
      </trkpt>
      <trkpt lat="43.65569" lon="5.64796">
        <ele>382</ele>
        <time>2017-03-08T12:37:26Z</time>
      </trkpt>
      <trkpt lat="43.65569" lon="5.64808">
        <ele>383</ele>
        <time>2017-03-08T12:37:35Z</time>
      </trkpt>
      <trkpt lat="43.65565" lon="5.64819">
        <ele>382</ele>
        <time>2017-03-08T12:37:43Z</time>
      </trkpt>
      <trkpt lat="43.65569" lon="5.64829">
        <ele>382</ele>
        <time>2017-03-08T12:37:51Z</time>
      </trkpt>
      <trkpt lat="43.65572" lon="5.6484">
        <ele>386</ele>
        <time>2017-03-08T12:37:59Z</time>
      </trkpt>
      <trkpt lat="43.6557" lon="5.64851">
        <ele>387</ele>
        <time>2017-03-08T12:38:07Z</time>
      </trkpt>
      <trkpt lat="43.65569" lon="5.64863">
        <ele>388</ele>
        <time>2017-03-08T12:38:14Z</time>
      </trkpt>
      <trkpt lat="43.65571" lon="5.64874">
        <ele>386</ele>
        <time>2017-03-08T12:38:20Z</time>
      </trkpt>
      <trkpt lat="43.65574" lon="5.64886">
        <ele>385</ele>
        <time>2017-03-08T12:38:32Z</time>
      </trkpt>
      <trkpt lat="43.65573" lon="5.64896">
        <ele>387</ele>
        <time>2017-03-08T12:38:40Z</time>
      </trkpt>
      <trkpt lat="43.65578" lon="5.64904">
        <ele>388</ele>
        <time>2017-03-08T12:38:49Z</time>
      </trkpt>
      <trkpt lat="43.65583" lon="5.64914">
        <ele>392</ele>
        <time>2017-03-08T12:38:58Z</time>
      </trkpt>
      <trkpt lat="43.65588" lon="5.64925">
        <ele>386</ele>
        <time>2017-03-08T12:39:08Z</time>
      </trkpt>
      <trkpt lat="43.65589" lon="5.64936">
        <ele>389</ele>
        <time>2017-03-08T12:39:16Z</time>
      </trkpt>
      <trkpt lat="43.65587" lon="5.64948">
        <ele>392</ele>
        <time>2017-03-08T12:39:25Z</time>
      </trkpt>
      <trkpt lat="43.65586" lon="5.64958">
        <ele>393</ele>
        <time>2017-03-08T12:39:31Z</time>
      </trkpt>
      <trkpt lat="43.65583" lon="5.64969">
        <ele>392</ele>
        <time>2017-03-08T12:39:37Z</time>
      </trkpt>
      <trkpt lat="43.6558" lon="5.64978">
        <ele>390</ele>
        <time>2017-03-08T12:39:43Z</time>
      </trkpt>
      <trkpt lat="43.65575" lon="5.64986">
        <ele>387</ele>
        <time>2017-03-08T12:39:56Z</time>
      </trkpt>
      <trkpt lat="43.65565" lon="5.6499">
        <ele>386</ele>
        <time>2017-03-08T12:40:01Z</time>
      </trkpt>
      <trkpt lat="43.65556" lon="5.64992">
        <ele>388</ele>
        <time>2017-03-08T12:40:07Z</time>
      </trkpt>
      <trkpt lat="43.65549" lon="5.64997">
        <ele>391</ele>
        <time>2017-03-08T12:40:15Z</time>
      </trkpt>
      <trkpt lat="43.65543" lon="5.65">
        <ele>391</ele>
        <time>2017-03-08T12:40:21Z</time>
      </trkpt>
      <trkpt lat="43.65536" lon="5.65007">
        <ele>394</ele>
        <time>2017-03-08T12:40:27Z</time>
      </trkpt>
      <trkpt lat="43.6553" lon="5.65016">
        <ele>392</ele>
        <time>2017-03-08T12:40:36Z</time>
      </trkpt>
      <trkpt lat="43.65525" lon="5.65026">
        <ele>388</ele>
        <time>2017-03-08T12:40:47Z</time>
      </trkpt>
      <trkpt lat="43.6552" lon="5.65035">
        <ele>388</ele>
        <time>2017-03-08T12:40:56Z</time>
      </trkpt>
      <trkpt lat="43.65517" lon="5.65046">
        <ele>387</ele>
        <time>2017-03-08T12:41:05Z</time>
      </trkpt>
      <trkpt lat="43.65515" lon="5.65057">
        <ele>386</ele>
        <time>2017-03-08T12:41:13Z</time>
      </trkpt>
      <trkpt lat="43.65515" lon="5.65069">
        <ele>385</ele>
        <time>2017-03-08T12:41:21Z</time>
      </trkpt>
      <trkpt lat="43.65511" lon="5.65079">
        <ele>388</ele>
        <time>2017-03-08T12:41:30Z</time>
      </trkpt>
      <trkpt lat="43.65507" lon="5.6509">
        <ele>391</ele>
        <time>2017-03-08T12:41:39Z</time>
      </trkpt>
      <trkpt lat="43.65503" lon="5.651">
        <ele>393</ele>
        <time>2017-03-08T12:41:46Z</time>
      </trkpt>
      <trkpt lat="43.65502" lon="5.65111">
        <ele>392</ele>
        <time>2017-03-08T12:41:53Z</time>
      </trkpt>
      <trkpt lat="43.65501" lon="5.65122">
        <ele>394</ele>
        <time>2017-03-08T12:42:00Z</time>
      </trkpt>
      <trkpt lat="43.65499" lon="5.65133">
        <ele>394</ele>
        <time>2017-03-08T12:42:07Z</time>
      </trkpt>
      <trkpt lat="43.65497" lon="5.65143">
        <ele>396</ele>
        <time>2017-03-08T12:42:14Z</time>
      </trkpt>
      <trkpt lat="43.65494" lon="5.65154">
        <ele>396</ele>
        <time>2017-03-08T12:42:21Z</time>
      </trkpt>
      <trkpt lat="43.65491" lon="5.65163">
        <ele>393</ele>
        <time>2017-03-08T12:42:30Z</time>
      </trkpt>
      <trkpt lat="43.6549" lon="5.65175">
        <ele>394</ele>
        <time>2017-03-08T12:42:37Z</time>
      </trkpt>
      <trkpt lat="43.65489" lon="5.65186">
        <ele>394</ele>
        <time>2017-03-08T12:42:45Z</time>
      </trkpt>
      <trkpt lat="43.65484" lon="5.65197">
        <ele>398</ele>
        <time>2017-03-08T12:42:52Z</time>
      </trkpt>
      <trkpt lat="43.65484" lon="5.65208">
        <ele>396</ele>
        <time>2017-03-08T12:42:59Z</time>
      </trkpt>
      <trkpt lat="43.65483" lon="5.65219">
        <ele>398</ele>
        <time>2017-03-08T12:43:08Z</time>
      </trkpt>
      <trkpt lat="43.65479" lon="5.65228">
        <ele>395</ele>
        <time>2017-03-08T12:43:16Z</time>
      </trkpt>
      <trkpt lat="43.65479" lon="5.65239">
        <ele>393</ele>
        <time>2017-03-08T12:43:22Z</time>
      </trkpt>
      <trkpt lat="43.65475" lon="5.65248">
        <ele>395</ele>
        <time>2017-03-08T12:43:27Z</time>
      </trkpt>
      <trkpt lat="43.65472" lon="5.65259">
        <ele>394</ele>
        <time>2017-03-08T12:43:35Z</time>
      </trkpt>
      <trkpt lat="43.6547" lon="5.6527">
        <ele>397</ele>
        <time>2017-03-08T12:43:42Z</time>
      </trkpt>
      <trkpt lat="43.65469" lon="5.65281">
        <ele>397</ele>
        <time>2017-03-08T12:43:49Z</time>
      </trkpt>
      <trkpt lat="43.65464" lon="5.6529">
        <ele>400</ele>
        <time>2017-03-08T12:43:56Z</time>
      </trkpt>
      <trkpt lat="43.65463" lon="5.65302">
        <ele>395</ele>
        <time>2017-03-08T12:44:04Z</time>
      </trkpt>
      <trkpt lat="43.65458" lon="5.65311">
        <ele>393</ele>
        <time>2017-03-08T12:44:13Z</time>
      </trkpt>
      <trkpt lat="43.65454" lon="5.6532">
        <ele>394</ele>
        <time>2017-03-08T12:44:19Z</time>
      </trkpt>
      <trkpt lat="43.65451" lon="5.65331">
        <ele>396</ele>
        <time>2017-03-08T12:44:25Z</time>
      </trkpt>
      <trkpt lat="43.65447" lon="5.65342">
        <ele>396</ele>
        <time>2017-03-08T12:44:33Z</time>
      </trkpt>
      <trkpt lat="43.65447" lon="5.65354">
        <ele>397</ele>
        <time>2017-03-08T12:44:42Z</time>
      </trkpt>
      <trkpt lat="43.65445" lon="5.65365">
        <ele>398</ele>
        <time>2017-03-08T12:44:49Z</time>
      </trkpt>
      <trkpt lat="43.65443" lon="5.65376">
        <ele>400</ele>
        <time>2017-03-08T12:44:55Z</time>
      </trkpt>
      <trkpt lat="43.65444" lon="5.65388">
        <ele>401</ele>
        <time>2017-03-08T12:45:02Z</time>
      </trkpt>
      <trkpt lat="43.65445" lon="5.654">
        <ele>398</ele>
        <time>2017-03-08T12:45:11Z</time>
      </trkpt>
      <trkpt lat="43.65442" lon="5.65412">
        <ele>397</ele>
        <time>2017-03-08T12:45:19Z</time>
      </trkpt>
      <trkpt lat="43.65443" lon="5.65423">
        <ele>399</ele>
        <time>2017-03-08T12:45:26Z</time>
      </trkpt>
      <trkpt lat="43.65445" lon="5.65435">
        <ele>402</ele>
        <time>2017-03-08T12:45:33Z</time>
      </trkpt>
      <trkpt lat="43.65441" lon="5.65446">
        <ele>402</ele>
        <time>2017-03-08T12:45:39Z</time>
      </trkpt>
      <trkpt lat="43.65443" lon="5.65456">
        <ele>404</ele>
        <time>2017-03-08T12:45:46Z</time>
      </trkpt>
      <trkpt lat="43.65445" lon="5.65467">
        <ele>403</ele>
        <time>2017-03-08T12:45:54Z</time>
      </trkpt>
      <trkpt lat="43.65445" lon="5.65479">
        <ele>401</ele>
        <time>2017-03-08T12:46:02Z</time>
      </trkpt>
      <trkpt lat="43.65445" lon="5.65491">
        <ele>401</ele>
        <time>2017-03-08T12:46:09Z</time>
      </trkpt>
      <trkpt lat="43.65448" lon="5.65503">
        <ele>399</ele>
        <time>2017-03-08T12:46:17Z</time>
      </trkpt>
      <trkpt lat="43.65455" lon="5.65505">
        <ele>400</ele>
        <time>2017-03-08T12:46:23Z</time>
      </trkpt>
      <trkpt lat="43.65456" lon="5.65517">
        <ele>404</ele>
        <time>2017-03-08T12:46:28Z</time>
      </trkpt>
      <trkpt lat="43.65453" lon="5.65526">
        <ele>406</ele>
        <time>2017-03-08T12:46:35Z</time>
      </trkpt>
      <trkpt lat="43.65449" lon="5.65535">
        <ele>403</ele>
        <time>2017-03-08T12:46:42Z</time>
      </trkpt>
      <trkpt lat="43.65446" lon="5.65546">
        <ele>405</ele>
        <time>2017-03-08T12:46:47Z</time>
      </trkpt>
      <trkpt lat="43.65447" lon="5.65557">
        <ele>407</ele>
        <time>2017-03-08T12:46:55Z</time>
      </trkpt>
      <trkpt lat="43.65452" lon="5.65567">
        <ele>410</ele>
        <time>2017-03-08T12:47:04Z</time>
      </trkpt>
      <trkpt lat="43.65443" lon="5.65578">
        <ele>408</ele>
        <time>2017-03-08T12:47:08Z</time>
      </trkpt>
      <trkpt lat="43.65441" lon="5.65589">
        <ele>407</ele>
        <time>2017-03-08T12:47:15Z</time>
      </trkpt>
      <trkpt lat="43.65438" lon="5.65599">
        <ele>407</ele>
        <time>2017-03-08T12:47:21Z</time>
      </trkpt>
      <trkpt lat="43.65436" lon="5.6561">
        <ele>410</ele>
        <time>2017-03-08T12:47:32Z</time>
      </trkpt>
      <trkpt lat="43.65433" lon="5.65621">
        <ele>410</ele>
        <time>2017-03-08T12:47:38Z</time>
      </trkpt>
      <trkpt lat="43.65435" lon="5.65632">
        <ele>407</ele>
        <time>2017-03-08T12:47:46Z</time>
      </trkpt>
      <trkpt lat="43.65433" lon="5.65644">
        <ele>409</ele>
        <time>2017-03-08T12:47:54Z</time>
      </trkpt>
      <trkpt lat="43.65429" lon="5.65655">
        <ele>406</ele>
        <time>2017-03-08T12:48:05Z</time>
      </trkpt>
      <trkpt lat="43.65429" lon="5.65665">
        <ele>409</ele>
        <time>2017-03-08T12:48:13Z</time>
      </trkpt>
      <trkpt lat="43.65431" lon="5.65676">
        <ele>411</ele>
        <time>2017-03-08T12:48:22Z</time>
      </trkpt>
      <trkpt lat="43.65429" lon="5.65688">
        <ele>411</ele>
        <time>2017-03-08T12:48:29Z</time>
      </trkpt>
      <trkpt lat="43.65428" lon="5.65698">
        <ele>409</ele>
        <time>2017-03-08T12:48:36Z</time>
      </trkpt>
      <trkpt lat="43.65424" lon="5.65709">
        <ele>410</ele>
        <time>2017-03-08T12:48:42Z</time>
      </trkpt>
      <trkpt lat="43.65423" lon="5.6572">
        <ele>414</ele>
        <time>2017-03-08T12:48:48Z</time>
      </trkpt>
      <trkpt lat="43.65419" lon="5.65731">
        <ele>415</ele>
        <time>2017-03-08T12:48:55Z</time>
      </trkpt>
      <trkpt lat="43.65416" lon="5.65742">
        <ele>417</ele>
        <time>2017-03-08T12:49:01Z</time>
      </trkpt>
      <trkpt lat="43.65412" lon="5.65751">
        <ele>416</ele>
        <time>2017-03-08T12:49:07Z</time>
      </trkpt>
      <trkpt lat="43.65408" lon="5.65761">
        <ele>413</ele>
        <time>2017-03-08T12:49:16Z</time>
      </trkpt>
      <trkpt lat="43.65406" lon="5.65773">
        <ele>406</ele>
        <time>2017-03-08T12:49:26Z</time>
      </trkpt>
      <trkpt lat="43.65404" lon="5.65783">
        <ele>405</ele>
        <time>2017-03-08T12:49:35Z</time>
      </trkpt>
      <trkpt lat="43.65402" lon="5.65794">
        <ele>405</ele>
        <time>2017-03-08T12:49:41Z</time>
      </trkpt>
      <trkpt lat="43.65401" lon="5.65806">
        <ele>404</ele>
        <time>2017-03-08T12:49:48Z</time>
      </trkpt>
      <trkpt lat="43.65401" lon="5.65818">
        <ele>404</ele>
        <time>2017-03-08T12:49:57Z</time>
      </trkpt>
      <trkpt lat="43.65399" lon="5.65828">
        <ele>407</ele>
        <time>2017-03-08T12:50:04Z</time>
      </trkpt>
      <trkpt lat="43.65398" lon="5.65839">
        <ele>404</ele>
        <time>2017-03-08T12:50:10Z</time>
      </trkpt>
      <trkpt lat="43.65397" lon="5.65851">
        <ele>403</ele>
        <time>2017-03-08T12:50:19Z</time>
      </trkpt>
      <trkpt lat="43.65396" lon="5.65862">
        <ele>404</ele>
        <time>2017-03-08T12:50:25Z</time>
      </trkpt>
      <trkpt lat="43.65392" lon="5.65873">
        <ele>406</ele>
        <time>2017-03-08T12:50:32Z</time>
      </trkpt>
      <trkpt lat="43.65388" lon="5.65882">
        <ele>406</ele>
        <time>2017-03-08T12:50:38Z</time>
      </trkpt>
      <trkpt lat="43.65384" lon="5.65891">
        <ele>407</ele>
        <time>2017-03-08T12:50:47Z</time>
      </trkpt>
      <trkpt lat="43.65382" lon="5.65902">
        <ele>407</ele>
        <time>2017-03-08T12:50:52Z</time>
      </trkpt>
      <trkpt lat="43.65381" lon="5.65914">
        <ele>403</ele>
        <time>2017-03-08T12:51:00Z</time>
      </trkpt>
      <trkpt lat="43.65377" lon="5.65925">
        <ele>405</ele>
        <time>2017-03-08T12:51:09Z</time>
      </trkpt>
      <trkpt lat="43.65372" lon="5.65935">
        <ele>404</ele>
        <time>2017-03-08T12:51:18Z</time>
      </trkpt>
      <trkpt lat="43.65366" lon="5.65942">
        <ele>402</ele>
        <time>2017-03-08T12:51:24Z</time>
      </trkpt>
      <trkpt lat="43.65362" lon="5.65952">
        <ele>402</ele>
        <time>2017-03-08T12:51:34Z</time>
      </trkpt>
      <trkpt lat="43.65356" lon="5.65959">
        <ele>403</ele>
        <time>2017-03-08T12:51:41Z</time>
      </trkpt>
      <trkpt lat="43.65349" lon="5.65965">
        <ele>405</ele>
        <time>2017-03-08T12:51:47Z</time>
      </trkpt>
      <trkpt lat="43.65342" lon="5.65971">
        <ele>402</ele>
        <time>2017-03-08T12:51:54Z</time>
      </trkpt>
      <trkpt lat="43.65337" lon="5.65979">
        <ele>401</ele>
        <time>2017-03-08T12:52:00Z</time>
      </trkpt>
      <trkpt lat="43.6533" lon="5.65985">
        <ele>405</ele>
        <time>2017-03-08T12:52:09Z</time>
      </trkpt>
      <trkpt lat="43.65324" lon="5.65989">
        <ele>402</ele>
        <time>2017-03-08T12:52:16Z</time>
      </trkpt>
      <trkpt lat="43.65316" lon="5.65993">
        <ele>406</ele>
        <time>2017-03-08T12:52:21Z</time>
      </trkpt>
      <trkpt lat="43.65308" lon="5.65998">
        <ele>406</ele>
        <time>2017-03-08T12:52:30Z</time>
      </trkpt>
      <trkpt lat="43.65303" lon="5.66007">
        <ele>409</ele>
        <time>2017-03-08T12:52:37Z</time>
      </trkpt>
      <trkpt lat="43.65299" lon="5.66016">
        <ele>409</ele>
        <time>2017-03-08T12:52:43Z</time>
      </trkpt>
      <trkpt lat="43.6529" lon="5.6602">
        <ele>410</ele>
        <time>2017-03-08T12:52:51Z</time>
      </trkpt>
      <trkpt lat="43.65282" lon="5.66022">
        <ele>407</ele>
        <time>2017-03-08T12:52:58Z</time>
      </trkpt>
      <trkpt lat="43.65274" lon="5.6602">
        <ele>403</ele>
        <time>2017-03-08T12:53:06Z</time>
      </trkpt>
      <trkpt lat="43.65265" lon="5.66018">
        <ele>402</ele>
        <time>2017-03-08T12:53:13Z</time>
      </trkpt>
      <trkpt lat="43.65258" lon="5.66022">
        <ele>403</ele>
        <time>2017-03-08T12:53:17Z</time>
      </trkpt>
      <trkpt lat="43.65251" lon="5.66025">
        <ele>406</ele>
        <time>2017-03-08T12:53:27Z</time>
      </trkpt>
      <trkpt lat="43.65242" lon="5.66021">
        <ele>407</ele>
        <time>2017-03-08T12:53:35Z</time>
      </trkpt>
      <trkpt lat="43.65235" lon="5.66022">
        <ele>403</ele>
        <time>2017-03-08T12:53:41Z</time>
      </trkpt>
      <trkpt lat="43.65227" lon="5.66026">
        <ele>404</ele>
        <time>2017-03-08T12:53:45Z</time>
      </trkpt>
      <trkpt lat="43.65221" lon="5.66036">
        <ele>403</ele>
        <time>2017-03-08T12:53:59Z</time>
      </trkpt>
      <trkpt lat="43.65211" lon="5.66039">
        <ele>402</ele>
        <time>2017-03-08T12:54:04Z</time>
      </trkpt>
      <trkpt lat="43.65205" lon="5.66048">
        <ele>404</ele>
        <time>2017-03-08T12:54:12Z</time>
      </trkpt>
      <trkpt lat="43.65196" lon="5.66045">
        <ele>402</ele>
        <time>2017-03-08T12:54:18Z</time>
      </trkpt>
      <trkpt lat="43.65188" lon="5.66042">
        <ele>401</ele>
        <time>2017-03-08T12:54:24Z</time>
      </trkpt>
      <trkpt lat="43.6518" lon="5.66043">
        <ele>402</ele>
        <time>2017-03-08T12:54:30Z</time>
      </trkpt>
      <trkpt lat="43.65174" lon="5.66034">
        <ele>399</ele>
        <time>2017-03-08T12:54:37Z</time>
      </trkpt>
      <trkpt lat="43.65167" lon="5.66029">
        <ele>396</ele>
        <time>2017-03-08T12:54:45Z</time>
      </trkpt>
      <trkpt lat="43.65159" lon="5.66027">
        <ele>397</ele>
        <time>2017-03-08T12:54:52Z</time>
      </trkpt>
      <trkpt lat="43.6515" lon="5.66025">
        <ele>396</ele>
        <time>2017-03-08T12:55:00Z</time>
      </trkpt>
      <trkpt lat="43.65142" lon="5.66026">
        <ele>396</ele>
        <time>2017-03-08T12:55:07Z</time>
      </trkpt>
      <trkpt lat="43.65133" lon="5.66024">
        <ele>396</ele>
        <time>2017-03-08T12:55:14Z</time>
      </trkpt>
      <trkpt lat="43.65124" lon="5.66025">
        <ele>396</ele>
        <time>2017-03-08T12:55:22Z</time>
      </trkpt>
      <trkpt lat="43.65116" lon="5.66024">
        <ele>395</ele>
        <time>2017-03-08T12:55:28Z</time>
      </trkpt>
      <trkpt lat="43.65109" lon="5.66024">
        <ele>397</ele>
        <time>2017-03-08T12:55:33Z</time>
      </trkpt>
      <trkpt lat="43.651" lon="5.66026">
        <ele>399</ele>
        <time>2017-03-08T12:55:37Z</time>
      </trkpt>
      <trkpt lat="43.65092" lon="5.66021">
        <ele>399</ele>
        <time>2017-03-08T12:55:45Z</time>
      </trkpt>
      <trkpt lat="43.65084" lon="5.66018">
        <ele>397</ele>
        <time>2017-03-08T12:55:54Z</time>
      </trkpt>
      <trkpt lat="43.65077" lon="5.66012">
        <ele>395</ele>
        <time>2017-03-08T12:56:02Z</time>
      </trkpt>
      <trkpt lat="43.6507" lon="5.66007">
        <ele>396</ele>
        <time>2017-03-08T12:56:09Z</time>
      </trkpt>
      <trkpt lat="43.65064" lon="5.65999">
        <ele>395</ele>
        <time>2017-03-08T12:56:17Z</time>
      </trkpt>
      <trkpt lat="43.65056" lon="5.65996">
        <ele>394</ele>
        <time>2017-03-08T12:56:23Z</time>
      </trkpt>
      <trkpt lat="43.65048" lon="5.6599">
        <ele>394</ele>
        <time>2017-03-08T12:56:32Z</time>
      </trkpt>
      <trkpt lat="43.65041" lon="5.65986">
        <ele>395</ele>
        <time>2017-03-08T12:56:39Z</time>
      </trkpt>
      <trkpt lat="43.65032" lon="5.65983">
        <ele>397</ele>
        <time>2017-03-08T12:56:46Z</time>
      </trkpt>
      <trkpt lat="43.65024" lon="5.65986">
        <ele>400</ele>
        <time>2017-03-08T12:56:52Z</time>
      </trkpt>
      <trkpt lat="43.65016" lon="5.65985">
        <ele>400</ele>
        <time>2017-03-08T12:57:00Z</time>
      </trkpt>
      <trkpt lat="43.65008" lon="5.65985">
        <ele>398</ele>
        <time>2017-03-08T12:57:08Z</time>
      </trkpt>
      <trkpt lat="43.65001" lon="5.6598">
        <ele>395</ele>
        <time>2017-03-08T12:57:16Z</time>
      </trkpt>
      <trkpt lat="43.64992" lon="5.6598">
        <ele>397</ele>
        <time>2017-03-08T12:57:23Z</time>
      </trkpt>
      <trkpt lat="43.64983" lon="5.65982">
        <ele>396</ele>
        <time>2017-03-08T12:57:30Z</time>
      </trkpt>
      <trkpt lat="43.64976" lon="5.65983">
        <ele>396</ele>
        <time>2017-03-08T12:57:35Z</time>
      </trkpt>
      <trkpt lat="43.64968" lon="5.65986">
        <ele>398</ele>
        <time>2017-03-08T12:57:42Z</time>
      </trkpt>
      <trkpt lat="43.6496" lon="5.65988">
        <ele>398</ele>
        <time>2017-03-08T12:57:48Z</time>
      </trkpt>
      <trkpt lat="43.64952" lon="5.65988">
        <ele>400</ele>
        <time>2017-03-08T12:57:55Z</time>
      </trkpt>
      <trkpt lat="43.64944" lon="5.6599">
        <ele>400</ele>
        <time>2017-03-08T12:58:04Z</time>
      </trkpt>
      <trkpt lat="43.64936" lon="5.65993">
        <ele>400</ele>
        <time>2017-03-08T12:58:11Z</time>
      </trkpt>
      <trkpt lat="43.64928" lon="5.65995">
        <ele>399</ele>
        <time>2017-03-08T12:58:19Z</time>
      </trkpt>
      <trkpt lat="43.6492" lon="5.65998">
        <ele>401</ele>
        <time>2017-03-08T12:58:25Z</time>
      </trkpt>
      <trkpt lat="43.64912" lon="5.66003">
        <ele>403</ele>
        <time>2017-03-08T12:58:31Z</time>
      </trkpt>
      <trkpt lat="43.64904" lon="5.66002">
        <ele>402</ele>
        <time>2017-03-08T12:58:39Z</time>
      </trkpt>
      <trkpt lat="43.64895" lon="5.66002">
        <ele>403</ele>
        <time>2017-03-08T12:58:46Z</time>
      </trkpt>
      <trkpt lat="43.64887" lon="5.65998">
        <ele>398</ele>
        <time>2017-03-08T12:58:54Z</time>
      </trkpt>
      <trkpt lat="43.6488" lon="5.66">
        <ele>400</ele>
        <time>2017-03-08T12:59:00Z</time>
      </trkpt>
      <trkpt lat="43.64871" lon="5.66003">
        <ele>400</ele>
        <time>2017-03-08T12:59:06Z</time>
      </trkpt>
      <trkpt lat="43.64862" lon="5.66003">
        <ele>404</ele>
        <time>2017-03-08T12:59:13Z</time>
      </trkpt>
      <trkpt lat="43.64855" lon="5.66">
        <ele>404</ele>
        <time>2017-03-08T12:59:20Z</time>
      </trkpt>
      <trkpt lat="43.64846" lon="5.65999">
        <ele>402</ele>
        <time>2017-03-08T12:59:29Z</time>
      </trkpt>
      <trkpt lat="43.64838" lon="5.65996">
        <ele>403</ele>
        <time>2017-03-08T12:59:36Z</time>
      </trkpt>
      <trkpt lat="43.6483" lon="5.65994">
        <ele>403</ele>
        <time>2017-03-08T12:59:43Z</time>
      </trkpt>
      <trkpt lat="43.64822" lon="5.65992">
        <ele>403</ele>
        <time>2017-03-08T12:59:51Z</time>
      </trkpt>
      <trkpt lat="43.64814" lon="5.65988">
        <ele>399</ele>
        <time>2017-03-08T12:59:59Z</time>
      </trkpt>
      <trkpt lat="43.64806" lon="5.65982">
        <ele>400</ele>
        <time>2017-03-08T13:00:06Z</time>
      </trkpt>
      <trkpt lat="43.64798" lon="5.65979">
        <ele>399</ele>
        <time>2017-03-08T13:00:15Z</time>
      </trkpt>
      <trkpt lat="43.64791" lon="5.65976">
        <ele>402</ele>
        <time>2017-03-08T13:00:20Z</time>
      </trkpt>
      <trkpt lat="43.64783" lon="5.65974">
        <ele>402</ele>
        <time>2017-03-08T13:00:26Z</time>
      </trkpt>
      <trkpt lat="43.64776" lon="5.6597">
        <ele>400</ele>
        <time>2017-03-08T13:00:33Z</time>
      </trkpt>
      <trkpt lat="43.64767" lon="5.65966">
        <ele>402</ele>
        <time>2017-03-08T13:00:40Z</time>
      </trkpt>
      <trkpt lat="43.6476" lon="5.65963">
        <ele>401</ele>
        <time>2017-03-08T13:00:47Z</time>
      </trkpt>
      <trkpt lat="43.64752" lon="5.65961">
        <ele>400</ele>
        <time>2017-03-08T13:00:53Z</time>
      </trkpt>
      <trkpt lat="43.64744" lon="5.65959">
        <ele>399</ele>
        <time>2017-03-08T13:01:00Z</time>
      </trkpt>
      <trkpt lat="43.64738" lon="5.65956">
        <ele>400</ele>
        <time>2017-03-08T13:01:05Z</time>
      </trkpt>
      <trkpt lat="43.6473" lon="5.65951">
        <ele>401</ele>
        <time>2017-03-08T13:01:12Z</time>
      </trkpt>
      <trkpt lat="43.64722" lon="5.65948">
        <ele>399</ele>
        <time>2017-03-08T13:01:20Z</time>
      </trkpt>
      <trkpt lat="43.64714" lon="5.65946">
        <ele>400</ele>
        <time>2017-03-08T13:01:27Z</time>
      </trkpt>
      <trkpt lat="43.64706" lon="5.65945">
        <ele>404</ele>
        <time>2017-03-08T13:01:43Z</time>
      </trkpt>
      <trkpt lat="43.64698" lon="5.65948">
        <ele>403</ele>
        <time>2017-03-08T13:02:01Z</time>
      </trkpt>
      <trkpt lat="43.64689" lon="5.65948">
        <ele>404</ele>
        <time>2017-03-08T13:02:17Z</time>
      </trkpt>
      <trkpt lat="43.64681" lon="5.65944">
        <ele>405</ele>
        <time>2017-03-08T13:03:24Z</time>
      </trkpt>
      <trkpt lat="43.64673" lon="5.65941">
        <ele>404</ele>
        <time>2017-03-08T13:03:32Z</time>
      </trkpt>
      <trkpt lat="43.64666" lon="5.65937">
        <ele>404</ele>
        <time>2017-03-08T13:03:39Z</time>
      </trkpt>
      <trkpt lat="43.64657" lon="5.65936">
        <ele>403</ele>
        <time>2017-03-08T13:03:47Z</time>
      </trkpt>
      <trkpt lat="43.6465" lon="5.6593">
        <ele>397</ele>
        <time>2017-03-08T13:03:56Z</time>
      </trkpt>
      <trkpt lat="43.64641" lon="5.65929">
        <ele>397</ele>
        <time>2017-03-08T13:04:06Z</time>
      </trkpt>
      <trkpt lat="43.64633" lon="5.65931">
        <ele>398</ele>
        <time>2017-03-08T13:04:15Z</time>
      </trkpt>
      <trkpt lat="43.64625" lon="5.65934">
        <ele>400</ele>
        <time>2017-03-08T13:04:25Z</time>
      </trkpt>
      <trkpt lat="43.64617" lon="5.65931">
        <ele>401</ele>
        <time>2017-03-08T13:04:33Z</time>
      </trkpt>
      <trkpt lat="43.64608" lon="5.65932">
        <ele>400</ele>
        <time>2017-03-08T13:04:42Z</time>
      </trkpt>
      <trkpt lat="43.64603" lon="5.65922">
        <ele>402</ele>
        <time>2017-03-08T13:05:29Z</time>
      </trkpt>
      <trkpt lat="43.64598" lon="5.65912">
        <ele>401</ele>
        <time>2017-03-08T13:05:38Z</time>
      </trkpt>
      <trkpt lat="43.64594" lon="5.65902">
        <ele>403</ele>
        <time>2017-03-08T13:05:46Z</time>
      </trkpt>
      <trkpt lat="43.64589" lon="5.65894">
        <ele>406</ele>
        <time>2017-03-08T13:05:50Z</time>
      </trkpt>
      <trkpt lat="43.64581" lon="5.65888">
        <ele>410</ele>
        <time>2017-03-08T13:05:55Z</time>
      </trkpt>
      <trkpt lat="43.64582" lon="5.65877">
        <ele>405</ele>
        <time>2017-03-08T13:06:07Z</time>
      </trkpt>
      <trkpt lat="43.64579" lon="5.65867">
        <ele>402</ele>
        <time>2017-03-08T13:06:14Z</time>
      </trkpt>
      <trkpt lat="43.64578" lon="5.65857">
        <ele>403</ele>
        <time>2017-03-08T13:06:20Z</time>
      </trkpt>
      <trkpt lat="43.64575" lon="5.65846">
        <ele>404</ele>
        <time>2017-03-08T13:06:31Z</time>
      </trkpt>
      <trkpt lat="43.64568" lon="5.65839">
        <ele>408</ele>
        <time>2017-03-08T13:06:38Z</time>
      </trkpt>
      <trkpt lat="43.64569" lon="5.65828">
        <ele>404</ele>
        <time>2017-03-08T13:06:45Z</time>
      </trkpt>
      <trkpt lat="43.64565" lon="5.65817">
        <ele>402</ele>
        <time>2017-03-08T13:06:50Z</time>
      </trkpt>
      <trkpt lat="43.64568" lon="5.65806">
        <ele>401</ele>
        <time>2017-03-08T13:07:01Z</time>
      </trkpt>
      <trkpt lat="43.64565" lon="5.65796">
        <ele>400</ele>
        <time>2017-03-08T13:07:10Z</time>
      </trkpt>
      <trkpt lat="43.64562" lon="5.65783">
        <ele>405</ele>
        <time>2017-03-08T13:07:14Z</time>
      </trkpt>
      <trkpt lat="43.64561" lon="5.65771">
        <ele>404</ele>
        <time>2017-03-08T13:07:20Z</time>
      </trkpt>
      <trkpt lat="43.6456" lon="5.6576">
        <ele>407</ele>
        <time>2017-03-08T13:07:26Z</time>
      </trkpt>
      <trkpt lat="43.64558" lon="5.65748">
        <ele>410</ele>
        <time>2017-03-08T13:07:35Z</time>
      </trkpt>
      <trkpt lat="43.64562" lon="5.65738">
        <ele>407</ele>
        <time>2017-03-08T13:07:42Z</time>
      </trkpt>
      <trkpt lat="43.64561" lon="5.65727">
        <ele>406</ele>
        <time>2017-03-08T13:07:49Z</time>
      </trkpt>
      <trkpt lat="43.64556" lon="5.65719">
        <ele>408</ele>
        <time>2017-03-08T13:07:54Z</time>
      </trkpt>
      <trkpt lat="43.64552" lon="5.65708">
        <ele>407</ele>
        <time>2017-03-08T13:07:59Z</time>
      </trkpt>
      <trkpt lat="43.64555" lon="5.65699">
        <ele>409</ele>
        <time>2017-03-08T13:08:08Z</time>
      </trkpt>
      <trkpt lat="43.64553" lon="5.6569">
        <ele>410</ele>
        <time>2017-03-08T13:08:14Z</time>
      </trkpt>
      <trkpt lat="43.64553" lon="5.65678">
        <ele>406</ele>
        <time>2017-03-08T13:08:25Z</time>
      </trkpt>
      <trkpt lat="43.64552" lon="5.65666">
        <ele>407</ele>
        <time>2017-03-08T13:08:35Z</time>
      </trkpt>
      <trkpt lat="43.6455" lon="5.65655">
        <ele>406</ele>
        <time>2017-03-08T13:08:41Z</time>
      </trkpt>
      <trkpt lat="43.64547" lon="5.65644">
        <ele>405</ele>
        <time>2017-03-08T13:08:48Z</time>
      </trkpt>
      <trkpt lat="43.64547" lon="5.65633">
        <ele>408</ele>
        <time>2017-03-08T13:08:56Z</time>
      </trkpt>
      <trkpt lat="43.64545" lon="5.65622">
        <ele>410</ele>
        <time>2017-03-08T13:09:04Z</time>
      </trkpt>
      <trkpt lat="43.64543" lon="5.6561">
        <ele>410</ele>
        <time>2017-03-08T13:09:12Z</time>
      </trkpt>
      <trkpt lat="43.64542" lon="5.65599">
        <ele>411</ele>
        <time>2017-03-08T13:09:20Z</time>
      </trkpt>
      <trkpt lat="43.64542" lon="5.65592">
        <ele>412</ele>
        <time>2017-03-08T13:09:26Z</time>
      </trkpt>
      <trkpt lat="43.64543" lon="5.6558">
        <ele>413</ele>
        <time>2017-03-08T13:09:32Z</time>
      </trkpt>
      <trkpt lat="43.64542" lon="5.6557">
        <ele>409</ele>
        <time>2017-03-08T13:09:39Z</time>
      </trkpt>
      <trkpt lat="43.64541" lon="5.6556">
        <ele>411</ele>
        <time>2017-03-08T13:09:45Z</time>
      </trkpt>
      <trkpt lat="43.64541" lon="5.65547">
        <ele>411</ele>
        <time>2017-03-08T13:09:54Z</time>
      </trkpt>
      <trkpt lat="43.64542" lon="5.65537">
        <ele>412</ele>
        <time>2017-03-08T13:10:01Z</time>
      </trkpt>
      <trkpt lat="43.64542" lon="5.65526">
        <ele>412</ele>
        <time>2017-03-08T13:10:12Z</time>
      </trkpt>
      <trkpt lat="43.64546" lon="5.65512">
        <ele>416</ele>
        <time>2017-03-08T13:10:16Z</time>
      </trkpt>
      <trkpt lat="43.64539" lon="5.65506">
        <ele>408</ele>
        <time>2017-03-08T13:10:26Z</time>
      </trkpt>
      <trkpt lat="43.64533" lon="5.65496">
        <ele>407</ele>
        <time>2017-03-08T13:10:30Z</time>
      </trkpt>
      <trkpt lat="43.64532" lon="5.65485">
        <ele>408</ele>
        <time>2017-03-08T13:10:37Z</time>
      </trkpt>
      <trkpt lat="43.6453" lon="5.65473">
        <ele>410</ele>
        <time>2017-03-08T13:10:44Z</time>
      </trkpt>
      <trkpt lat="43.64524" lon="5.65462">
        <ele>413</ele>
        <time>2017-03-08T13:10:49Z</time>
      </trkpt>
      <trkpt lat="43.64519" lon="5.65453">
        <ele>414</ele>
        <time>2017-03-08T13:10:56Z</time>
      </trkpt>
      <trkpt lat="43.64516" lon="5.65442">
        <ele>412</ele>
        <time>2017-03-08T13:11:04Z</time>
      </trkpt>
      <trkpt lat="43.64512" lon="5.65431">
        <ele>414</ele>
        <time>2017-03-08T13:11:12Z</time>
      </trkpt>
      <trkpt lat="43.64508" lon="5.65421">
        <ele>413</ele>
        <time>2017-03-08T13:11:19Z</time>
      </trkpt>
      <trkpt lat="43.64506" lon="5.65409">
        <ele>413</ele>
        <time>2017-03-08T13:11:26Z</time>
      </trkpt>
      <trkpt lat="43.645" lon="5.65401">
        <ele>414</ele>
        <time>2017-03-08T13:11:33Z</time>
      </trkpt>
      <trkpt lat="43.64495" lon="5.6539">
        <ele>412</ele>
        <time>2017-03-08T13:11:41Z</time>
      </trkpt>
      <trkpt lat="43.64493" lon="5.6538">
        <ele>414</ele>
        <time>2017-03-08T13:11:47Z</time>
      </trkpt>
      <trkpt lat="43.6449" lon="5.6537">
        <ele>417</ele>
        <time>2017-03-08T13:11:53Z</time>
      </trkpt>
      <trkpt lat="43.64491" lon="5.65359">
        <ele>416</ele>
        <time>2017-03-08T13:12:00Z</time>
      </trkpt>
      <trkpt lat="43.64494" lon="5.65348">
        <ele>415</ele>
        <time>2017-03-08T13:12:08Z</time>
      </trkpt>
      <trkpt lat="43.64492" lon="5.65337">
        <ele>413</ele>
        <time>2017-03-08T13:12:13Z</time>
      </trkpt>
      <trkpt lat="43.6449" lon="5.65325">
        <ele>415</ele>
        <time>2017-03-08T13:12:17Z</time>
      </trkpt>
      <trkpt lat="43.64489" lon="5.65313">
        <ele>412</ele>
        <time>2017-03-08T13:12:31Z</time>
      </trkpt>
      <trkpt lat="43.6449" lon="5.65301">
        <ele>411</ele>
        <time>2017-03-08T13:12:38Z</time>
      </trkpt>
      <trkpt lat="43.64489" lon="5.65291">
        <ele>413</ele>
        <time>2017-03-08T13:12:44Z</time>
      </trkpt>
      <trkpt lat="43.64485" lon="5.65281">
        <ele>417</ele>
        <time>2017-03-08T13:12:48Z</time>
      </trkpt>
      <trkpt lat="43.64487" lon="5.65274">
        <ele>415</ele>
        <time>2017-03-08T13:12:52Z</time>
      </trkpt>
      <trkpt lat="43.64483" lon="5.65263">
        <ele>416</ele>
        <time>2017-03-08T13:12:57Z</time>
      </trkpt>
      <trkpt lat="43.64481" lon="5.65251">
        <ele>416</ele>
        <time>2017-03-08T13:13:07Z</time>
      </trkpt>
      <trkpt lat="43.64482" lon="5.6524">
        <ele>412</ele>
        <time>2017-03-08T13:13:17Z</time>
      </trkpt>
      <trkpt lat="43.64484" lon="5.65229">
        <ele>415</ele>
        <time>2017-03-08T13:13:23Z</time>
      </trkpt>
      <trkpt lat="43.64489" lon="5.65219">
        <ele>416</ele>
        <time>2017-03-08T13:13:30Z</time>
      </trkpt>
      <trkpt lat="43.64485" lon="5.65208">
        <ele>416</ele>
        <time>2017-03-08T13:13:35Z</time>
      </trkpt>
      <trkpt lat="43.6448" lon="5.65198">
        <ele>421</ele>
        <time>2017-03-08T13:13:43Z</time>
      </trkpt>
      <trkpt lat="43.64483" lon="5.65186">
        <ele>423</ele>
        <time>2017-03-08T13:13:52Z</time>
      </trkpt>
      <trkpt lat="43.64482" lon="5.65175">
        <ele>425</ele>
        <time>2017-03-08T13:13:58Z</time>
      </trkpt>
      <trkpt lat="43.64479" lon="5.65163">
        <ele>424</ele>
        <time>2017-03-08T13:14:05Z</time>
      </trkpt>
      <trkpt lat="43.64478" lon="5.65151">
        <ele>419</ele>
        <time>2017-03-08T13:14:14Z</time>
      </trkpt>
      <trkpt lat="43.64473" lon="5.65142">
        <ele>421</ele>
        <time>2017-03-08T13:14:21Z</time>
      </trkpt>
      <trkpt lat="43.64472" lon="5.65132">
        <ele>424</ele>
        <time>2017-03-08T13:14:28Z</time>
      </trkpt>
      <trkpt lat="43.64471" lon="5.65121">
        <ele>426</ele>
        <time>2017-03-08T13:14:36Z</time>
      </trkpt>
      <trkpt lat="43.6447" lon="5.6511">
        <ele>424</ele>
        <time>2017-03-08T13:14:42Z</time>
      </trkpt>
      <trkpt lat="43.64468" lon="5.65099">
        <ele>425</ele>
        <time>2017-03-08T13:14:49Z</time>
      </trkpt>
      <trkpt lat="43.64469" lon="5.65088">
        <ele>427</ele>
        <time>2017-03-08T13:14:56Z</time>
      </trkpt>
      <trkpt lat="43.64467" lon="5.65077">
        <ele>425</ele>
        <time>2017-03-08T13:15:03Z</time>
      </trkpt>
      <trkpt lat="43.64467" lon="5.65065">
        <ele>424</ele>
        <time>2017-03-08T13:15:09Z</time>
      </trkpt>
      <trkpt lat="43.64467" lon="5.65053">
        <ele>425</ele>
        <time>2017-03-08T13:15:15Z</time>
      </trkpt>
      <trkpt lat="43.64466" lon="5.65042">
        <ele>424</ele>
        <time>2017-03-08T13:15:24Z</time>
      </trkpt>
      <trkpt lat="43.64466" lon="5.65031">
        <ele>424</ele>
        <time>2017-03-08T13:15:34Z</time>
      </trkpt>
      <trkpt lat="43.64462" lon="5.65021">
        <ele>425</ele>
        <time>2017-03-08T13:15:38Z</time>
      </trkpt>
      <trkpt lat="43.64458" lon="5.65011">
        <ele>429</ele>
        <time>2017-03-08T13:15:44Z</time>
      </trkpt>
      <trkpt lat="43.64455" lon="5.65001">
        <ele>427</ele>
        <time>2017-03-08T13:15:51Z</time>
      </trkpt>
      <trkpt lat="43.64451" lon="5.6499">
        <ele>428</ele>
        <time>2017-03-08T13:15:58Z</time>
      </trkpt>
      <trkpt lat="43.6445" lon="5.64978">
        <ele>427</ele>
        <time>2017-03-08T13:16:06Z</time>
      </trkpt>
      <trkpt lat="43.64448" lon="5.64967">
        <ele>425</ele>
        <time>2017-03-08T13:16:13Z</time>
      </trkpt>
      <trkpt lat="43.64446" lon="5.64957">
        <ele>424</ele>
        <time>2017-03-08T13:16:23Z</time>
      </trkpt>
      <trkpt lat="43.64444" lon="5.64947">
        <ele>424</ele>
        <time>2017-03-08T13:16:29Z</time>
      </trkpt>
      <trkpt lat="43.64439" lon="5.64938">
        <ele>425</ele>
        <time>2017-03-08T13:16:35Z</time>
      </trkpt>
      <trkpt lat="43.6443" lon="5.64935">
        <ele>423</ele>
        <time>2017-03-08T13:17:47Z</time>
      </trkpt>
      <trkpt lat="43.64422" lon="5.64929">
        <ele>423</ele>
        <time>2017-03-08T13:17:56Z</time>
      </trkpt>
      <trkpt lat="43.64414" lon="5.64931">
        <ele>422</ele>
        <time>2017-03-08T13:18:05Z</time>
      </trkpt>
      <trkpt lat="43.64407" lon="5.64931">
        <ele>422</ele>
        <time>2017-03-08T13:18:13Z</time>
      </trkpt>
      <trkpt lat="43.64398" lon="5.64934">
        <ele>422</ele>
        <time>2017-03-08T13:18:19Z</time>
      </trkpt>
      <trkpt lat="43.6439" lon="5.64933">
        <ele>419</ele>
        <time>2017-03-08T13:18:27Z</time>
      </trkpt>
      <trkpt lat="43.64383" lon="5.6493">
        <ele>418</ele>
        <time>2017-03-08T13:18:33Z</time>
      </trkpt>
      <trkpt lat="43.64375" lon="5.64925">
        <ele>420</ele>
        <time>2017-03-08T13:18:39Z</time>
      </trkpt>
      <trkpt lat="43.64368" lon="5.64921">
        <ele>421</ele>
        <time>2017-03-08T13:18:45Z</time>
      </trkpt>
      <trkpt lat="43.6436" lon="5.64916">
        <ele>423</ele>
        <time>2017-03-08T13:19:01Z</time>
      </trkpt>
      <trkpt lat="43.64352" lon="5.64912">
        <ele>422</ele>
        <time>2017-03-08T13:19:09Z</time>
      </trkpt>
      <trkpt lat="43.64344" lon="5.64908">
        <ele>424</ele>
        <time>2017-03-08T13:19:15Z</time>
      </trkpt>
      <trkpt lat="43.64336" lon="5.64905">
        <ele>423</ele>
        <time>2017-03-08T13:19:21Z</time>
      </trkpt>
      <trkpt lat="43.64333" lon="5.64894">
        <ele>422</ele>
        <time>2017-03-08T13:19:28Z</time>
      </trkpt>
      <trkpt lat="43.64326" lon="5.64886">
        <ele>418</ele>
        <time>2017-03-08T13:19:37Z</time>
      </trkpt>
      <trkpt lat="43.64321" lon="5.64879">
        <ele>419</ele>
        <time>2017-03-08T13:19:43Z</time>
      </trkpt>
      <trkpt lat="43.64314" lon="5.6487">
        <ele>423</ele>
        <time>2017-03-08T13:19:50Z</time>
      </trkpt>
      <trkpt lat="43.64308" lon="5.64863">
        <ele>425</ele>
        <time>2017-03-08T13:19:57Z</time>
      </trkpt>
      <trkpt lat="43.643" lon="5.64858">
        <ele>425</ele>
        <time>2017-03-08T13:20:04Z</time>
      </trkpt>
      <trkpt lat="43.64294" lon="5.64851">
        <ele>425</ele>
        <time>2017-03-08T13:20:12Z</time>
      </trkpt>
      <trkpt lat="43.64287" lon="5.64845">
        <ele>426</ele>
        <time>2017-03-08T13:20:20Z</time>
      </trkpt>
      <trkpt lat="43.64279" lon="5.64841">
        <ele>424</ele>
        <time>2017-03-08T13:20:27Z</time>
      </trkpt>
      <trkpt lat="43.64272" lon="5.64835">
        <ele>425</ele>
        <time>2017-03-08T13:20:37Z</time>
      </trkpt>
      <trkpt lat="43.64263" lon="5.64831">
        <ele>426</ele>
        <time>2017-03-08T13:20:45Z</time>
      </trkpt>
      <trkpt lat="43.64258" lon="5.64824">
        <ele>425</ele>
        <time>2017-03-08T13:20:52Z</time>
      </trkpt>
      <trkpt lat="43.64251" lon="5.64816">
        <ele>424</ele>
        <time>2017-03-08T13:21:00Z</time>
      </trkpt>
      <trkpt lat="43.64244" lon="5.6481">
        <ele>422</ele>
        <time>2017-03-08T13:21:07Z</time>
      </trkpt>
      <trkpt lat="43.64237" lon="5.64803">
        <ele>424</ele>
        <time>2017-03-08T13:21:14Z</time>
      </trkpt>
      <trkpt lat="43.64232" lon="5.64792">
        <ele>425</ele>
        <time>2017-03-08T13:21:22Z</time>
      </trkpt>
      <trkpt lat="43.64227" lon="5.64783">
        <ele>427</ele>
        <time>2017-03-08T13:21:31Z</time>
      </trkpt>
      <trkpt lat="43.64222" lon="5.64776">
        <ele>428</ele>
        <time>2017-03-08T13:21:37Z</time>
      </trkpt>
      <trkpt lat="43.64218" lon="5.64766">
        <ele>427</ele>
        <time>2017-03-08T13:21:46Z</time>
      </trkpt>
      <trkpt lat="43.64212" lon="5.64759">
        <ele>425</ele>
        <time>2017-03-08T13:21:54Z</time>
      </trkpt>
      <trkpt lat="43.64206" lon="5.64751">
        <ele>425</ele>
        <time>2017-03-08T13:22:03Z</time>
      </trkpt>
      <trkpt lat="43.64198" lon="5.64745">
        <ele>426</ele>
        <time>2017-03-08T13:22:11Z</time>
      </trkpt>
      <trkpt lat="43.64191" lon="5.64741">
        <ele>427</ele>
        <time>2017-03-08T13:22:18Z</time>
      </trkpt>
      <trkpt lat="43.64182" lon="5.64737">
        <ele>427</ele>
        <time>2017-03-08T13:22:26Z</time>
      </trkpt>
      <trkpt lat="43.64176" lon="5.6473">
        <ele>425</ele>
        <time>2017-03-08T13:22:34Z</time>
      </trkpt>
      <trkpt lat="43.64168" lon="5.64728">
        <ele>427</ele>
        <time>2017-03-08T13:22:40Z</time>
      </trkpt>
      <trkpt lat="43.64159" lon="5.64725">
        <ele>430</ele>
        <time>2017-03-08T13:22:49Z</time>
      </trkpt>
      <trkpt lat="43.64153" lon="5.64719">
        <ele>430</ele>
        <time>2017-03-08T13:22:57Z</time>
      </trkpt>
      <trkpt lat="43.64146" lon="5.64714">
        <ele>430</ele>
        <time>2017-03-08T13:23:05Z</time>
      </trkpt>
      <trkpt lat="43.64138" lon="5.64708">
        <ele>429</ele>
        <time>2017-03-08T13:23:13Z</time>
      </trkpt>
      <trkpt lat="43.64131" lon="5.647">
        <ele>427</ele>
        <time>2017-03-08T13:23:20Z</time>
      </trkpt>
      <trkpt lat="43.64125" lon="5.64692">
        <ele>428</ele>
        <time>2017-03-08T13:23:27Z</time>
      </trkpt>
      <trkpt lat="43.64117" lon="5.64688">
        <ele>427</ele>
        <time>2017-03-08T13:23:34Z</time>
      </trkpt>
      <trkpt lat="43.64109" lon="5.64682">
        <ele>428</ele>
        <time>2017-03-08T13:23:42Z</time>
      </trkpt>
      <trkpt lat="43.64101" lon="5.64678">
        <ele>427</ele>
        <time>2017-03-08T13:23:49Z</time>
      </trkpt>
      <trkpt lat="43.64094" lon="5.64673">
        <ele>427</ele>
        <time>2017-03-08T13:23:55Z</time>
      </trkpt>
      <trkpt lat="43.64086" lon="5.64668">
        <ele>428</ele>
        <time>2017-03-08T13:24:05Z</time>
      </trkpt>
      <trkpt lat="43.64079" lon="5.64662">
        <ele>428</ele>
        <time>2017-03-08T13:24:12Z</time>
      </trkpt>
      <trkpt lat="43.64071" lon="5.64658">
        <ele>426</ele>
        <time>2017-03-08T13:24:22Z</time>
      </trkpt>
      <trkpt lat="43.64065" lon="5.64652">
        <ele>423</ele>
        <time>2017-03-08T13:24:29Z</time>
      </trkpt>
      <trkpt lat="43.64058" lon="5.64644">
        <ele>421</ele>
        <time>2017-03-08T13:24:37Z</time>
      </trkpt>
      <trkpt lat="43.64051" lon="5.64637">
        <ele>418</ele>
        <time>2017-03-08T13:24:45Z</time>
      </trkpt>
      <trkpt lat="43.64046" lon="5.64628">
        <ele>416</ele>
        <time>2017-03-08T13:24:53Z</time>
      </trkpt>
      <trkpt lat="43.64042" lon="5.64618">
        <ele>415</ele>
        <time>2017-03-08T13:25:02Z</time>
      </trkpt>
      <trkpt lat="43.64039" lon="5.64608">
        <ele>413</ele>
        <time>2017-03-08T13:25:10Z</time>
      </trkpt>
      <trkpt lat="43.64037" lon="5.64596">
        <ele>411</ele>
        <time>2017-03-08T13:25:19Z</time>
      </trkpt>
      <trkpt lat="43.64033" lon="5.64585">
        <ele>414</ele>
        <time>2017-03-08T13:25:26Z</time>
      </trkpt>
      <trkpt lat="43.64029" lon="5.64575">
        <ele>412</ele>
        <time>2017-03-08T13:25:31Z</time>
      </trkpt>
      <trkpt lat="43.64027" lon="5.64564">
        <ele>410</ele>
        <time>2017-03-08T13:25:39Z</time>
      </trkpt>
      <trkpt lat="43.64024" lon="5.64553">
        <ele>407</ele>
        <time>2017-03-08T13:25:48Z</time>
      </trkpt>
      <trkpt lat="43.6402" lon="5.64543">
        <ele>407</ele>
        <time>2017-03-08T13:25:56Z</time>
      </trkpt>
      <trkpt lat="43.64019" lon="5.64531">
        <ele>405</ele>
        <time>2017-03-08T13:26:04Z</time>
      </trkpt>
      <trkpt lat="43.64017" lon="5.6452">
        <ele>406</ele>
        <time>2017-03-08T13:26:11Z</time>
      </trkpt>
      <trkpt lat="43.64017" lon="5.6451">
        <ele>405</ele>
        <time>2017-03-08T13:26:17Z</time>
      </trkpt>
      <trkpt lat="43.64015" lon="5.64499">
        <ele>404</ele>
        <time>2017-03-08T13:26:23Z</time>
      </trkpt>
      <trkpt lat="43.64013" lon="5.64487">
        <ele>404</ele>
        <time>2017-03-08T13:26:32Z</time>
      </trkpt>
      <trkpt lat="43.64011" lon="5.64475">
        <ele>403</ele>
        <time>2017-03-08T13:26:39Z</time>
      </trkpt>
      <trkpt lat="43.64008" lon="5.64465">
        <ele>407</ele>
        <time>2017-03-08T13:26:45Z</time>
      </trkpt>
      <trkpt lat="43.64007" lon="5.64453">
        <ele>408</ele>
        <time>2017-03-08T13:26:53Z</time>
      </trkpt>
      <trkpt lat="43.64006" lon="5.64442">
        <ele>408</ele>
        <time>2017-03-08T13:27:00Z</time>
      </trkpt>
      <trkpt lat="43.64005" lon="5.64431">
        <ele>408</ele>
        <time>2017-03-08T13:27:06Z</time>
      </trkpt>
      <trkpt lat="43.64007" lon="5.6442">
        <ele>405</ele>
        <time>2017-03-08T13:27:13Z</time>
      </trkpt>
      <trkpt lat="43.64006" lon="5.6441">
        <ele>405</ele>
        <time>2017-03-08T13:27:19Z</time>
      </trkpt>
      <trkpt lat="43.64004" lon="5.64399">
        <ele>406</ele>
        <time>2017-03-08T13:27:27Z</time>
      </trkpt>
      <trkpt lat="43.64009" lon="5.6439">
        <ele>404</ele>
        <time>2017-03-08T13:27:34Z</time>
      </trkpt>
      <trkpt lat="43.6401" lon="5.64378">
        <ele>402</ele>
        <time>2017-03-08T13:27:40Z</time>
      </trkpt>
      <trkpt lat="43.64009" lon="5.64367">
        <ele>400</ele>
        <time>2017-03-08T13:27:49Z</time>
      </trkpt>
      <trkpt lat="43.64006" lon="5.64356">
        <ele>402</ele>
        <time>2017-03-08T13:28:55Z</time>
      </trkpt>
      <trkpt lat="43.63997" lon="5.64357">
        <ele>396</ele>
        <time>2017-03-08T13:29:26Z</time>
      </trkpt>
      <trkpt lat="43.63991" lon="5.64349">
        <ele>392</ele>
        <time>2017-03-08T13:29:47Z</time>
      </trkpt>
      <trkpt lat="43.63983" lon="5.64343">
        <ele>392</ele>
        <time>2017-03-08T13:29:56Z</time>
      </trkpt>
      <trkpt lat="43.63975" lon="5.64339">
        <ele>392</ele>
        <time>2017-03-08T13:30:07Z</time>
      </trkpt>
      <trkpt lat="43.63967" lon="5.64334">
        <ele>392</ele>
        <time>2017-03-08T13:30:17Z</time>
      </trkpt>
      <trkpt lat="43.63959" lon="5.64331">
        <ele>390</ele>
        <time>2017-03-08T13:30:35Z</time>
      </trkpt>
      <trkpt lat="43.63953" lon="5.64323">
        <ele>385</ele>
        <time>2017-03-08T13:30:50Z</time>
      </trkpt>
      <trkpt lat="43.63946" lon="5.64318">
        <ele>383</ele>
        <time>2017-03-08T13:30:59Z</time>
      </trkpt>
      <trkpt lat="43.63939" lon="5.64312">
        <ele>385</ele>
        <time>2017-03-08T13:31:12Z</time>
      </trkpt>
      <trkpt lat="43.63931" lon="5.64306">
        <ele>382</ele>
        <time>2017-03-08T13:31:45Z</time>
      </trkpt>
      <trkpt lat="43.63928" lon="5.64316">
        <ele>379</ele>
        <time>2017-03-08T13:32:24Z</time>
      </trkpt>
      <trkpt lat="43.63926" lon="5.64328">
        <ele>377</ele>
        <time>2017-03-08T13:32:40Z</time>
      </trkpt>
      <trkpt lat="43.63917" lon="5.64324">
        <ele>373</ele>
        <time>2017-03-08T13:33:00Z</time>
      </trkpt>
      <trkpt lat="43.63911" lon="5.64315">
        <ele>373</ele>
        <time>2017-03-08T13:33:14Z</time>
      </trkpt>
      <trkpt lat="43.63908" lon="5.64303">
        <ele>366</ele>
        <time>2017-03-08T13:33:46Z</time>
      </trkpt>
      <trkpt lat="43.63901" lon="5.64297">
        <ele>368</ele>
        <time>2017-03-08T13:33:54Z</time>
      </trkpt>
      <trkpt lat="43.63898" lon="5.64286">
        <ele>366</ele>
        <time>2017-03-08T13:34:11Z</time>
      </trkpt>
      <trkpt lat="43.63898" lon="5.64274">
        <ele>365</ele>
        <time>2017-03-08T13:34:25Z</time>
      </trkpt>
      <trkpt lat="43.63894" lon="5.64264">
        <ele>360</ele>
        <time>2017-03-08T13:34:31Z</time>
      </trkpt>
      <trkpt lat="43.63893" lon="5.64253">
        <ele>365</ele>
        <time>2017-03-08T13:34:43Z</time>
      </trkpt>
      <trkpt lat="43.63897" lon="5.64242">
        <ele>360</ele>
        <time>2017-03-08T13:34:54Z</time>
      </trkpt>
      <trkpt lat="43.63897" lon="5.6423">
        <ele>360</ele>
        <time>2017-03-08T13:35:03Z</time>
      </trkpt>
      <trkpt lat="43.63896" lon="5.6422">
        <ele>358</ele>
        <time>2017-03-08T13:35:43Z</time>
      </trkpt>
      <trkpt lat="43.63888" lon="5.64217">
        <ele>361</ele>
        <time>2017-03-08T13:36:10Z</time>
      </trkpt>
      <trkpt lat="43.6388" lon="5.64219">
        <ele>365</ele>
        <time>2017-03-08T13:36:20Z</time>
      </trkpt>
      <trkpt lat="43.63871" lon="5.64218">
        <ele>364</ele>
        <time>2017-03-08T13:36:37Z</time>
      </trkpt>
      <trkpt lat="43.63867" lon="5.64212">
        <ele>368</ele>
        <time>2017-03-08T13:36:46Z</time>
      </trkpt>
      <trkpt lat="43.63867" lon="5.642">
        <ele>363</ele>
        <time>2017-03-08T13:37:03Z</time>
      </trkpt>
      <trkpt lat="43.63863" lon="5.64188">
        <ele>361</ele>
        <time>2017-03-08T13:37:19Z</time>
      </trkpt>
      <trkpt lat="43.63862" lon="5.64179">
        <ele>359</ele>
        <time>2017-03-08T13:37:26Z</time>
      </trkpt>
      <trkpt lat="43.63868" lon="5.64173">
        <ele>356</ele>
        <time>2017-03-08T13:37:33Z</time>
      </trkpt>
      <trkpt lat="43.63868" lon="5.64163">
        <ele>356</ele>
        <time>2017-03-08T13:37:40Z</time>
      </trkpt>
      <trkpt lat="43.6387" lon="5.64151">
        <ele>357</ele>
        <time>2017-03-08T13:37:46Z</time>
      </trkpt>
      <trkpt lat="43.63873" lon="5.64141">
        <ele>355</ele>
        <time>2017-03-08T13:37:58Z</time>
      </trkpt>
      <trkpt lat="43.63864" lon="5.64126">
        <ele>354</ele>
        <time>2017-03-08T13:38:02Z</time>
      </trkpt>
      <trkpt lat="43.63871" lon="5.64118">
        <ele>356</ele>
        <time>2017-03-08T13:38:15Z</time>
      </trkpt>
      <trkpt lat="43.63877" lon="5.64111">
        <ele>352</ele>
        <time>2017-03-08T13:38:25Z</time>
      </trkpt>
      <trkpt lat="43.6388" lon="5.64101">
        <ele>352</ele>
        <time>2017-03-08T13:38:40Z</time>
      </trkpt>
      <trkpt lat="43.63883" lon="5.64091">
        <ele>350</ele>
        <time>2017-03-08T13:38:47Z</time>
      </trkpt>
      <trkpt lat="43.63884" lon="5.64081">
        <ele>352</ele>
        <time>2017-03-08T13:38:53Z</time>
      </trkpt>
      <trkpt lat="43.63886" lon="5.6407">
        <ele>353</ele>
        <time>2017-03-08T13:39:01Z</time>
      </trkpt>
      <trkpt lat="43.63887" lon="5.6406">
        <ele>352</ele>
        <time>2017-03-08T13:39:08Z</time>
      </trkpt>
      <trkpt lat="43.63884" lon="5.6405">
        <ele>351</ele>
        <time>2017-03-08T13:39:13Z</time>
      </trkpt>
      <trkpt lat="43.63879" lon="5.64041">
        <ele>349</ele>
        <time>2017-03-08T13:39:23Z</time>
      </trkpt>
      <trkpt lat="43.63873" lon="5.64032">
        <ele>344</ele>
        <time>2017-03-08T13:39:31Z</time>
      </trkpt>
      <trkpt lat="43.63871" lon="5.64022">
        <ele>344</ele>
        <time>2017-03-08T13:39:36Z</time>
      </trkpt>
      <trkpt lat="43.63872" lon="5.64011">
        <ele>342</ele>
        <time>2017-03-08T13:39:48Z</time>
      </trkpt>
      <trkpt lat="43.63871" lon="5.64">
        <ele>341</ele>
        <time>2017-03-08T13:39:56Z</time>
      </trkpt>
      <trkpt lat="43.63869" lon="5.6399">
        <ele>342</ele>
        <time>2017-03-08T13:40:01Z</time>
      </trkpt>
      <trkpt lat="43.63865" lon="5.63982">
        <ele>340</ele>
        <time>2017-03-08T13:40:06Z</time>
      </trkpt>
      <trkpt lat="43.6386" lon="5.63971">
        <ele>341</ele>
        <time>2017-03-08T13:40:10Z</time>
      </trkpt>
      <trkpt lat="43.63857" lon="5.63963">
        <ele>338</ele>
        <time>2017-03-08T13:40:15Z</time>
      </trkpt>
      <trkpt lat="43.63863" lon="5.63954">
        <ele>340</ele>
        <time>2017-03-08T13:40:26Z</time>
      </trkpt>
      <trkpt lat="43.63864" lon="5.63945">
        <ele>341</ele>
        <time>2017-03-08T13:40:33Z</time>
      </trkpt>
      <trkpt lat="43.63871" lon="5.63948">
        <ele>340</ele>
        <time>2017-03-08T13:40:41Z</time>
      </trkpt>
      <trkpt lat="43.63873" lon="5.6393">
        <ele>344</ele>
        <time>2017-03-08T13:40:46Z</time>
      </trkpt>
      <trkpt lat="43.63872" lon="5.6392">
        <ele>343</ele>
        <time>2017-03-08T13:40:53Z</time>
      </trkpt>
      <trkpt lat="43.6387" lon="5.63909">
        <ele>343</ele>
        <time>2017-03-08T13:41:00Z</time>
      </trkpt>
      <trkpt lat="43.63866" lon="5.63899">
        <ele>344</ele>
        <time>2017-03-08T13:41:06Z</time>
      </trkpt>
      <trkpt lat="43.63866" lon="5.63887">
        <ele>345</ele>
        <time>2017-03-08T13:41:16Z</time>
      </trkpt>
      <trkpt lat="43.63864" lon="5.63877">
        <ele>344</ele>
        <time>2017-03-08T13:41:25Z</time>
      </trkpt>
      <trkpt lat="43.6386" lon="5.6387">
        <ele>341</ele>
        <time>2017-03-08T13:41:29Z</time>
      </trkpt>
      <trkpt lat="43.63855" lon="5.63861">
        <ele>342</ele>
        <time>2017-03-08T13:41:33Z</time>
      </trkpt>
      <trkpt lat="43.63847" lon="5.63855">
        <ele>342</ele>
        <time>2017-03-08T13:41:40Z</time>
      </trkpt>
      <trkpt lat="43.6384" lon="5.6386">
        <ele>338</ele>
        <time>2017-03-08T13:41:54Z</time>
      </trkpt>
      <trkpt lat="43.63831" lon="5.63859">
        <ele>336</ele>
        <time>2017-03-08T13:42:00Z</time>
      </trkpt>
      <trkpt lat="43.63823" lon="5.63855">
        <ele>334</ele>
        <time>2017-03-08T13:42:08Z</time>
      </trkpt>
      <trkpt lat="43.63817" lon="5.63847">
        <ele>333</ele>
        <time>2017-03-08T13:42:12Z</time>
      </trkpt>
      <trkpt lat="43.63811" lon="5.63841">
        <ele>336</ele>
        <time>2017-03-08T13:42:19Z</time>
      </trkpt>
      <trkpt lat="43.63804" lon="5.63837">
        <ele>337</ele>
        <time>2017-03-08T13:42:24Z</time>
      </trkpt>
      <trkpt lat="43.63797" lon="5.63833">
        <ele>343</ele>
        <time>2017-03-08T13:42:32Z</time>
      </trkpt>
      <trkpt lat="43.63791" lon="5.63828">
        <ele>341</ele>
        <time>2017-03-08T13:42:42Z</time>
      </trkpt>
      <trkpt lat="43.63785" lon="5.63823">
        <ele>341</ele>
        <time>2017-03-08T13:42:51Z</time>
      </trkpt>
      <trkpt lat="43.6378" lon="5.63833">
        <ele>342</ele>
        <time>2017-03-08T13:43:08Z</time>
      </trkpt>
      <trkpt lat="43.63785" lon="5.63843">
        <ele>335</ele>
        <time>2017-03-08T13:43:42Z</time>
      </trkpt>
      <trkpt lat="43.63792" lon="5.63845">
        <ele>335</ele>
        <time>2017-03-08T13:43:48Z</time>
      </trkpt>
      <trkpt lat="43.638" lon="5.63846">
        <ele>336</ele>
        <time>2017-03-08T13:43:52Z</time>
      </trkpt>
      <trkpt lat="43.63804" lon="5.63857">
        <ele>343</ele>
        <time>2017-03-08T13:44:07Z</time>
      </trkpt>
      <trkpt lat="43.63806" lon="5.63868">
        <ele>346</ele>
        <time>2017-03-08T13:44:33Z</time>
      </trkpt>
      <trkpt lat="43.63811" lon="5.63878">
        <ele>347</ele>
        <time>2017-03-08T13:44:42Z</time>
      </trkpt>
      <trkpt lat="43.63817" lon="5.63887">
        <ele>348</ele>
        <time>2017-03-08T13:44:53Z</time>
      </trkpt>
      <trkpt lat="43.6382" lon="5.63897">
        <ele>351</ele>
        <time>2017-03-08T13:45:08Z</time>
      </trkpt>
      <trkpt lat="43.63823" lon="5.63908">
        <ele>353</ele>
        <time>2017-03-08T13:45:27Z</time>
      </trkpt>
      <trkpt lat="43.63828" lon="5.63918">
        <ele>352</ele>
        <time>2017-03-08T13:45:46Z</time>
      </trkpt>
      <trkpt lat="43.63827" lon="5.63929">
        <ele>357</ele>
        <time>2017-03-08T13:46:15Z</time>
      </trkpt>
      <trkpt lat="43.63825" lon="5.63941">
        <ele>358</ele>
        <time>2017-03-08T13:46:31Z</time>
      </trkpt>
      <trkpt lat="43.63824" lon="5.63951">
        <ele>359</ele>
        <time>2017-03-08T13:46:51Z</time>
      </trkpt>
      <trkpt lat="43.63824" lon="5.63961">
        <ele>364</ele>
        <time>2017-03-08T13:46:57Z</time>
      </trkpt>
      <trkpt lat="43.63825" lon="5.63973">
        <ele>362</ele>
        <time>2017-03-08T13:47:10Z</time>
      </trkpt>
      <trkpt lat="43.63829" lon="5.63983">
        <ele>362</ele>
        <time>2017-03-08T13:47:20Z</time>
      </trkpt>
      <trkpt lat="43.63826" lon="5.63995">
        <ele>362</ele>
        <time>2017-03-08T13:47:33Z</time>
      </trkpt>
      <trkpt lat="43.63828" lon="5.64006">
        <ele>368</ele>
        <time>2017-03-08T13:47:41Z</time>
      </trkpt>
      <trkpt lat="43.63832" lon="5.64017">
        <ele>370</ele>
        <time>2017-03-08T13:47:49Z</time>
      </trkpt>
      <trkpt lat="43.63834" lon="5.64029">
        <ele>373</ele>
        <time>2017-03-08T13:47:58Z</time>
      </trkpt>
      <trkpt lat="43.63829" lon="5.64035">
        <ele>375</ele>
        <time>2017-03-08T13:48:05Z</time>
      </trkpt>
      <trkpt lat="43.6382" lon="5.64041">
        <ele>375</ele>
        <time>2017-03-08T13:48:10Z</time>
      </trkpt>
      <trkpt lat="43.63821" lon="5.64053">
        <ele>370</ele>
        <time>2017-03-08T13:48:32Z</time>
      </trkpt>
      <trkpt lat="43.6382" lon="5.64064">
        <ele>368</ele>
        <time>2017-03-08T13:48:44Z</time>
      </trkpt>
      <trkpt lat="43.63825" lon="5.64074">
        <ele>365</ele>
        <time>2017-03-08T13:49:01Z</time>
      </trkpt>
      <trkpt lat="43.63832" lon="5.64078">
        <ele>369</ele>
        <time>2017-03-08T13:49:49Z</time>
      </trkpt>
      <trkpt lat="43.63832" lon="5.64068">
        <ele>370</ele>
        <time>2017-03-08T13:51:27Z</time>
      </trkpt>
      <trkpt lat="43.63823" lon="5.6407">
        <ele>367</ele>
        <time>2017-03-08T13:58:28Z</time>
      </trkpt>
      <trkpt lat="43.63819" lon="5.6406">
        <ele>367</ele>
        <time>2017-03-08T13:58:40Z</time>
      </trkpt>
      <trkpt lat="43.63817" lon="5.64049">
        <ele>364</ele>
        <time>2017-03-08T13:58:52Z</time>
      </trkpt>
      <trkpt lat="43.6382" lon="5.64037">
        <ele>364</ele>
        <time>2017-03-08T13:59:04Z</time>
      </trkpt>
      <trkpt lat="43.63825" lon="5.64027">
        <ele>362</ele>
        <time>2017-03-08T13:59:19Z</time>
      </trkpt>
      <trkpt lat="43.63826" lon="5.64016">
        <ele>363</ele>
        <time>2017-03-08T13:59:29Z</time>
      </trkpt>
      <trkpt lat="43.63826" lon="5.64004">
        <ele>363</ele>
        <time>2017-03-08T13:59:40Z</time>
      </trkpt>
      <trkpt lat="43.63825" lon="5.63993">
        <ele>360</ele>
        <time>2017-03-08T13:59:55Z</time>
      </trkpt>
      <trkpt lat="43.63825" lon="5.63981">
        <ele>360</ele>
        <time>2017-03-08T14:00:05Z</time>
      </trkpt>
      <trkpt lat="43.63824" lon="5.6397">
        <ele>358</ele>
        <time>2017-03-08T14:00:17Z</time>
      </trkpt>
      <trkpt lat="43.63824" lon="5.63959">
        <ele>360</ele>
        <time>2017-03-08T14:00:27Z</time>
      </trkpt>
      <trkpt lat="43.63824" lon="5.63946">
        <ele>354</ele>
        <time>2017-03-08T14:00:39Z</time>
      </trkpt>
      <trkpt lat="43.63824" lon="5.63935">
        <ele>354</ele>
        <time>2017-03-08T14:00:50Z</time>
      </trkpt>
      <trkpt lat="43.63825" lon="5.63923">
        <ele>353</ele>
        <time>2017-03-08T14:01:03Z</time>
      </trkpt>
      <trkpt lat="43.63822" lon="5.63912">
        <ele>350</ele>
        <time>2017-03-08T14:01:22Z</time>
      </trkpt>
      <trkpt lat="43.63818" lon="5.63901">
        <ele>349</ele>
        <time>2017-03-08T14:01:33Z</time>
      </trkpt>
      <trkpt lat="43.63814" lon="5.6389">
        <ele>346</ele>
        <time>2017-03-08T14:01:48Z</time>
      </trkpt>
      <trkpt lat="43.6381" lon="5.63881">
        <ele>345</ele>
        <time>2017-03-08T14:01:59Z</time>
      </trkpt>
      <trkpt lat="43.63807" lon="5.6387">
        <ele>344</ele>
        <time>2017-03-08T14:02:09Z</time>
      </trkpt>
      <trkpt lat="43.63804" lon="5.63859">
        <ele>343</ele>
        <time>2017-03-08T14:02:20Z</time>
      </trkpt>
      <trkpt lat="43.63799" lon="5.63848">
        <ele>343</ele>
        <time>2017-03-08T14:02:30Z</time>
      </trkpt>
      <trkpt lat="43.63794" lon="5.63838">
        <ele>340</ele>
        <time>2017-03-08T14:02:42Z</time>
      </trkpt>
      <trkpt lat="43.63787" lon="5.63832">
        <ele>340</ele>
        <time>2017-03-08T14:02:53Z</time>
      </trkpt>
      <trkpt lat="43.6378" lon="5.63826">
        <ele>341</ele>
        <time>2017-03-08T14:03:39Z</time>
      </trkpt>
      <trkpt lat="43.63775" lon="5.6383">
        <ele>344</ele>
        <time>2017-03-08T14:03:47Z</time>
      </trkpt>
      <trkpt lat="43.63767" lon="5.63825">
        <ele>335</ele>
        <time>2017-03-08T14:04:17Z</time>
      </trkpt>
      <trkpt lat="43.63769" lon="5.63836">
        <ele>328</ele>
        <time>2017-03-08T14:04:59Z</time>
      </trkpt>
      <trkpt lat="43.63765" lon="5.63845">
        <ele>329</ele>
        <time>2017-03-08T14:05:04Z</time>
      </trkpt>
      <trkpt lat="43.63765" lon="5.63857">
        <ele>330</ele>
        <time>2017-03-08T14:05:10Z</time>
      </trkpt>
      <trkpt lat="43.63767" lon="5.63868">
        <ele>332</ele>
        <time>2017-03-08T14:05:21Z</time>
      </trkpt>
      <trkpt lat="43.63767" lon="5.6388">
        <ele>332</ele>
        <time>2017-03-08T14:05:36Z</time>
      </trkpt>
      <trkpt lat="43.63763" lon="5.6389">
        <ele>327</ele>
        <time>2017-03-08T14:05:41Z</time>
      </trkpt>
      <trkpt lat="43.63764" lon="5.63902">
        <ele>324</ele>
        <time>2017-03-08T14:05:52Z</time>
      </trkpt>
      <trkpt lat="43.63765" lon="5.63914">
        <ele>328</ele>
        <time>2017-03-08T14:05:59Z</time>
      </trkpt>
      <trkpt lat="43.63769" lon="5.63923">
        <ele>330</ele>
        <time>2017-03-08T14:06:09Z</time>
      </trkpt>
      <trkpt lat="43.63765" lon="5.63933">
        <ele>329</ele>
        <time>2017-03-08T14:06:14Z</time>
      </trkpt>
      <trkpt lat="43.63764" lon="5.63946">
        <ele>328</ele>
        <time>2017-03-08T14:06:20Z</time>
      </trkpt>
      <trkpt lat="43.63757" lon="5.63952">
        <ele>323</ele>
        <time>2017-03-08T14:06:29Z</time>
      </trkpt>
      <trkpt lat="43.63753" lon="5.63962">
        <ele>322</ele>
        <time>2017-03-08T14:06:40Z</time>
      </trkpt>
      <trkpt lat="43.63747" lon="5.6397">
        <ele>320</ele>
        <time>2017-03-08T14:06:49Z</time>
      </trkpt>
      <trkpt lat="43.63754" lon="5.63979">
        <ele>317</ele>
        <time>2017-03-08T14:07:01Z</time>
      </trkpt>
      <trkpt lat="43.63753" lon="5.6399">
        <ele>317</ele>
        <time>2017-03-08T14:07:13Z</time>
      </trkpt>
      <trkpt lat="43.63753" lon="5.64">
        <ele>313</ele>
        <time>2017-03-08T14:07:19Z</time>
      </trkpt>
      <trkpt lat="43.63749" lon="5.64009">
        <ele>315</ele>
        <time>2017-03-08T14:07:26Z</time>
      </trkpt>
      <trkpt lat="43.63747" lon="5.64019">
        <ele>320</ele>
        <time>2017-03-08T14:07:30Z</time>
      </trkpt>
      <trkpt lat="43.63739" lon="5.64018">
        <ele>313</ele>
        <time>2017-03-08T14:07:39Z</time>
      </trkpt>
      <trkpt lat="43.63731" lon="5.64018">
        <ele>306</ele>
        <time>2017-03-08T14:07:48Z</time>
      </trkpt>
      <trkpt lat="43.63722" lon="5.64015">
        <ele>312</ele>
        <time>2017-03-08T14:07:58Z</time>
      </trkpt>
      <trkpt lat="43.63723" lon="5.64003">
        <ele>312</ele>
        <time>2017-03-08T14:08:55Z</time>
      </trkpt>
      <trkpt lat="43.63729" lon="5.63996">
        <ele>313</ele>
        <time>2017-03-08T14:11:07Z</time>
      </trkpt>
      <trkpt lat="43.63727" lon="5.63998">
        <ele>316</ele>
        <time>2017-03-08T14:12:46Z</time>
      </trkpt>
      <trkpt lat="43.63727" lon="5.63998">
        <ele>316</ele>
        <time>2017-03-08T14:12:47Z</time>
      </trkpt>
    </trkseg>
  </trk>
</gpx>